Darstellungsparameter: Aktuell verwendete Einstellungen:
Skalierung der Graphiken ... ?
xyx+y,   Skalierungsfaktor:      Skalierung: Modus: x, Faktor: 1
Darstellungszeitraum ... ?
Vom - - bis: - -   Zeitraum: 07.09.2010 - 27.09.2010
Min/Max/Avg-Anzeige ... ?
Zeige MMA aktuell
Zeige MMA Monat
Zeige MMA alles
Zeige --A aktuell
Zeige --A Monat
Zeige --A alles
Keine MMA-Anzeige
MMA:
Minimum Maximum Average (ber die Originaldaten)
MMA-Basis: 07.09.2010 - 27.09.2010
Quicknavigation für Darstellung... ?
Tage:      1T, 2T, 3T, 5T -1T -2T -3T -5T +1T +2T +3T +5T
Wochen: 1W, 2W, 3W -1W -2W -3W +1W +2W +3W
Monate: 1M, 3M, 6M -1M -3M -6M +1M +3M +6M
Jahre:    1J, 3J, 5J, 10J -1J -3J -5J -10J +1J +3J +5J +10J
Nutze für die Darstellung ... ?
Originaldaten oder Mittelwerte auf ...
Stundenbasis Tagesbasis Wochenbasis
Monatsbasis Jahresbasis      Datenbasis: Original-Daten
Darstellen als:
Statistik (Auto) Statistik J:M      Darstellung:
Zur Graphik,    zurück zur Übersicht aller Sensoren.
 
Tabellarische Datenbersicht: ?
 
Sensor: Nr:Datum:Temp:Abs-Feuchte:Windchill:Wind:
Aussen-T/F 1 07-09-2010 00:05:03 15.2 C 5.71 g/m*3 15.2 C 0 km/h
2 07-09-2010 00:17:03 15.4 C 5.52 g/m*3 15.4 C 0 km/h
3 07-09-2010 00:29:03 15.4 C 5.52 g/m*3 15.4 C 0 km/h
4 07-09-2010 00:41:03 15.5 C 5.42 g/m*3 15.5 C 0 km/h
5 07-09-2010 00:53:03 15.4 C 5.39 g/m*3 15.4 C 0 km/h
6 07-09-2010 01:05:03 15.4 C 5.52 g/m*3 15.4 C 0 km/h
7 07-09-2010 01:17:04 15.4 C 5.39 g/m*3 15.4 C 0 km/h
8 07-09-2010 01:29:04 15.4 C 5.39 g/m*3 15.4 C 0 km/h
9 07-09-2010 01:41:04 15.4 C 5.39 g/m*3 15.4 C 0 km/h
10 07-09-2010 01:53:04 15.5 C 5.29 g/m*3 15.5 C 0 km/h
11 07-09-2010 02:05:04 15.5 C 5.29 g/m*3 15.5 C 0 km/h
12 07-09-2010 02:17:04 15.5 C 5.29 g/m*3 15.5 C 0 km/h
13 07-09-2010 02:29:04 15.5 C 5.55 g/m*3 15.5 C 0 km/h
14 07-09-2010 02:41:04 15.4 C 5.39 g/m*3 15.4 C 0 km/h
15 07-09-2010 02:53:04 15.4 C 5.39 g/m*3 15.4 C 0 km/h
16 07-09-2010 03:05:04 15.4 C 5.52 g/m*3 15.4 C 0 km/h
17 07-09-2010 03:17:04 15.4 C 5.26 g/m*3 15.4 C 0 km/h
18 07-09-2010 03:29:04 14.8 C 5.7 g/m*3 14.8 C 0 km/h
19 07-09-2010 03:41:04 13.3 C 6.47 g/m*3 13.3 C 0 km/h
20 07-09-2010 03:53:04 12.8 C 6.94 g/m*3 12.8 C 0 km/h
21 07-09-2010 04:05:04 13.1 C 6.85 g/m*3 13.1 C 0 km/h
22 07-09-2010 04:17:04 13.4 C 6.97 g/m*3 13.4 C 0 km/h
23 07-09-2010 04:29:04 13.1 C 6.62 g/m*3 13.1 C 0 km/h
24 07-09-2010 04:41:04 12.8 C 7.28 g/m*3 12.8 C 0 km/h
25 07-09-2010 04:53:04 12.9 C 7.33 g/m*3 12.9 C 0 km/h
Sensor: Nr:Datum:Temp:Abs-Feuchte:Windchill:Wind:
Aussen-T/F 26 07-09-2010 05:05:04 12.9 C 7.21 g/m*3 12.9 C 0 km/h
27 07-09-2010 05:17:04 13 C 7.26 g/m*3 13 C 0 km/h
28 07-09-2010 05:29:05 13 C 7.03 g/m*3 13 C 0 km/h
29 07-09-2010 05:41:05 13.2 C 6.77 g/m*3 13.2 C 0 km/h
30 07-09-2010 05:53:05 12.8 C 7.28 g/m*3 12.8 C 0 km/h
31 07-09-2010 06:05:05 12.5 C 7.26 g/m*3 12.5 C 0 km/h
32 07-09-2010 06:17:05 12.3 C 7.38 g/m*3 12.3 C 0 km/h
33 07-09-2010 06:29:05 12.4 C 7.1 g/m*3 12.4 C 0 km/h
34 07-09-2010 06:41:05 12.6 C 6.75 g/m*3 12.6 C 0 km/h
35 07-09-2010 06:53:05 12.7 C 6.68 g/m*3 12.7 C 0 km/h
36 07-09-2010 07:05:05 12.4 C 6.66 g/m*3 12.4 C 0 km/h
37 07-09-2010 07:17:05 12.2 C 7.01 g/m*3 12.2 C 0 km/h
38 07-09-2010 07:29:05 12.1 C 6.97 g/m*3 12.1 C 0 km/h
39 07-09-2010 07:41:05 12 C 7.35 g/m*3 12 C 0 km/h
40 07-09-2010 07:53:01 11.9 C 7.41 g/m*3 11.9 C 0 km/h
41 07-09-2010 08:05:02 11.7 C 7.74 g/m*3 11.7 C 0 km/h
42 07-09-2010 08:17:02 11.6 C 8.11 g/m*3 11.6 C 0 km/h
43 07-09-2010 08:29:02 11.7 C 8.37 g/m*3 11.7 C 0 km/h
44 07-09-2010 08:41:02 11.4 C 8.11 g/m*3 11.4 C 0 km/h
45 07-09-2010 08:53:01 11.4 C 8.21 g/m*3 11.4 C 0 km/h
46 07-09-2010 09:05:02 11.4 C 8.21 g/m*3 11.4 C 0 km/h
47 07-09-2010 09:17:02 11.4 C 8.21 g/m*3 11.4 C 0 km/h
48 07-09-2010 09:29:02 11.5 C 8.47 g/m*3 11.5 C 0 km/h
49 07-09-2010 09:41:01 11.5 C 8.47 g/m*3 11.5 C 0 km/h
50 07-09-2010 09:53:02 11.5 C 8.68 g/m*3 11.5 C 0 km/h
Sensor: Nr:Datum:Temp:Abs-Feuchte:Windchill:Wind:
Aussen-T/F 51 07-09-2010 10:05:01 11.4 C 8.72 g/m*3 11.4 C 0 km/h
52 07-09-2010 10:17:02 11.4 C 8.83 g/m*3 11.4 C 0 km/h
53 07-09-2010 10:29:02 11.5 C 8.88 g/m*3 11.5 C 0 km/h
54 07-09-2010 10:41:01 11.4 C 8.93 g/m*3 11.4 C 0 km/h
55 07-09-2010 10:53:02 11.6 C 9.04 g/m*3 11.6 C 0 km/h
56 07-09-2010 11:05:01 11.6 C 9.15 g/m*3 11.6 C 0 km/h
57 07-09-2010 11:17:01 11.5 C 9.09 g/m*3 11.5 C 0 km/h
58 07-09-2010 11:29:01 11.2 C 8.92 g/m*3 11.2 C 0 km/h
59 07-09-2010 11:41:02 11.7 C 9.41 g/m*3 11.7 C 0 km/h
60 07-09-2010 11:53:02 12.2 C 9.5 g/m*3 12.2 C 0 km/h
61 07-09-2010 12:05:02 12 C 9.38 g/m*3 12 C 0 km/h
62 07-09-2010 12:17:02 12.4 C 9.62 g/m*3 12.4 C 0 km/h
63 07-09-2010 12:29:02 12.4 C 9.4 g/m*3 12.4 C 0 km/h
64 07-09-2010 12:41:02 12.5 C 9.46 g/m*3 12.5 C 0 km/h
65 07-09-2010 12:53:02 12.8 C 9.63 g/m*3 12.8 C 0 km/h
66 07-09-2010 13:05:02 12.7 C 9.35 g/m*3 12.7 C 0 km/h
67 07-09-2010 13:17:02 12.8 C 9.41 g/m*3 12.8 C 0 km/h
68 07-09-2010 13:29:02 12.8 C 9.3 g/m*3 12.8 C 0 km/h
69 07-09-2010 13:41:02 12.7 C 9.13 g/m*3 12.7 C 0 km/h
70 07-09-2010 13:53:01 12.9 C 9.35 g/m*3 12.9 C 0 km/h
71 07-09-2010 14:05:01 12.9 C 9.35 g/m*3 12.9 C 0 km/h
72 07-09-2010 14:17:01 13.1 C 9.36 g/m*3 13.1 C 0 km/h
73 07-09-2010 14:29:01 13.3 C 9.47 g/m*3 13.3 C 0 km/h
74 07-09-2010 14:41:01 13.4 C 9.3 g/m*3 13.4 C 0 km/h
75 07-09-2010 14:53:01 14.1 C 9.34 g/m*3 14.1 C 0 km/h
Sensor: Nr:Datum:Temp:Abs-Feuchte:Windchill:Wind:
Aussen-T/F 76 07-09-2010 15:05:01 14.4 C 9.39 g/m*3 14.4 C 0 km/h
77 07-09-2010 15:17:02 14.4 C 8.9 g/m*3 14.4 C 0 km/h
78 07-09-2010 15:29:02 14.7 C 9.07 g/m*3 14.7 C 0 km/h
79 07-09-2010 15:41:01 14.7 C 9.07 g/m*3 14.7 C 0 km/h
80 07-09-2010 15:53:03 14.7 C 9.19 g/m*3 14.7 C 0 km/h
81 07-09-2010 16:05:02 15.3 C 9.27 g/m*3 15.3 C 0 km/h
82 07-09-2010 16:17:02 15.6 C 9.04 g/m*3 15.6 C 0 km/h
83 07-09-2010 16:29:02 15.7 C 9.1 g/m*3 15.7 C 0 km/h
84 07-09-2010 16:41:02 15.6 C 9.04 g/m*3 15.6 C 0 km/h
85 07-09-2010 16:53:02 15.4 C 9.07 g/m*3 15.4 C 0 km/h
86 07-09-2010 17:05:02 15.2 C 8.96 g/m*3 15.2 C 0 km/h
87 07-09-2010 17:17:02 14.9 C 8.92 g/m*3 14.9 C 0 km/h
88 07-09-2010 17:29:02 14.8 C 9.12 g/m*3 14.8 C 0 km/h
89 07-09-2010 17:41:02 14.8 C 9.12 g/m*3 14.8 C 0 km/h
90 07-09-2010 17:53:02 14.7 C 9.19 g/m*3 14.7 C 0 km/h
91 07-09-2010 18:05:02 14.1 C 8.86 g/m*3 14.1 C 0 km/h
92 07-09-2010 18:17:01 14 C 9.05 g/m*3 14 C 0 km/h
93 07-09-2010 18:29:01 14 C 9.05 g/m*3 14 C 0 km/h
94 07-09-2010 18:41:02 13.9 C 9.23 g/m*3 13.9 C 0 km/h
95 07-09-2010 18:53:02 13.9 C 9.23 g/m*3 13.9 C 0 km/h
96 07-09-2010 19:05:02 13.9 C 9.35 g/m*3 13.9 C 0 km/h
97 07-09-2010 19:17:01 13.8 C 9.29 g/m*3 13.8 C 0 km/h
98 07-09-2010 19:29:01 13.8 C 9.41 g/m*3 13.8 C 0 km/h
99 07-09-2010 19:41:02 13.7 C 9.35 g/m*3 13.7 C 0 km/h
100 07-09-2010 19:53:02 13.7 C 9.47 g/m*3 13.7 C 0 km/h
Sensor: Nr:Datum:Temp:Abs-Feuchte:Windchill:Wind:
Aussen-T/F 101 07-09-2010 20:05:02 13.5 C 9.47 g/m*3 13.5 C 0 km/h
102 07-09-2010 20:17:02 13.3 C 9.47 g/m*3 13.3 C 0 km/h
103 07-09-2010 20:29:02 13.2 C 9.53 g/m*3 13.2 C 0 km/h
104 07-09-2010 20:41:02 13.1 C 9.59 g/m*3 13.1 C 0 km/h
105 07-09-2010 20:53:02 13.1 C 9.7 g/m*3 13.1 C 0 km/h
106 07-09-2010 21:05:02 13 C 9.75 g/m*3 13 C 0 km/h
107 07-09-2010 21:17:02 13 C 9.87 g/m*3 13 C 0 km/h
108 07-09-2010 21:29:02 13 C 9.87 g/m*3 13 C 0 km/h
109 07-09-2010 21:41:02 13 C 9.98 g/m*3 13 C 0 km/h
110 07-09-2010 21:53:02 12.8 C 9.97 g/m*3 12.8 C 0 km/h
111 07-09-2010 22:05:02 12.9 C 10.03 g/m*3 12.9 C 0 km/h
112 07-09-2010 22:18:05 12.9 C 10.03 g/m*3 12.9 C 0 km/h
113 07-09-2010 22:30:05 12.9 C 10.03 g/m*3 12.9 C 0 km/h
114 07-09-2010 22:42:05 12.8 C 9.97 g/m*3 12.8 C 0 km/h
115 07-09-2010 22:54:05 12.8 C 10.08 g/m*3 12.8 C 0 km/h
116 07-09-2010 23:06:05 12.9 C 10.14 g/m*3 12.9 C 0 km/h
117 07-09-2010 23:18:05 12.9 C 10.14 g/m*3 12.9 C 0 km/h
118 07-09-2010 23:30:05 12.8 C 10.08 g/m*3 12.8 C 0 km/h
119 07-09-2010 23:42:05 13 C 10.21 g/m*3 13 C 0 km/h
120 07-09-2010 23:54:05 13 C 10.21 g/m*3 13 C 0 km/h
121 08-09-2010 00:06:05 12.9 C 10.26 g/m*3 12.9 C 0 km/h
122 08-09-2010 00:18:05 12.8 C 10.19 g/m*3 12.8 C 0 km/h
123 08-09-2010 00:30:05 12.9 C 10.26 g/m*3 12.9 C 0 km/h
124 08-09-2010 00:42:06 12.9 C 10.26 g/m*3 12.9 C 0 km/h
125 08-09-2010 00:54:06 12.9 C 10.26 g/m*3 12.9 C 0 km/h
Sensor: Nr:Datum:Temp:Abs-Feuchte:Windchill:Wind:
Aussen-T/F 126 08-09-2010 01:06:06 13 C 10.32 g/m*3 13 C 0 km/h
127 08-09-2010 01:18:06 13 C 10.32 g/m*3 13 C 0 km/h
128 08-09-2010 01:30:06 13 C 10.32 g/m*3 13 C 0 km/h
129 08-09-2010 01:42:06 13 C 10.43 g/m*3 13 C 0 km/h
130 08-09-2010 01:54:06 13 C 10.43 g/m*3 13 C 0 km/h
131 08-09-2010 02:06:06 13.1 C 10.5 g/m*3 13.1 C 0 km/h
132 08-09-2010 02:18:06 13.1 C 10.5 g/m*3 13.1 C 0 km/h
133 08-09-2010 02:30:06 13.2 C 10.56 g/m*3 13.2 C 0 km/h
134 08-09-2010 02:42:06 13.2 C 10.68 g/m*3 13.2 C 0 km/h
135 08-09-2010 02:54:06 13.4 C 10.81 g/m*3 13.4 C 0 km/h
136 08-09-2010 03:06:06 13.4 C 10.81 g/m*3 13.4 C 0 km/h
137 08-09-2010 03:18:06 13.5 C 10.88 g/m*3 13.5 C 0 km/h
138 08-09-2010 03:30:06 13.6 C 10.95 g/m*3 13.6 C 0 km/h
139 08-09-2010 03:42:06 13.7 C 11.01 g/m*3 13.7 C 0 km/h
140 08-09-2010 03:54:06 13.6 C 10.95 g/m*3 13.6 C 0 km/h
141 08-09-2010 04:06:06 13.5 C 10.88 g/m*3 13.5 C 0 km/h
142 08-09-2010 04:18:06 13.5 C 10.88 g/m*3 13.5 C 0 km/h
143 08-09-2010 04:30:06 13.6 C 10.95 g/m*3 13.6 C 0 km/h
144 08-09-2010 04:42:06 13.5 C 10.88 g/m*3 13.5 C 0 km/h
145 08-09-2010 04:54:07 13.7 C 11.01 g/m*3 13.7 C 0 km/h
146 08-09-2010 05:06:07 14.1 C 11.29 g/m*3 14.1 C 0 km/h
147 08-09-2010 05:18:07 14 C 11.34 g/m*3 14 C 0 km/h
148 08-09-2010 05:30:07 14.1 C 11.41 g/m*3 14.1 C 0 km/h
149 08-09-2010 05:42:07 14.4 C 11.62 g/m*3 14.4 C 0 km/h
150 08-09-2010 05:54:07 14.2 C 11.36 g/m*3 14.2 C 0 km/h
Sensor: Nr:Datum:Temp:Abs-Feuchte:Windchill:Wind:
Aussen-T/F 151 08-09-2010 06:06:07 14.4 C 11.5 g/m*3 14.4 C 0 km/h
152 08-09-2010 06:18:07 14.4 C 11.5 g/m*3 14.4 C 0 km/h
153 08-09-2010 06:30:07 14.3 C 11.43 g/m*3 14.3 C 0 km/h
154 08-09-2010 06:42:07 14.3 C 11.43 g/m*3 14.3 C 0 km/h
155 08-09-2010 06:54:07 14.4 C 11.37 g/m*3 14.4 C 0 km/h
156 08-09-2010 07:06:07 14.3 C 11.3 g/m*3 14.3 C 0 km/h
157 08-09-2010 07:18:04 14.3 C 11.3 g/m*3 14.3 C 0 km/h
158 08-09-2010 07:30:04 14.3 C 11.3 g/m*3 14.3 C 0 km/h
159 08-09-2010 07:42:04 14.1 C 11.17 g/m*3 14.1 C 0 km/h
160 08-09-2010 07:54:02 14.1 C 11.17 g/m*3 14.1 C 0 km/h
161 08-09-2010 08:06:02 14.1 C 11.17 g/m*3 14.1 C 0 km/h
162 08-09-2010 08:18:02 14.1 C 11.17 g/m*3 14.1 C 0 km/h
163 08-09-2010 08:30:02 14.2 C 11.23 g/m*3 14.2 C 0 km/h
164 08-09-2010 08:42:02 14.3 C 11.3 g/m*3 14.3 C 0 km/h
165 08-09-2010 08:54:02 14.4 C 11.37 g/m*3 14.4 C 0 km/h
166 08-09-2010 09:06:01 14.8 C 11.65 g/m*3 14.8 C 0 km/h
167 08-09-2010 09:18:02 15 C 11.54 g/m*3 15 C 0 km/h
168 08-09-2010 09:30:02 15.3 C 11.62 g/m*3 15.3 C 0 km/h
169 08-09-2010 09:42:02 15.5 C 11.76 g/m*3 15.5 C 0 km/h
170 08-09-2010 09:54:02 15.5 C 11.5 g/m*3 15.5 C 0 km/h
171 08-09-2010 10:06:02 15.5 C 11.5 g/m*3 15.5 C 0 km/h
172 08-09-2010 10:18:02 15.3 C 11.36 g/m*3 15.3 C 0 km/h
173 08-09-2010 10:30:02 15.5 C 11.37 g/m*3 15.5 C 0 km/h
174 08-09-2010 10:42:02 15.6 C 11.44 g/m*3 15.6 C 0 km/h
175 08-09-2010 10:54:02 15.7 C 11.37 g/m*3 15.7 C 0 km/h
Sensor: Nr:Datum:Temp:Abs-Feuchte:Windchill:Wind:
Aussen-T/F 176 08-09-2010 11:06:02 15.7 C 11.11 g/m*3 15.7 C 0 km/h
177 08-09-2010 11:18:02 15.4 C 10.9 g/m*3 15.4 C 0 km/h
178 08-09-2010 11:30:02 15.1 C 10.97 g/m*3 15.1 C 0 km/h
179 08-09-2010 11:42:02 15 C 11.03 g/m*3 15 C 0 km/h
180 08-09-2010 11:54:02 15 C 11.16 g/m*3 15 C 0 km/h
181 08-09-2010 12:06:02 14.6 C 11.01 g/m*3 14.6 C 0 km/h
182 08-09-2010 12:18:03 14.6 C 11.14 g/m*3 14.6 C 0 km/h
183 08-09-2010 12:30:03 14.7 C 11.21 g/m*3 14.7 C 0 km/h
184 08-09-2010 12:42:02 14.8 C 11.4 g/m*3 14.8 C 0 km/h
185 08-09-2010 12:54:01 15 C 11.54 g/m*3 15 C 0 km/h
186 08-09-2010 13:06:01 15.5 C 11.9 g/m*3 15.5 C 0 km/h
187 08-09-2010 13:18:02 15.8 C 12.11 g/m*3 15.8 C 0 km/h
188 08-09-2010 13:30:02 16.3 C 12.35 g/m*3 16.3 C 0 km/h
189 08-09-2010 13:42:01 16.8 C 12.44 g/m*3 16.8 C 0 km/h
190 08-09-2010 13:54:02 16.7 C 11.8 g/m*3 16.7 C 0 km/h
191 08-09-2010 14:06:02 17.4 C 12 g/m*3 17.4 C 0 km/h
192 08-09-2010 14:18:02 17.2 C 11.42 g/m*3 17.2 C 0 km/h
193 08-09-2010 14:30:02 17 C 11.29 g/m*3 17 C 0 km/h
194 08-09-2010 14:42:02 17.9 C 11.6 g/m*3 17.9 C 0 km/h
195 08-09-2010 14:54:02 18.4 C 11.48 g/m*3 18.4 C 0 km/h
196 08-09-2010 15:06:01 18.2 C 11.04 g/m*3 18.2 C 0 km/h
197 08-09-2010 15:18:01 17.8 C 11.08 g/m*3 17.8 C 0 km/h
198 08-09-2010 15:30:02 17.6 C 11.1 g/m*3 17.6 C 0 km/h
199 08-09-2010 15:42:01 17.8 C 11.23 g/m*3 17.8 C 0 km/h
200 08-09-2010 15:54:02 18.3 C 11.41 g/m*3 18.3 C 0 km/h
Sensor: Nr:Datum:Temp:Abs-Feuchte:Windchill:Wind:
Aussen-T/F 201 08-09-2010 16:06:01 19 C 10.92 g/m*3 19 C 0 km/h
202 08-09-2010 16:18:01 18.7 C 10.89 g/m*3 18.7 C 0 km/h
203 08-09-2010 16:30:01 18.5 C 10.6 g/m*3 18.5 C 0 km/h
204 08-09-2010 16:42:02 18.5 C 10.6 g/m*3 18.5 C 0 km/h
205 08-09-2010 16:54:02 18 C 10.44 g/m*3 18 C 0 km/h
206 08-09-2010 17:06:02 19.3 C 10.45 g/m*3 19.3 C 0 km/h
207 08-09-2010 17:18:02 20.4 C 10.08 g/m*3 20.4 C 0 km/h
208 08-09-2010 17:30:02 20.5 C 10.14 g/m*3 20.5 C 0 km/h
209 08-09-2010 17:42:02 19.5 C 10.07 g/m*3 19.5 C 0 km/h
210 08-09-2010 17:54:02 19.7 C 10.36 g/m*3 19.7 C 0 km/h
211 08-09-2010 18:06:02 19.3 C 10.28 g/m*3 19.3 C 0 km/h
212 08-09-2010 18:18:01 20.2 C 9.97 g/m*3 20.2 C 0 km/h
213 08-09-2010 18:30:01 19.3 C 10.12 g/m*3 19.3 C 0 km/h
214 08-09-2010 18:42:02 18.3 C 10.16 g/m*3 18.3 C 0 km/h
215 08-09-2010 18:54:02 18.2 C 10.57 g/m*3 18.2 C 0 km/h
216 08-09-2010 19:06:02 18.6 C 10.66 g/m*3 18.6 C 0 km/h
217 08-09-2010 19:18:01 18.7 C 10.57 g/m*3 18.7 C 0 km/h
218 08-09-2010 19:30:01 18.3 C 10.48 g/m*3 18.3 C 0 km/h
219 08-09-2010 19:42:02 17.9 C 10.69 g/m*3 17.9 C 0 km/h
220 08-09-2010 19:54:02 17.5 C 10.29 g/m*3 17.5 C 0 km/h
221 08-09-2010 20:06:03 17.4 C 10.52 g/m*3 17.4 C 0 km/h
222 08-09-2010 20:18:02 17 C 10.42 g/m*3 17 C 0 km/h
223 08-09-2010 20:30:02 16.7 C 10.66 g/m*3 16.7 C 0 km/h
224 08-09-2010 20:42:02 16.6 C 10.74 g/m*3 16.6 C 0 km/h
225 08-09-2010 20:54:01 16.3 C 10.27 g/m*3 16.3 C 0 km/h
Sensor: Nr:Datum:Temp:Abs-Feuchte:Windchill:Wind:
Aussen-T/F 226 08-09-2010 21:06:01 15.9 C 10.02 g/m*3 15.9 C 0 km/h
227 08-09-2010 21:18:01 15.8 C 9.69 g/m*3 15.8 C 0 km/h
228 08-09-2010 21:30:01 15.7 C 9.63 g/m*3 15.7 C 0 km/h
229 08-09-2010 21:42:01 15.7 C 9.63 g/m*3 15.7 C 0 km/h
230 08-09-2010 21:54:01 15.5 C 9.52 g/m*3 15.5 C 0 km/h
231 08-09-2010 22:06:01 15.2 C 9.48 g/m*3 15.2 C 0 km/h
232 08-09-2010 22:18:02 14.9 C 9.56 g/m*3 14.9 C 0 km/h
233 08-09-2010 22:30:02 14.6 C 9.76 g/m*3 14.6 C 0 km/h
234 08-09-2010 22:42:02 14.5 C 9.95 g/m*3 14.5 C 0 km/h
235 08-09-2010 22:55:02 14.7 C 10.2 g/m*3 14.7 C 0 km/h
236 08-09-2010 23:07:02 14.5 C 9.95 g/m*3 14.5 C 0 km/h
237 08-09-2010 23:19:02 14.5 C 10.07 g/m*3 14.5 C 0 km/h
238 08-09-2010 23:31:02 14.6 C 10.01 g/m*3 14.6 C 0 km/h
239 08-09-2010 23:43:02 14.5 C 10.07 g/m*3 14.5 C 0 km/h
240 08-09-2010 23:55:03 14.3 C 9.95 g/m*3 14.3 C 0 km/h
241 09-09-2010 00:07:03 14.4 C 10.14 g/m*3 14.4 C 0 km/h
242 09-09-2010 00:19:03 14.4 C 10.14 g/m*3 14.4 C 0 km/h
243 09-09-2010 00:31:03 14.1 C 10.07 g/m*3 14.1 C 0 km/h
244 09-09-2010 00:43:03 14.5 C 10.32 g/m*3 14.5 C 0 km/h
245 09-09-2010 00:55:03 14.5 C 10.32 g/m*3 14.5 C 0 km/h
246 09-09-2010 01:07:03 14.8 C 10.39 g/m*3 14.8 C 0 km/h
247 09-09-2010 01:19:03 15 C 10 g/m*3 15 C 0 km/h
248 09-09-2010 01:31:03 15.1 C 10.06 g/m*3 15.1 C 0 km/h
249 09-09-2010 01:43:03 15.2 C 9.99 g/m*3 15.2 C 0 km/h
250 09-09-2010 01:55:03 15.1 C 9.93 g/m*3 15.1 C 0 km/h
Sensor: Nr:Datum:Temp:Abs-Feuchte:Windchill:Wind:
Aussen-T/F 251 09-09-2010 02:07:03 15.2 C 9.99 g/m*3 15.2 C 0 km/h
252 09-09-2010 02:19:03 15.1 C 9.93 g/m*3 15.1 C 0 km/h
253 09-09-2010 02:31:03 15.1 C 9.93 g/m*3 15.1 C 0 km/h
254 09-09-2010 02:43:03 15.1 C 9.93 g/m*3 15.1 C 0 km/h
255 09-09-2010 02:55:03 15.2 C 9.86 g/m*3 15.2 C 0 km/h
256 09-09-2010 03:07:03 15.2 C 9.86 g/m*3 15.2 C 0 km/h
257 09-09-2010 03:19:03 15.3 C 9.79 g/m*3 15.3 C 0 km/h
258 09-09-2010 03:31:03 15.3 C 9.79 g/m*3 15.3 C 0 km/h
259 09-09-2010 03:43:03 15.4 C 9.72 g/m*3 15.4 C 0 km/h
260 09-09-2010 03:55:04 15.4 C 9.72 g/m*3 15.4 C 0 km/h
261 09-09-2010 04:07:04 15.4 C 9.59 g/m*3 15.4 C 0 km/h
262 09-09-2010 04:19:04 15.2 C 9.48 g/m*3 15.2 C 0 km/h
263 09-09-2010 04:31:04 15.2 C 9.35 g/m*3 15.2 C 0 km/h
264 09-09-2010 04:43:04 15.2 C 9.22 g/m*3 15.2 C 0 km/h
265 09-09-2010 04:55:04 15.1 C 9.03 g/m*3 15.1 C 0 km/h
266 09-09-2010 05:07:04 14.9 C 9.05 g/m*3 14.9 C 0 km/h
267 09-09-2010 05:19:04 14.9 C 9.05 g/m*3 14.9 C 0 km/h
268 09-09-2010 05:31:04 14.9 C 9.05 g/m*3 14.9 C 0 km/h
269 09-09-2010 05:43:04 14.9 C 9.05 g/m*3 14.9 C 0 km/h
270 09-09-2010 05:55:04 14.9 C 8.92 g/m*3 14.9 C 0 km/h
271 09-09-2010 06:07:04 14.8 C 8.87 g/m*3 14.8 C 0 km/h
272 09-09-2010 06:19:04 14.8 C 8.87 g/m*3 14.8 C 0 km/h
273 09-09-2010 06:31:04 14.8 C 8.87 g/m*3 14.8 C 0 km/h
274 09-09-2010 06:43:04 14.8 C 8.87 g/m*3 14.8 C 0 km/h
275 09-09-2010 06:55:04 14.7 C 8.94 g/m*3 14.7 C 0 km/h
Sensor: Nr:Datum:Temp:Abs-Feuchte:Windchill:Wind:
Aussen-T/F 276 09-09-2010 07:07:04 14.5 C 9.08 g/m*3 14.5 C 0 km/h
277 09-09-2010 07:19:04 14.5 C 9.08 g/m*3 14.5 C 0 km/h
278 09-09-2010 07:31:04 14.6 C 9.13 g/m*3 14.6 C 0 km/h
279 09-09-2010 07:43:04 14.6 C 9.01 g/m*3 14.6 C 0 km/h
280 09-09-2010 07:55:04 14.7 C 9.07 g/m*3 14.7 C 0 km/h
281 09-09-2010 08:07:02 14.7 C 9.07 g/m*3 14.7 C 0 km/h
282 09-09-2010 08:19:02 14.8 C 9.12 g/m*3 14.8 C 0 km/h
283 09-09-2010 08:31:02 14.8 C 9.12 g/m*3 14.8 C 0 km/h
284 09-09-2010 08:43:02 14.8 C 9.12 g/m*3 14.8 C 0 km/h
285 09-09-2010 08:55:02 14.9 C 9.05 g/m*3 14.9 C 0 km/h
286 09-09-2010 09:07:02 14.9 C 9.05 g/m*3 14.9 C 0 km/h
287 09-09-2010 09:19:03 14.9 C 9.05 g/m*3 14.9 C 0 km/h
288 09-09-2010 09:31:02 15.2 C 9.09 g/m*3 15.2 C 0 km/h
289 09-09-2010 09:43:02 15.5 C 9.12 g/m*3 15.5 C 0 km/h
290 09-09-2010 09:55:01 15.8 C 9.15 g/m*3 15.8 C 0 km/h
291 09-09-2010 10:07:02 16 C 8.99 g/m*3 16 C 0 km/h
292 09-09-2010 10:19:02 16.4 C 9.07 g/m*3 16.4 C 0 km/h
293 09-09-2010 10:31:01 16.8 C 9.15 g/m*3 16.8 C 0 km/h
294 09-09-2010 10:43:01 17.2 C 9.08 g/m*3 17.2 C 0 km/h
295 09-09-2010 10:55:02 17.4 C 9.19 g/m*3 17.4 C 0 km/h
296 09-09-2010 11:07:01 17.5 C 9.09 g/m*3 17.5 C 0 km/h
297 09-09-2010 11:19:02 17.5 C 9.09 g/m*3 17.5 C 0 km/h
298 09-09-2010 11:31:02 17.8 C 8.8 g/m*3 17.8 C 0 km/h
299 09-09-2010 11:43:02 17.8 C 8.65 g/m*3 17.8 C 0 km/h
300 09-09-2010 11:55:02 18.3 C 8.76 g/m*3 18.3 C 0 km/h
Sensor: Nr:Datum:Temp:Abs-Feuchte:Windchill:Wind:
Aussen-T/F 301 09-09-2010 12:07:01 18.5 C 8.23 g/m*3 18.5 C 0 km/h
302 09-09-2010 12:19:02 18.6 C 8.28 g/m*3 18.6 C 0 km/h
303 09-09-2010 12:31:02 18.6 C 8.12 g/m*3 18.6 C 0 km/h
304 09-09-2010 12:43:02 19 C 8.15 g/m*3 19 C 0 km/h
305 09-09-2010 12:55:02 18.5 C 8.07 g/m*3 18.5 C 0 km/h
306 09-09-2010 13:07:02 18.6 C 8.28 g/m*3 18.6 C 0 km/h
307 09-09-2010 13:19:02 18.7 C 8.17 g/m*3 18.7 C 0 km/h
308 09-09-2010 13:31:02 18.7 C 8.01 g/m*3 18.7 C 0 km/h
309 09-09-2010 13:43:02 19 C 8.15 g/m*3 19 C 0 km/h
310 09-09-2010 13:55:02 19 C 8.47 g/m*3 19 C 0 km/h
311 09-09-2010 14:07:02 18.6 C 8.12 g/m*3 18.6 C 0 km/h
312 09-09-2010 14:19:02 18.4 C 8.18 g/m*3 18.4 C 0 km/h
313 09-09-2010 14:31:02 18.8 C 8.86 g/m*3 18.8 C 0 km/h
314 09-09-2010 14:43:02 19.3 C 8.79 g/m*3 19.3 C 0 km/h
315 09-09-2010 14:55:02 19.8 C 9.05 g/m*3 19.8 C 0 km/h
316 09-09-2010 15:07:02 20.3 C 8.97 g/m*3 20.3 C 0 km/h
317 09-09-2010 15:19:02 20.3 C 8.97 g/m*3 20.3 C 0 km/h
318 09-09-2010 15:31:02 19.5 C 8.89 g/m*3 19.5 C 0 km/h
319 09-09-2010 15:43:02 18.7 C 9.29 g/m*3 18.7 C 0 km/h
320 09-09-2010 15:55:02 18.1 C 9.43 g/m*3 18.1 C 0 km/h
321 09-09-2010 16:07:01 17.7 C 9.51 g/m*3 17.7 C 0 km/h
322 09-09-2010 16:19:02 16.1 C 10.14 g/m*3 16.1 C 0 km/h
323 09-09-2010 16:31:01 16.1 C 10.42 g/m*3 16.1 C 0 km/h
324 09-09-2010 16:43:01 17.1 C 11.79 g/m*3 17.1 C 0 km/h
325 09-09-2010 16:55:02 18.5 C 12.82 g/m*3 18.5 C 0 km/h
Sensor: Nr:Datum:Temp:Abs-Feuchte:Windchill:Wind:
Aussen-T/F 326 09-09-2010 17:07:02 18.2 C 12.28 g/m*3 18.2 C 0 km/h
327 09-09-2010 17:19:02 18 C 12.13 g/m*3 18 C 0 km/h
328 09-09-2010 17:31:02 17.9 C 11.45 g/m*3 17.9 C 0 km/h
329 09-09-2010 17:43:02 17.8 C 11.08 g/m*3 17.8 C 0 km/h
330 09-09-2010 17:55:02 17.7 C 11.16 g/m*3 17.7 C 0 km/h
331 09-09-2010 18:07:02 17.7 C 11.32 g/m*3 17.7 C 0 km/h
332 09-09-2010 18:19:01 17.7 C 10.86 g/m*3 17.7 C 0 km/h
333 09-09-2010 18:31:02 17.7 C 10.41 g/m*3 17.7 C 0 km/h
334 09-09-2010 18:43:03 17.9 C 10.38 g/m*3 17.9 C 0 km/h
335 09-09-2010 18:55:02 17.5 C 9.39 g/m*3 17.5 C 0 km/h
336 09-09-2010 19:07:02 17.2 C 9.37 g/m*3 17.2 C 0 km/h
337 09-09-2010 19:19:01 16.8 C 9.44 g/m*3 16.8 C 0 km/h
338 09-09-2010 19:31:02 16.5 C 9.55 g/m*3 16.5 C 0 km/h
339 09-09-2010 19:43:02 16.2 C 9.52 g/m*3 16.2 C 0 km/h
340 09-09-2010 19:55:01 16 C 9.4 g/m*3 16 C 0 km/h
341 09-09-2010 20:07:02 15.9 C 9.48 g/m*3 15.9 C 0 km/h
342 09-09-2010 20:19:02 15.8 C 9.42 g/m*3 15.8 C 0 km/h
343 09-09-2010 20:31:01 15.4 C 9.72 g/m*3 15.4 C 0 km/h
344 09-09-2010 20:43:01 15 C 10 g/m*3 15 C 0 km/h
345 09-09-2010 20:55:01 14.9 C 10.2 g/m*3 14.9 C 0 km/h
346 09-09-2010 21:07:01 14.9 C 10.32 g/m*3 14.9 C 0 km/h
347 09-09-2010 21:19:02 14.9 C 10.32 g/m*3 14.9 C 0 km/h
348 09-09-2010 21:31:01 14.8 C 10.26 g/m*3 14.8 C 0 km/h
349 09-09-2010 21:43:01 14.7 C 10.2 g/m*3 14.7 C 0 km/h
350 09-09-2010 21:55:02 14.7 C 10.2 g/m*3 14.7 C 0 km/h
Sensor: Nr:Datum:Temp:Abs-Feuchte:Windchill:Wind:
Aussen-T/F 351 09-09-2010 22:07:02 14.7 C 10.2 g/m*3 14.7 C 0 km/h
352 09-09-2010 22:19:01 14.8 C 10.13 g/m*3 14.8 C 0 km/h
353 09-09-2010 22:31:01 14.8 C 10.26 g/m*3 14.8 C 0 km/h
354 09-09-2010 22:43:01 14.7 C 10.2 g/m*3 14.7 C 0 km/h
355 09-09-2010 22:56:02 14.7 C 10.07 g/m*3 14.7 C 0 km/h
356 09-09-2010 23:08:02 14.8 C 10.01 g/m*3 14.8 C 0 km/h
357 09-09-2010 23:20:03 15 C 9.75 g/m*3 15 C 0 km/h
358 09-09-2010 23:32:03 15 C 9.62 g/m*3 15 C 0 km/h
359 09-09-2010 23:44:03 15.1 C 9.68 g/m*3 15.1 C 0 km/h
360 09-09-2010 23:56:03 15 C 9.49 g/m*3 15 C 0 km/h
361 10-09-2010 00:08:03 14.9 C 9.81 g/m*3 14.9 C 0 km/h
362 10-09-2010 00:20:03 14.8 C 9.88 g/m*3 14.8 C 0 km/h
363 10-09-2010 00:32:03 14.6 C 10.01 g/m*3 14.6 C 0 km/h
364 10-09-2010 00:44:03 14.6 C 10.01 g/m*3 14.6 C 0 km/h
365 10-09-2010 00:56:03 14.4 C 9.89 g/m*3 14.4 C 0 km/h
366 10-09-2010 01:08:03 14.3 C 9.83 g/m*3 14.3 C 0 km/h
367 10-09-2010 01:20:03 14.1 C 9.71 g/m*3 14.1 C 0 km/h
368 10-09-2010 01:32:03 13.9 C 9.71 g/m*3 13.9 C 0 km/h
369 10-09-2010 01:44:03 13.8 C 9.77 g/m*3 13.8 C 0 km/h
370 10-09-2010 01:56:03 13.9 C 9.83 g/m*3 13.9 C 0 km/h
371 10-09-2010 02:08:03 13.8 C 9.89 g/m*3 13.8 C 0 km/h
372 10-09-2010 02:20:03 13.8 C 9.89 g/m*3 13.8 C 0 km/h
373 10-09-2010 02:32:03 13.9 C 10.07 g/m*3 13.9 C 0 km/h
374 10-09-2010 02:44:03 14 C 10.01 g/m*3 14 C 0 km/h
375 10-09-2010 02:56:03 14 C 9.89 g/m*3 14 C 0 km/h
Sensor: Nr:Datum:Temp:Abs-Feuchte:Windchill:Wind:
Aussen-T/F 376 10-09-2010 03:08:03 14 C 10.01 g/m*3 14 C 0 km/h
377 10-09-2010 03:20:03 14 C 10.01 g/m*3 14 C 0 km/h
378 10-09-2010 03:32:04 13.9 C 10.07 g/m*3 13.9 C 0 km/h
379 10-09-2010 03:44:04 13.8 C 10.13 g/m*3 13.8 C 0 km/h
380 10-09-2010 03:56:04 13.8 C 10.13 g/m*3 13.8 C 0 km/h
381 10-09-2010 04:08:04 13.9 C 10.31 g/m*3 13.9 C 0 km/h
382 10-09-2010 04:20:04 14 C 10.25 g/m*3 14 C 0 km/h
383 10-09-2010 04:32:04 13.9 C 10.31 g/m*3 13.9 C 0 km/h
384 10-09-2010 04:44:04 13.8 C 10.25 g/m*3 13.8 C 0 km/h
385 10-09-2010 04:56:04 13.6 C 10.12 g/m*3 13.6 C 0 km/h
386 10-09-2010 05:08:04 13.4 C 10 g/m*3 13.4 C 0 km/h
387 10-09-2010 05:20:04 13.2 C 9.99 g/m*3 13.2 C 0 km/h
388 10-09-2010 05:32:04 13.1 C 10.04 g/m*3 13.1 C 0 km/h
389 10-09-2010 05:44:04 12.8 C 9.97 g/m*3 12.8 C 0 km/h
390 10-09-2010 05:56:04 12.8 C 9.97 g/m*3 12.8 C 0 km/h
391 10-09-2010 06:08:04 13.2 C 10.33 g/m*3 13.2 C 0 km/h
392 10-09-2010 06:20:04 13 C 10.09 g/m*3 13 C 0 km/h
393 10-09-2010 06:32:04 13.1 C 10.27 g/m*3 13.1 C 0 km/h
394 10-09-2010 06:44:04 13.1 C 10.27 g/m*3 13.1 C 0 km/h
395 10-09-2010 06:56:04 13.2 C 10.22 g/m*3 13.2 C 0 km/h
396 10-09-2010 07:08:04 13.1 C 10.16 g/m*3 13.1 C 0 km/h
397 10-09-2010 07:20:04 13.2 C 9.99 g/m*3 13.2 C 0 km/h
398 10-09-2010 07:32:05 13.3 C 9.7 g/m*3 13.3 C 0 km/h
399 10-09-2010 07:44:05 13.2 C 9.64 g/m*3 13.2 C 0 km/h
400 10-09-2010 07:56:02 13.1 C 9.7 g/m*3 13.1 C 0 km/h
Sensor: Nr:Datum:Temp:Abs-Feuchte:Windchill:Wind:
Aussen-T/F 401 10-09-2010 08:08:02 13.1 C 9.81 g/m*3 13.1 C 0 km/h
402 10-09-2010 08:20:02 13.1 C 9.93 g/m*3 13.1 C 0 km/h
403 10-09-2010 08:32:02 13.2 C 9.99 g/m*3 13.2 C 0 km/h
404 10-09-2010 08:44:03 13.5 C 10.06 g/m*3 13.5 C 0 km/h
405 10-09-2010 08:56:02 13.7 C 9.95 g/m*3 13.7 C 0 km/h
406 10-09-2010 09:08:02 14 C 9.77 g/m*3 14 C 0 km/h
407 10-09-2010 09:20:02 14.4 C 9.64 g/m*3 14.4 C 0 km/h
408 10-09-2010 09:32:02 14.5 C 9.58 g/m*3 14.5 C 0 km/h
409 10-09-2010 09:44:02 14.9 C 9.43 g/m*3 14.9 C 0 km/h
410 10-09-2010 09:56:02 15.2 C 9.22 g/m*3 15.2 C 0 km/h
411 10-09-2010 10:08:02 15.5 C 9.39 g/m*3 15.5 C 0 km/h
412 10-09-2010 10:20:03 15.7 C 9.23 g/m*3 15.7 C 0 km/h
413 10-09-2010 10:32:02 16.2 C 9.38 g/m*3 16.2 C 0 km/h
414 10-09-2010 10:44:02 16.6 C 9.46 g/m*3 16.6 C 0 km/h
415 10-09-2010 10:56:02 16.8 C 9.29 g/m*3 16.8 C 0 km/h
416 10-09-2010 11:08:02 17.2 C 9.37 g/m*3 17.2 C 0 km/h
417 10-09-2010 11:20:02 17.7 C 9.51 g/m*3 17.7 C 0 km/h
418 10-09-2010 11:32:02 18.1 C 9.12 g/m*3 18.1 C 0 km/h
419 10-09-2010 11:44:02 18.1 C 8.96 g/m*3 18.1 C 0 km/h
420 10-09-2010 11:56:02 18.3 C 9.07 g/m*3 18.3 C 0 km/h
421 10-09-2010 12:08:01 18.6 C 9.07 g/m*3 18.6 C 0 km/h
422 10-09-2010 12:20:02 18.7 C 9.13 g/m*3 18.7 C 0 km/h
423 10-09-2010 12:32:02 18.4 C 9.12 g/m*3 18.4 C 0 km/h
424 10-09-2010 12:44:02 18.8 C 9.34 g/m*3 18.8 C 0 km/h
425 10-09-2010 12:56:02 19.2 C 9.23 g/m*3 19.2 C 0 km/h
Sensor: Nr:Datum:Temp:Abs-Feuchte:Windchill:Wind:
Aussen-T/F 426 10-09-2010 13:08:03 19.5 C 8.89 g/m*3 19.5 C 0 km/h
427 10-09-2010 13:20:02 19.4 C 8.84 g/m*3 19.4 C 0 km/h
428 10-09-2010 13:32:02 19 C 8.47 g/m*3 19 C 0 km/h
429 10-09-2010 13:44:02 19 C 8.47 g/m*3 19 C 0 km/h
430 10-09-2010 13:56:01 19 C 8.64 g/m*3 19 C 0 km/h
431 10-09-2010 14:08:02 19.3 C 8.79 g/m*3 19.3 C 0 km/h
432 10-09-2010 14:20:01 19.9 C 8.76 g/m*3 19.9 C 0 km/h
433 10-09-2010 14:32:01 20.4 C 8.67 g/m*3 20.4 C 0 km/h
434 10-09-2010 14:44:01 20.2 C 8.74 g/m*3 20.2 C 0 km/h
435 10-09-2010 14:56:01 19.9 C 8.76 g/m*3 19.9 C 0 km/h
436 10-09-2010 15:08:02 20 C 8.64 g/m*3 20 C 0 km/h
437 10-09-2010 15:20:02 20.6 C 8.95 g/m*3 20.6 C 0 km/h
438 10-09-2010 15:32:01 20.9 C 8.38 g/m*3 20.9 C 0 km/h
439 10-09-2010 15:44:01 21.2 C 8.34 g/m*3 21.2 C 0 km/h
440 10-09-2010 15:56:02 21.4 C 8.62 g/m*3 21.4 C 0 km/h
441 10-09-2010 16:08:01 21.2 C 8.34 g/m*3 21.2 C 0 km/h
442 10-09-2010 16:20:02 20.8 C 8.33 g/m*3 20.8 C 0 km/h
443 10-09-2010 16:32:01 21.1 C 8.48 g/m*3 21.1 C 0 km/h
444 10-09-2010 16:44:01 21.2 C 8.71 g/m*3 21.2 C 0 km/h
445 10-09-2010 16:56:02 21.2 C 8.34 g/m*3 21.2 C 0 km/h
446 10-09-2010 17:08:02 20.9 C 8.56 g/m*3 20.9 C 0 km/h
447 10-09-2010 17:20:02 20.5 C 8.9 g/m*3 20.5 C 0 km/h
448 10-09-2010 17:32:03 20.1 C 9.04 g/m*3 20.1 C 0 km/h
449 10-09-2010 17:44:03 19.8 C 9.39 g/m*3 19.8 C 0 km/h
450 10-09-2010 17:56:02 19.6 C 8.95 g/m*3 19.6 C 0 km/h
Sensor: Nr:Datum:Temp:Abs-Feuchte:Windchill:Wind:
Aussen-T/F 451 10-09-2010 18:08:02 19.4 C 9.18 g/m*3 19.4 C 0 km/h
452 10-09-2010 18:20:02 18.9 C 9.56 g/m*3 18.9 C 0 km/h
453 10-09-2010 18:32:02 17.8 C 10.17 g/m*3 17.8 C 0 km/h
454 10-09-2010 18:44:02 16.8 C 10.72 g/m*3 16.8 C 0 km/h
455 10-09-2010 18:56:02 16.4 C 11.03 g/m*3 16.4 C 0 km/h
456 10-09-2010 19:08:02 16.4 C 11.31 g/m*3 16.4 C 0 km/h
457 10-09-2010 19:20:02 16.8 C 11.72 g/m*3 16.8 C 0 km/h
458 10-09-2010 19:32:02 16.3 C 11.38 g/m*3 16.3 C 0 km/h
459 10-09-2010 19:44:02 16 C 11.31 g/m*3 16 C 0 km/h
460 10-09-2010 19:56:02 15.8 C 11.44 g/m*3 15.8 C 0 km/h
461 10-09-2010 20:08:03 15.8 C 11.58 g/m*3 15.8 C 0 km/h
462 10-09-2010 20:20:02 15.7 C 11.51 g/m*3 15.7 C 0 km/h
463 10-09-2010 20:32:03 15.6 C 11.57 g/m*3 15.6 C 0 km/h
464 10-09-2010 20:44:03 15.6 C 11.57 g/m*3 15.6 C 0 km/h
465 10-09-2010 20:56:02 15.7 C 11.64 g/m*3 15.7 C 0 km/h
466 10-09-2010 21:08:01 15.8 C 11.71 g/m*3 15.8 C 0 km/h
467 10-09-2010 21:20:02 15.8 C 11.71 g/m*3 15.8 C 0 km/h
468 10-09-2010 21:32:02 15.8 C 11.71 g/m*3 15.8 C 0 km/h
469 10-09-2010 21:44:02 15.8 C 11.71 g/m*3 15.8 C 0 km/h
470 10-09-2010 21:56:02 15.8 C 11.58 g/m*3 15.8 C 0 km/h
471 10-09-2010 22:08:01 15.8 C 11.58 g/m*3 15.8 C 0 km/h
472 10-09-2010 22:20:02 15.8 C 11.58 g/m*3 15.8 C 0 km/h
473 10-09-2010 22:32:01 15.7 C 11.51 g/m*3 15.7 C 0 km/h
474 10-09-2010 22:44:01 15.6 C 11.3 g/m*3 15.6 C 0 km/h
475 10-09-2010 22:57:03 15.5 C 11.24 g/m*3 15.5 C 0 km/h
Sensor: Nr:Datum:Temp:Abs-Feuchte:Windchill:Wind:
Aussen-T/F 476 10-09-2010 23:09:03 15.6 C 11.3 g/m*3 15.6 C 0 km/h
477 10-09-2010 23:21:03 15.5 C 11.24 g/m*3 15.5 C 0 km/h
478 10-09-2010 23:33:03 15.5 C 11.24 g/m*3 15.5 C 0 km/h
479 10-09-2010 23:45:03 15.4 C 11.17 g/m*3 15.4 C 0 km/h
480 10-09-2010 23:57:03 15.3 C 10.97 g/m*3 15.3 C 0 km/h
481 11-09-2010 00:09:03 15.2 C 10.9 g/m*3 15.2 C 0 km/h
482 11-09-2010 00:21:03 15.2 C 10.9 g/m*3 15.2 C 0 km/h
483 11-09-2010 00:33:03 15.1 C 10.84 g/m*3 15.1 C 0 km/h
484 11-09-2010 00:45:03 15.1 C 10.84 g/m*3 15.1 C 0 km/h
485 11-09-2010 00:57:03 15.1 C 10.84 g/m*3 15.1 C 0 km/h
486 11-09-2010 01:09:03 15.1 C 10.84 g/m*3 15.1 C 0 km/h
487 11-09-2010 01:21:03 15 C 10.77 g/m*3 15 C 0 km/h
488 11-09-2010 01:33:03 15 C 10.77 g/m*3 15 C 0 km/h
489 11-09-2010 01:45:04 15 C 10.77 g/m*3 15 C 0 km/h
490 11-09-2010 01:57:04 14.9 C 10.83 g/m*3 14.9 C 0 km/h
491 11-09-2010 02:09:04 14.9 C 10.83 g/m*3 14.9 C 0 km/h
492 11-09-2010 02:21:04 14.8 C 10.77 g/m*3 14.8 C 0 km/h
493 11-09-2010 02:33:04 14.7 C 10.58 g/m*3 14.7 C 0 km/h
494 11-09-2010 02:45:04 14.7 C 10.7 g/m*3 14.7 C 0 km/h
495 11-09-2010 02:57:04 14.6 C 10.76 g/m*3 14.6 C 0 km/h
496 11-09-2010 03:09:04 14.4 C 10.63 g/m*3 14.4 C 0 km/h
497 11-09-2010 03:21:04 14.3 C 10.57 g/m*3 14.3 C 0 km/h
498 11-09-2010 03:33:04 14.1 C 10.44 g/m*3 14.1 C 0 km/h
499 11-09-2010 03:45:04 14 C 10.37 g/m*3 14 C 0 km/h
500 11-09-2010 03:57:04 13.6 C 10.12 g/m*3 13.6 C 0 km/h
Sensor: Nr:Datum:Temp:Abs-Feuchte:Windchill:Wind:
Aussen-T/F 501 11-09-2010 04:09:04 13.5 C 10.06 g/m*3 13.5 C 0 km/h
502 11-09-2010 04:21:04 13.3 C 9.94 g/m*3 13.3 C 0 km/h
503 11-09-2010 04:33:04 13.1 C 9.81 g/m*3 13.1 C 0 km/h
504 11-09-2010 04:45:04 13 C 9.75 g/m*3 13 C 0 km/h
505 11-09-2010 04:57:04 12.8 C 9.74 g/m*3 12.8 C 0 km/h
506 11-09-2010 05:09:04 12.6 C 9.62 g/m*3 12.6 C 0 km/h
507 11-09-2010 05:21:04 12.5 C 9.68 g/m*3 12.5 C 0 km/h
508 11-09-2010 05:33:04 12.6 C 9.74 g/m*3 12.6 C 0 km/h
509 11-09-2010 05:45:05 12.7 C 9.91 g/m*3 12.7 C 0 km/h
510 11-09-2010 05:57:05 12.8 C 9.97 g/m*3 12.8 C 0 km/h
511 11-09-2010 06:09:05 13 C 10.09 g/m*3 13 C 0 km/h
512 11-09-2010 06:21:05 13.1 C 10.16 g/m*3 13.1 C 0 km/h
513 11-09-2010 06:33:05 12.8 C 9.97 g/m*3 12.8 C 0 km/h
514 11-09-2010 06:45:05 12.5 C 9.78 g/m*3 12.5 C 0 km/h
515 11-09-2010 06:57:05 12.3 C 9.56 g/m*3 12.3 C 0 km/h
516 11-09-2010 07:09:05 12.1 C 9.44 g/m*3 12.1 C 0 km/h
517 11-09-2010 07:21:05 12.1 C 9.44 g/m*3 12.1 C 0 km/h
518 11-09-2010 07:33:05 12.1 C 9.54 g/m*3 12.1 C 0 km/h
519 11-09-2010 07:45:05 12.1 C 9.54 g/m*3 12.1 C 0 km/h
520 11-09-2010 07:57:05 12.4 C 9.72 g/m*3 12.4 C 0 km/h
521 11-09-2010 08:09:05 12.7 C 10.02 g/m*3 12.7 C 0 km/h
522 11-09-2010 08:21:03 13 C 10.21 g/m*3 13 C 0 km/h
523 11-09-2010 08:33:02 13 C 10.21 g/m*3 13 C 0 km/h
524 11-09-2010 08:45:02 13.1 C 10.27 g/m*3 13.1 C 0 km/h
525 11-09-2010 08:57:02 13.4 C 10.46 g/m*3 13.4 C 0 km/h
Sensor: Nr:Datum:Temp:Abs-Feuchte:Windchill:Wind:
Aussen-T/F 526 11-09-2010 09:09:02 13.4 C 10.35 g/m*3 13.4 C 0 km/h
527 11-09-2010 09:21:02 13.5 C 10.41 g/m*3 13.5 C 0 km/h
528 11-09-2010 09:33:02 13.7 C 10.54 g/m*3 13.7 C 0 km/h
529 11-09-2010 09:45:01 13.9 C 10.67 g/m*3 13.9 C 0 km/h
530 11-09-2010 09:57:01 14.3 C 10.81 g/m*3 14.3 C 0 km/h
531 11-09-2010 10:09:02 14.7 C 11.08 g/m*3 14.7 C 0 km/h
532 11-09-2010 10:21:01 15 C 11.03 g/m*3 15 C 0 km/h
533 11-09-2010 10:33:01 15.6 C 11.3 g/m*3 15.6 C 0 km/h
534 11-09-2010 10:45:01 16.2 C 11.45 g/m*3 16.2 C 0 km/h
535 11-09-2010 10:57:01 16.8 C 11.72 g/m*3 16.8 C 0 km/h
536 11-09-2010 11:09:01 17.1 C 11.5 g/m*3 17.1 C 0 km/h
537 11-09-2010 11:21:02 17.5 C 11.18 g/m*3 17.5 C 0 km/h
538 11-09-2010 11:33:01 18.2 C 11.35 g/m*3 18.2 C 0 km/h
539 11-09-2010 11:45:03 19.1 C 11.31 g/m*3 19.1 C 0 km/h
540 11-09-2010 11:57:03 19.3 C 11.44 g/m*3 19.3 C 0 km/h
541 11-09-2010 12:09:02 19.2 C 9.89 g/m*3 19.2 C 0 km/h
542 11-09-2010 12:21:02 19.6 C 9.96 g/m*3 19.6 C 0 km/h
543 11-09-2010 12:33:02 19.9 C 9.45 g/m*3 19.9 C 0 km/h
544 11-09-2010 12:45:02 20.2 C 9.27 g/m*3 20.2 C 0 km/h
545 11-09-2010 12:57:02 20.6 C 9.31 g/m*3 20.6 C 0 km/h
546 11-09-2010 13:09:02 20.9 C 9.11 g/m*3 20.9 C 0 km/h
547 11-09-2010 13:21:02 21.3 C 8.76 g/m*3 21.3 C 0 km/h
548 11-09-2010 13:33:01 21.7 C 8.97 g/m*3 21.7 C 0 km/h
549 11-09-2010 13:45:02 22.2 C 8.44 g/m*3 22.2 C 0 km/h
550 11-09-2010 13:57:03 22.7 C 8.69 g/m*3 22.7 C 0 km/h
Sensor: Nr:Datum:Temp:Abs-Feuchte:Windchill:Wind:
Aussen-T/F 551 11-09-2010 14:09:01 23.3 C 8.15 g/m*3 23.3 C 0 km/h
552 11-09-2010 14:21:01 23.9 C 8.44 g/m*3 23.9 C 0 km/h
553 11-09-2010 14:33:02 24.3 C 8.19 g/m*3 24.3 C 0 km/h
554 11-09-2010 14:45:02 24.5 C 7.83 g/m*3 24.5 C 0 km/h
555 11-09-2010 14:57:02 25 C 8.06 g/m*3 25 C 0 km/h
556 11-09-2010 15:09:02 25.6 C 8.09 g/m*3 25.6 C 0 km/h
557 11-09-2010 15:21:02 25.7 C 7.9 g/m*3 25.7 C 0 km/h
558 11-09-2010 15:33:02 25.6 C 8.57 g/m*3 25.6 C 0 km/h
559 11-09-2010 15:45:02 26.5 C 7.51 g/m*3 26.5 C 0 km/h
560 11-09-2010 15:57:02 26.8 C 7.13 g/m*3 26.8 C 0 km/h
561 11-09-2010 16:09:02 25.7 C 7.66 g/m*3 25.7 C 0 km/h
562 11-09-2010 16:21:02 25.3 C 9.13 g/m*3 25.3 C 0 km/h
563 11-09-2010 16:33:02 26.5 C 8.01 g/m*3 26.5 C 0 km/h
564 11-09-2010 16:45:02 26.4 C 7.72 g/m*3 26.4 C 0 km/h
565 11-09-2010 16:57:02 27.8 C 8.34 g/m*3 27.8 C 0 km/h
566 11-09-2010 17:09:02 28 C 7.61 g/m*3 28 C 0 km/h
567 11-09-2010 17:21:02 27.3 C 7.85 g/m*3 27.3 C 0 km/h
568 11-09-2010 17:33:02 27.5 C 8.47 g/m*3 27.5 C 0 km/h
569 11-09-2010 17:45:02 27.6 C 8.78 g/m*3 27.6 C 0 km/h
570 11-09-2010 17:57:02 27.7 C 8.83 g/m*3 27.7 C 0 km/h
571 11-09-2010 18:09:02 27.5 C 9.26 g/m*3 27.5 C 0 km/h
572 11-09-2010 18:21:02 26.8 C 9.16 g/m*3 26.8 C 0 km/h
573 11-09-2010 18:33:01 26.3 C 8.91 g/m*3 26.3 C 0 km/h
574 11-09-2010 18:45:02 25.3 C 9.36 g/m*3 25.3 C 0 km/h
575 11-09-2010 18:57:02 24.4 C 9.57 g/m*3 24.4 C 0 km/h
Sensor: Nr:Datum:Temp:Abs-Feuchte:Windchill:Wind:
Aussen-T/F 576 11-09-2010 19:09:01 23.7 C 9.63 g/m*3 23.7 C 0 km/h
577 11-09-2010 19:21:02 22.6 C 9.64 g/m*3 22.6 C 0 km/h
578 11-09-2010 19:33:02 21.6 C 10.05 g/m*3 21.6 C 0 km/h
579 11-09-2010 19:45:02 20.7 C 9.72 g/m*3 20.7 C 0 km/h
580 11-09-2010 19:57:02 20.2 C 9.44 g/m*3 20.2 C 0 km/h
581 11-09-2010 20:09:02 20 C 9.33 g/m*3 20 C 0 km/h
582 11-09-2010 20:21:02 19.5 C 9.4 g/m*3 19.5 C 0 km/h
583 11-09-2010 20:33:02 19.3 C 9.45 g/m*3 19.3 C 0 km/h
584 11-09-2010 20:45:01 19.1 C 9.67 g/m*3 19.1 C 0 km/h
585 11-09-2010 20:57:01 18.8 C 9.66 g/m*3 18.8 C 0 km/h
586 11-09-2010 21:09:02 18.6 C 9.71 g/m*3 18.6 C 0 km/h
587 11-09-2010 21:21:01 18.4 C 9.91 g/m*3 18.4 C 0 km/h
588 11-09-2010 21:33:01 18.2 C 10.1 g/m*3 18.2 C 0 km/h
589 11-09-2010 21:45:01 17.7 C 10.11 g/m*3 17.7 C 0 km/h
590 11-09-2010 21:57:01 17.6 C 10.2 g/m*3 17.6 C 0 km/h
591 11-09-2010 22:09:02 17.6 C 10.2 g/m*3 17.6 C 0 km/h
592 11-09-2010 22:21:01 17.4 C 10.23 g/m*3 17.4 C 0 km/h
593 11-09-2010 22:34:03 17.2 C 10.1 g/m*3 17.2 C 0 km/h
594 11-09-2010 22:46:03 16.9 C 10.36 g/m*3 16.9 C 0 km/h
595 11-09-2010 22:58:03 16.9 C 10.5 g/m*3 16.9 C 0 km/h
596 11-09-2010 23:10:03 17 C 10.42 g/m*3 17 C 0 km/h
597 11-09-2010 23:22:03 16.6 C 10.45 g/m*3 16.6 C 0 km/h
598 11-09-2010 23:34:03 16.5 C 10.39 g/m*3 16.5 C 0 km/h
599 11-09-2010 23:46:03 16.4 C 10.33 g/m*3 16.4 C 0 km/h
600 11-09-2010 23:58:03 16.3 C 10.41 g/m*3 16.3 C 0 km/h
Sensor: Nr:Datum:Temp:Abs-Feuchte:Windchill:Wind:
Aussen-T/F 601 12-09-2010 00:10:03 16.2 C 10.48 g/m*3 16.2 C 0 km/h
602 12-09-2010 00:22:03 16.2 C 10.48 g/m*3 16.2 C 0 km/h
603 12-09-2010 00:34:03 16.1 C 10.42 g/m*3 16.1 C 0 km/h
604 12-09-2010 00:46:03 16 C 10.35 g/m*3 16 C 0 km/h
605 12-09-2010 00:58:03 15.8 C 10.36 g/m*3 15.8 C 0 km/h
606 12-09-2010 01:10:03 15.6 C 10.37 g/m*3 15.6 C 0 km/h
607 12-09-2010 01:22:04 15.5 C 10.31 g/m*3 15.5 C 0 km/h
608 12-09-2010 01:34:04 15.2 C 10.25 g/m*3 15.2 C 0 km/h
609 12-09-2010 01:46:04 15.2 C 10.38 g/m*3 15.2 C 0 km/h
610 12-09-2010 01:58:04 15.2 C 10.38 g/m*3 15.2 C 0 km/h
611 12-09-2010 02:10:04 15 C 10.26 g/m*3 15 C 0 km/h
612 12-09-2010 02:22:04 15 C 10.39 g/m*3 15 C 0 km/h
613 12-09-2010 02:34:04 14.9 C 10.45 g/m*3 14.9 C 0 km/h
614 12-09-2010 02:46:04 14.8 C 10.51 g/m*3 14.8 C 0 km/h
615 12-09-2010 02:58:04 14.7 C 10.32 g/m*3 14.7 C 0 km/h
616 12-09-2010 03:10:04 14.7 C 10.32 g/m*3 14.7 C 0 km/h
617 12-09-2010 03:22:04 14.6 C 10.26 g/m*3 14.6 C 0 km/h
618 12-09-2010 03:34:04 14.4 C 10.14 g/m*3 14.4 C 0 km/h
619 12-09-2010 03:46:04 14.3 C 10.07 g/m*3 14.3 C 0 km/h
620 12-09-2010 03:58:04 14.3 C 10.2 g/m*3 14.3 C 0 km/h
621 12-09-2010 04:10:04 14.2 C 10.14 g/m*3 14.2 C 0 km/h
622 12-09-2010 04:22:04 14.1 C 10.07 g/m*3 14.1 C 0 km/h
623 12-09-2010 04:34:05 14.1 C 10.07 g/m*3 14.1 C 0 km/h
624 12-09-2010 04:46:05 14.1 C 10.07 g/m*3 14.1 C 0 km/h
625 12-09-2010 04:58:05 14 C 10.01 g/m*3 14 C 0 km/h
Sensor: Nr:Datum:Temp:Abs-Feuchte:Windchill:Wind:
Aussen-T/F 626 12-09-2010 05:10:05 13.9 C 10.07 g/m*3 13.9 C 0 km/h
627 12-09-2010 05:22:05 13.7 C 9.95 g/m*3 13.7 C 0 km/h
628 12-09-2010 05:34:05 13.8 C 10.01 g/m*3 13.8 C 0 km/h
629 12-09-2010 05:46:05 13.7 C 9.95 g/m*3 13.7 C 0 km/h
630 12-09-2010 05:58:05 13.7 C 9.95 g/m*3 13.7 C 0 km/h
631 12-09-2010 06:10:05 13.7 C 9.95 g/m*3 13.7 C 0 km/h
632 12-09-2010 06:22:05 13.5 C 9.94 g/m*3 13.5 C 0 km/h
633 12-09-2010 06:34:05 13.5 C 9.94 g/m*3 13.5 C 0 km/h
634 12-09-2010 06:46:05 13.5 C 9.94 g/m*3 13.5 C 0 km/h
635 12-09-2010 06:58:05 13.4 C 9.88 g/m*3 13.4 C 0 km/h
636 12-09-2010 07:10:05 13.5 C 9.94 g/m*3 13.5 C 0 km/h
637 12-09-2010 07:22:05 13.5 C 10.06 g/m*3 13.5 C 0 km/h
638 12-09-2010 07:34:05 13.6 C 10.12 g/m*3 13.6 C 0 km/h
639 12-09-2010 07:46:02 13.8 C 10.25 g/m*3 13.8 C 0 km/h
640 12-09-2010 07:58:02 14.1 C 10.32 g/m*3 14.1 C 0 km/h
641 12-09-2010 08:10:02 14.1 C 10.32 g/m*3 14.1 C 0 km/h
642 12-09-2010 08:22:01 14.4 C 10.38 g/m*3 14.4 C 0 km/h
643 12-09-2010 08:34:02 14.5 C 10.32 g/m*3 14.5 C 0 km/h
644 12-09-2010 08:46:02 14 C 10.13 g/m*3 14 C 0 km/h
645 12-09-2010 08:58:02 14.3 C 10.32 g/m*3 14.3 C 0 km/h
646 12-09-2010 09:10:02 14.8 C 10.64 g/m*3 14.8 C 0 km/h
647 12-09-2010 09:22:02 14.8 C 10.39 g/m*3 14.8 C 0 km/h
648 12-09-2010 09:34:02 14.8 C 10.51 g/m*3 14.8 C 0 km/h
649 12-09-2010 09:46:02 15 C 10.51 g/m*3 15 C 0 km/h
650 12-09-2010 09:58:02 14.8 C 10.51 g/m*3 14.8 C 0 km/h
Sensor: Nr:Datum:Temp:Abs-Feuchte:Windchill:Wind:
Aussen-T/F 651 12-09-2010 10:10:02 15.3 C 10.84 g/m*3 15.3 C 0 km/h
652 12-09-2010 10:22:03 15.9 C 11.1 g/m*3 15.9 C 0 km/h
653 12-09-2010 10:34:02 16.8 C 11.29 g/m*3 16.8 C 0 km/h
654 12-09-2010 10:46:02 18 C 11.37 g/m*3 18 C 0 km/h
655 12-09-2010 10:58:02 18.7 C 11.05 g/m*3 18.7 C 0 km/h
656 12-09-2010 11:10:02 19.5 C 10.41 g/m*3 19.5 C 0 km/h
657 12-09-2010 11:22:02 20.2 C 10.67 g/m*3 20.2 C 0 km/h
658 12-09-2010 11:34:02 20.1 C 10.6 g/m*3 20.1 C 0 km/h
659 12-09-2010 11:46:02 20 C 10.89 g/m*3 20 C 0 km/h
660 12-09-2010 11:58:02 20.3 C 10.9 g/m*3 20.3 C 0 km/h
661 12-09-2010 12:10:01 20.5 C 10.85 g/m*3 20.5 C 0 km/h
662 12-09-2010 12:22:02 20.9 C 11.11 g/m*3 20.9 C 0 km/h
663 12-09-2010 12:34:01 21.4 C 11.06 g/m*3 21.4 C 0 km/h
664 12-09-2010 12:46:01 22.4 C 10.33 g/m*3 22.4 C 0 km/h
665 12-09-2010 12:58:02 22.9 C 10.22 g/m*3 22.9 C 0 km/h
666 12-09-2010 13:10:01 23.1 C 10.34 g/m*3 23.1 C 0 km/h
667 12-09-2010 13:22:01 23.7 C 10.48 g/m*3 23.7 C 0 km/h
668 12-09-2010 13:34:02 24.3 C 9.74 g/m*3 24.3 C 0 km/h
669 12-09-2010 13:46:02 25 C 8.98 g/m*3 25 C 0 km/h
670 12-09-2010 13:58:02 25.9 C 9.44 g/m*3 25.9 C 0 km/h
671 12-09-2010 14:10:02 25.7 C 9.34 g/m*3 25.7 C 0 km/h
672 12-09-2010 14:22:01 25 C 8.06 g/m*3 25 C 0 km/h
673 12-09-2010 14:34:02 24.7 C 8.15 g/m*3 24.7 C 0 km/h
674 12-09-2010 14:46:02 23.1 C 9.72 g/m*3 23.1 C 0 km/h
675 12-09-2010 14:58:02 20.8 C 10.14 g/m*3 20.8 C 0 km/h
Sensor: Nr:Datum:Temp:Abs-Feuchte:Windchill:Wind:
Aussen-T/F 676 12-09-2010 15:10:02 19.5 C 9.23 g/m*3 19.5 C 0 km/h
677 12-09-2010 15:22:02 19.1 C 8.69 g/m*3 19.1 C 0 km/h
678 12-09-2010 15:34:02 19.4 C 8.84 g/m*3 19.4 C 0 km/h
679 12-09-2010 15:46:02 19.4 C 8.84 g/m*3 19.4 C 0 km/h
680 12-09-2010 15:58:02 19.2 C 8.74 g/m*3 19.2 C 0 km/h
681 12-09-2010 16:10:02 17.9 C 8.86 g/m*3 17.9 C 0 km/h
682 12-09-2010 16:22:02 18.1 C 9.12 g/m*3 18.1 C 0 km/h
683 12-09-2010 16:34:02 18.1 C 9.27 g/m*3 18.1 C 0 km/h
684 12-09-2010 16:46:02 17.6 C 9.3 g/m*3 17.6 C 0 km/h
685 12-09-2010 16:58:02 17.2 C 9.37 g/m*3 17.2 C 0 km/h
686 12-09-2010 17:10:02 17.2 C 9.52 g/m*3 17.2 C 0 km/h
687 12-09-2010 17:22:02 16.6 C 9.04 g/m*3 16.6 C 0 km/h
688 12-09-2010 17:34:01 16.1 C 9.46 g/m*3 16.1 C 0 km/h
689 12-09-2010 17:46:02 15.6 C 9.97 g/m*3 15.6 C 0 km/h
690 12-09-2010 17:58:02 15.5 C 10.31 g/m*3 15.5 C 0 km/h
691 12-09-2010 18:10:01 15.2 C 10.25 g/m*3 15.2 C 0 km/h
692 12-09-2010 18:22:02 15.2 C 10.51 g/m*3 15.2 C 0 km/h
693 12-09-2010 18:34:02 14.9 C 10.58 g/m*3 14.9 C 0 km/h
694 12-09-2010 18:46:02 14.7 C 10.7 g/m*3 14.7 C 0 km/h
695 12-09-2010 18:58:02 14.6 C 10.89 g/m*3 14.6 C 0 km/h
696 12-09-2010 19:10:02 14.5 C 10.82 g/m*3 14.5 C 0 km/h
697 12-09-2010 19:22:02 14.3 C 10.69 g/m*3 14.3 C 0 km/h
698 12-09-2010 19:34:02 14.1 C 10.68 g/m*3 14.1 C 0 km/h
699 12-09-2010 19:46:01 14.3 C 10.93 g/m*3 14.3 C 0 km/h
700 12-09-2010 19:58:01 14.1 C 10.8 g/m*3 14.1 C 0 km/h
Sensor: Nr:Datum:Temp:Abs-Feuchte:Windchill:Wind:
Aussen-T/F 701 12-09-2010 20:10:02 14 C 10.74 g/m*3 14 C 0 km/h
702 12-09-2010 20:22:01 13.9 C 10.79 g/m*3 13.9 C 0 km/h
703 12-09-2010 20:34:01 13.8 C 10.84 g/m*3 13.8 C 0 km/h
704 12-09-2010 20:46:01 13.7 C 10.78 g/m*3 13.7 C 0 km/h
705 12-09-2010 20:58:01 13.7 C 10.89 g/m*3 13.7 C 0 km/h
706 12-09-2010 21:10:02 13.6 C 10.83 g/m*3 13.6 C 0 km/h
707 12-09-2010 21:22:01 13.7 C 10.89 g/m*3 13.7 C 0 km/h
708 12-09-2010 21:34:01 13.7 C 10.89 g/m*3 13.7 C 0 km/h
709 12-09-2010 21:46:01 13.9 C 11.15 g/m*3 13.9 C 0 km/h
710 12-09-2010 21:58:01 14 C 11.1 g/m*3 14 C 0 km/h
711 12-09-2010 22:10:02 13.9 C 11.15 g/m*3 13.9 C 0 km/h
712 12-09-2010 22:22:01 13.9 C 11.15 g/m*3 13.9 C 0 km/h
713 12-09-2010 22:34:02 13.8 C 11.08 g/m*3 13.8 C 0 km/h
714 12-09-2010 22:46:02 13.7 C 11.01 g/m*3 13.7 C 0 km/h
715 12-09-2010 22:58:02 13.6 C 10.95 g/m*3 13.6 C 0 km/h
716 12-09-2010 23:10:01 13.5 C 10.88 g/m*3 13.5 C 0 km/h
717 12-09-2010 23:22:02 13.5 C 10.88 g/m*3 13.5 C 0 km/h
718 12-09-2010 23:34:02 13.5 C 10.88 g/m*3 13.5 C 0 km/h
719 12-09-2010 23:46:02 13.7 C 11.01 g/m*3 13.7 C 0 km/h
720 12-09-2010 23:58:02 13.7 C 11.01 g/m*3 13.7 C 0 km/h
721 13-09-2010 00:10:03 13.7 C 11.01 g/m*3 13.7 C 0 km/h
722 13-09-2010 00:22:02 13.6 C 10.95 g/m*3 13.6 C 0 km/h
723 13-09-2010 00:34:02 13.7 C 11.01 g/m*3 13.7 C 0 km/h
724 13-09-2010 00:46:02 13.7 C 11.01 g/m*3 13.7 C 0 km/h
725 13-09-2010 00:58:02 13.7 C 11.01 g/m*3 13.7 C 0 km/h
Sensor: Nr:Datum:Temp:Abs-Feuchte:Windchill:Wind:
Aussen-T/F 726 13-09-2010 01:10:02 13.6 C 10.95 g/m*3 13.6 C 0 km/h
727 13-09-2010 01:22:03 13.7 C 11.01 g/m*3 13.7 C 0 km/h
728 13-09-2010 01:34:02 13.8 C 11.08 g/m*3 13.8 C 0 km/h
729 13-09-2010 01:46:02 13.7 C 11.01 g/m*3 13.7 C 0 km/h
730 13-09-2010 01:58:02 13.7 C 11.01 g/m*3 13.7 C 0 km/h
731 13-09-2010 02:10:02 13.7 C 11.01 g/m*3 13.7 C 0 km/h
732 13-09-2010 02:22:02 13.5 C 10.88 g/m*3 13.5 C 0 km/h
733 13-09-2010 02:34:02 13.4 C 10.81 g/m*3 13.4 C 0 km/h
734 13-09-2010 02:46:02 13.4 C 10.81 g/m*3 13.4 C 0 km/h
735 13-09-2010 02:58:02 13.6 C 10.95 g/m*3 13.6 C 0 km/h
736 13-09-2010 03:10:01 13.5 C 10.88 g/m*3 13.5 C 0 km/h
737 13-09-2010 03:22:01 13.3 C 10.63 g/m*3 13.3 C 0 km/h
738 13-09-2010 03:34:02 13.2 C 10.56 g/m*3 13.2 C 0 km/h
739 13-09-2010 03:46:02 13.2 C 10.45 g/m*3 13.2 C 0 km/h
740 13-09-2010 03:58:02 13.1 C 10.38 g/m*3 13.1 C 0 km/h
741 13-09-2010 04:10:01 13 C 10.21 g/m*3 13 C 0 km/h
742 13-09-2010 04:22:02 12.8 C 10.19 g/m*3 12.8 C 0 km/h
743 13-09-2010 04:34:01 12.9 C 10.26 g/m*3 12.9 C 0 km/h
744 13-09-2010 04:46:01 13.1 C 10.16 g/m*3 13.1 C 0 km/h
745 13-09-2010 04:58:02 13.2 C 10.22 g/m*3 13.2 C 0 km/h
746 13-09-2010 05:10:01 13.3 C 10.05 g/m*3 13.3 C 0 km/h
747 13-09-2010 05:22:01 13.3 C 9.82 g/m*3 13.3 C 0 km/h
748 13-09-2010 05:34:02 13.2 C 9.64 g/m*3 13.2 C 0 km/h
749 13-09-2010 05:46:01 13.2 C 9.64 g/m*3 13.2 C 0 km/h
750 13-09-2010 05:58:01 13.3 C 9.7 g/m*3 13.3 C 0 km/h
Sensor: Nr:Datum:Temp:Abs-Feuchte:Windchill:Wind:
Aussen-T/F 751 13-09-2010 06:10:02 13.4 C 9.76 g/m*3 13.4 C 0 km/h
752 13-09-2010 06:22:01 13.4 C 9.65 g/m*3 13.4 C 0 km/h
753 13-09-2010 06:34:01 13.3 C 9.59 g/m*3 13.3 C 0 km/h
754 13-09-2010 06:46:01 13.2 C 9.42 g/m*3 13.2 C 0 km/h
755 13-09-2010 06:58:01 13.2 C 9.42 g/m*3 13.2 C 0 km/h
756 13-09-2010 07:10:02 13 C 9.19 g/m*3 13 C 0 km/h
757 13-09-2010 07:22:01 13 C 9.3 g/m*3 13 C 0 km/h
758 13-09-2010 07:34:01 12.7 C 9.13 g/m*3 12.7 C 0 km/h
759 13-09-2010 07:46:01 12.5 C 9.13 g/m*3 12.5 C 0 km/h
760 13-09-2010 07:58:01 12.4 C 9.18 g/m*3 12.4 C 0 km/h
761 13-09-2010 08:10:01 12.5 C 9.35 g/m*3 12.5 C 0 km/h
762 13-09-2010 08:22:01 13 C 9.64 g/m*3 13 C 0 km/h
763 13-09-2010 08:34:01 13.1 C 9.7 g/m*3 13.1 C 0 km/h
764 13-09-2010 08:46:02 13.2 C 9.64 g/m*3 13.2 C 0 km/h
765 13-09-2010 08:58:02 13.4 C 9.76 g/m*3 13.4 C 0 km/h
766 13-09-2010 09:10:01 13.5 C 9.71 g/m*3 13.5 C 0 km/h
767 13-09-2010 09:22:02 13.7 C 9.71 g/m*3 13.7 C 0 km/h
768 13-09-2010 09:34:01 14 C 9.41 g/m*3 14 C 0 km/h
769 13-09-2010 09:46:02 14.2 C 9.28 g/m*3 14.2 C 0 km/h
770 13-09-2010 09:58:02 14.5 C 9.2 g/m*3 14.5 C 0 km/h
771 13-09-2010 10:10:01 14.8 C 9.25 g/m*3 14.8 C 0 km/h
772 13-09-2010 10:22:01 15 C 9.1 g/m*3 15 C 0 km/h
773 13-09-2010 10:34:02 15.3 C 9.14 g/m*3 15.3 C 0 km/h
774 13-09-2010 10:46:01 15.6 C 8.91 g/m*3 15.6 C 0 km/h
775 13-09-2010 10:58:01 15.9 C 8.8 g/m*3 15.9 C 0 km/h
Sensor: Nr:Datum:Temp:Abs-Feuchte:Windchill:Wind:
Aussen-T/F 776 13-09-2010 11:10:01 16 C 8.58 g/m*3 16 C 0 km/h
777 13-09-2010 11:22:01 16.4 C 8.65 g/m*3 16.4 C 0 km/h
778 13-09-2010 11:34:02 16.3 C 8.74 g/m*3 16.3 C 0 km/h
779 13-09-2010 11:46:01 17.1 C 8.59 g/m*3 17.1 C 0 km/h
780 13-09-2010 11:58:01 16.7 C 8.24 g/m*3 16.7 C 0 km/h
781 13-09-2010 12:10:02 16.4 C 8.23 g/m*3 16.4 C 0 km/h
782 13-09-2010 12:22:01 16.9 C 8.2 g/m*3 16.9 C 0 km/h
783 13-09-2010 12:34:01 17.6 C 7.8 g/m*3 17.6 C 0 km/h
784 13-09-2010 12:46:01 17.6 C 7.5 g/m*3 17.6 C 0 km/h
785 13-09-2010 12:58:01 17.7 C 7.85 g/m*3 17.7 C 0 km/h
786 13-09-2010 13:10:01 18 C 7.37 g/m*3 18 C 0 km/h
787 13-09-2010 13:22:01 18.9 C 7.78 g/m*3 18.9 C 0 km/h
788 13-09-2010 13:34:01 18.9 C 7.45 g/m*3 18.9 C 0 km/h
789 13-09-2010 13:46:01 18.7 C 7.2 g/m*3 18.7 C 0 km/h
790 13-09-2010 13:58:01 20.2 C 7.87 g/m*3 20.2 C 0 km/h
791 13-09-2010 14:10:01 19.9 C 7.22 g/m*3 19.9 C 0 km/h
792 13-09-2010 14:22:02 19.5 C 6.55 g/m*3 19.5 C 0 km/h
793 13-09-2010 14:34:01 19.6 C 6.75 g/m*3 19.6 C 0 km/h
794 13-09-2010 14:46:02 20.6 C 7.34 g/m*3 20.6 C 0 km/h
795 13-09-2010 14:58:02 21.3 C 6.9 g/m*3 21.3 C 0 km/h
796 13-09-2010 15:10:01 20.9 C 6.74 g/m*3 20.9 C 0 km/h
797 13-09-2010 15:22:01 21.3 C 6.9 g/m*3 21.3 C 0 km/h
798 13-09-2010 15:34:01 21.2 C 6.67 g/m*3 21.2 C 0 km/h
799 13-09-2010 15:46:01 20.6 C 7.16 g/m*3 20.6 C 0 km/h
800 13-09-2010 15:58:01 20 C 7.95 g/m*3 20 C 0 km/h
Sensor: Nr:Datum:Temp:Abs-Feuchte:Windchill:Wind:
Aussen-T/F 801 13-09-2010 16:10:01 20.8 C 7.97 g/m*3 20.8 C 0 km/h
802 13-09-2010 16:22:02 21.4 C 6.37 g/m*3 21.4 C 0 km/h
803 13-09-2010 16:34:01 21.4 C 7.5 g/m*3 21.4 C 0 km/h
804 13-09-2010 16:46:02 21.8 C 6.52 g/m*3 21.8 C 0 km/h
805 13-09-2010 16:58:02 22.4 C 6.16 g/m*3 22.4 C 0 km/h
806 13-09-2010 17:10:01 22.3 C 7.11 g/m*3 22.3 C 0 km/h
807 13-09-2010 17:22:01 20.5 C 7.65 g/m*3 20.5 C 0 km/h
808 13-09-2010 17:34:01 20.2 C 7.87 g/m*3 20.2 C 0 km/h
809 13-09-2010 17:46:01 19.8 C 8.37 g/m*3 19.8 C 0 km/h
810 13-09-2010 17:58:02 19.6 C 8.61 g/m*3 19.6 C 0 km/h
811 13-09-2010 18:10:02 18.9 C 8.75 g/m*3 18.9 C 0 km/h
812 13-09-2010 18:22:02 18.4 C 8.65 g/m*3 18.4 C 0 km/h
813 13-09-2010 18:34:01 18.2 C 8.55 g/m*3 18.2 C 0 km/h
814 13-09-2010 18:46:02 17.9 C 8.55 g/m*3 17.9 C 0 km/h
815 13-09-2010 18:58:02 17.7 C 8.6 g/m*3 17.7 C 0 km/h
816 13-09-2010 19:10:01 17.7 C 8.6 g/m*3 17.7 C 0 km/h
817 13-09-2010 19:22:02 17.5 C 8.5 g/m*3 17.5 C 0 km/h
818 13-09-2010 19:34:01 17 C 8.68 g/m*3 17 C 0 km/h
819 13-09-2010 19:46:02 16.4 C 8.51 g/m*3 16.4 C 0 km/h
820 13-09-2010 19:58:02 16 C 8.45 g/m*3 16 C 0 km/h
821 13-09-2010 20:10:01 15.6 C 8.64 g/m*3 15.6 C 0 km/h
822 13-09-2010 20:22:01 15.4 C 8.8 g/m*3 15.4 C 0 km/h
823 13-09-2010 20:34:01 15.2 C 8.96 g/m*3 15.2 C 0 km/h
824 13-09-2010 20:46:01 15.1 C 9.03 g/m*3 15.1 C 0 km/h
825 13-09-2010 20:58:02 14.9 C 9.05 g/m*3 14.9 C 0 km/h
Sensor: Nr:Datum:Temp:Abs-Feuchte:Windchill:Wind:
Aussen-T/F 826 13-09-2010 21:10:01 14.7 C 8.94 g/m*3 14.7 C 0 km/h
827 13-09-2010 21:22:01 14.6 C 9.01 g/m*3 14.6 C 0 km/h
828 13-09-2010 21:34:02 14.5 C 8.95 g/m*3 14.5 C 0 km/h
829 13-09-2010 21:46:01 14.4 C 8.9 g/m*3 14.4 C 0 km/h
830 13-09-2010 21:58:01 14.4 C 9.02 g/m*3 14.4 C 0 km/h
831 13-09-2010 22:10:01 14.1 C 8.86 g/m*3 14.1 C 0 km/h
832 13-09-2010 22:23:05 13.8 C 8.82 g/m*3 13.8 C 0 km/h
833 13-09-2010 22:35:05 13.7 C 8.88 g/m*3 13.7 C 0 km/h
834 13-09-2010 22:47:05 13.5 C 8.89 g/m*3 13.5 C 0 km/h
835 13-09-2010 22:59:05 13.4 C 8.83 g/m*3 13.4 C 0 km/h
836 13-09-2010 23:11:05 13.3 C 8.78 g/m*3 13.3 C 0 km/h
837 13-09-2010 23:23:05 13.3 C 9.01 g/m*3 13.3 C 0 km/h
838 13-09-2010 23:35:05 13.1 C 8.9 g/m*3 13.1 C 0 km/h
839 13-09-2010 23:47:05 13 C 8.73 g/m*3 13 C 0 km/h
840 13-09-2010 23:59:05 13 C 8.85 g/m*3 13 C 0 km/h
841 14-09-2010 00:11:05 13 C 8.96 g/m*3 13 C 0 km/h
842 14-09-2010 00:23:05 12.8 C 9.18 g/m*3 12.8 C 0 km/h
843 14-09-2010 00:35:05 12.8 C 9.3 g/m*3 12.8 C 0 km/h
844 14-09-2010 00:47:05 12.8 C 9.3 g/m*3 12.8 C 0 km/h
845 14-09-2010 00:59:05 12.7 C 9.24 g/m*3 12.7 C 0 km/h
846 14-09-2010 01:11:05 12.6 C 9.18 g/m*3 12.6 C 0 km/h
847 14-09-2010 01:23:05 12.7 C 9.24 g/m*3 12.7 C 0 km/h
848 14-09-2010 01:35:05 12.8 C 9.3 g/m*3 12.8 C 0 km/h
849 14-09-2010 01:47:05 12.9 C 9.35 g/m*3 12.9 C 0 km/h
850 14-09-2010 01:59:05 13 C 9.3 g/m*3 13 C 0 km/h
Sensor: Nr:Datum:Temp:Abs-Feuchte:Windchill:Wind:
Aussen-T/F 851 14-09-2010 02:11:05 13 C 9.3 g/m*3 13 C 0 km/h
852 14-09-2010 02:23:05 13 C 9.3 g/m*3 13 C 0 km/h
853 14-09-2010 02:35:06 13.1 C 9.36 g/m*3 13.1 C 0 km/h
854 14-09-2010 02:47:06 13.2 C 9.42 g/m*3 13.2 C 0 km/h
855 14-09-2010 02:59:06 13.2 C 9.3 g/m*3 13.2 C 0 km/h
856 14-09-2010 03:11:06 13.4 C 9.18 g/m*3 13.4 C 0 km/h
857 14-09-2010 03:23:06 13.4 C 9.18 g/m*3 13.4 C 0 km/h
858 14-09-2010 03:35:06 13.3 C 9.24 g/m*3 13.3 C 0 km/h
859 14-09-2010 03:47:06 13.3 C 9.24 g/m*3 13.3 C 0 km/h
860 14-09-2010 03:59:06 13.4 C 9.3 g/m*3 13.4 C 0 km/h
861 14-09-2010 04:11:06 13.2 C 9.19 g/m*3 13.2 C 0 km/h
862 14-09-2010 04:23:06 13 C 9.3 g/m*3 13 C 0 km/h
863 14-09-2010 04:35:06 12.8 C 9.41 g/m*3 12.8 C 0 km/h
864 14-09-2010 04:47:06 12.9 C 9.58 g/m*3 12.9 C 0 km/h
865 14-09-2010 04:59:06 12.8 C 9.63 g/m*3 12.8 C 0 km/h
866 14-09-2010 05:11:06 12.9 C 9.81 g/m*3 12.9 C 0 km/h
867 14-09-2010 05:23:06 12.9 C 9.81 g/m*3 12.9 C 0 km/h
868 14-09-2010 05:35:06 13 C 9.87 g/m*3 13 C 0 km/h
869 14-09-2010 05:47:06 13 C 9.87 g/m*3 13 C 0 km/h
870 14-09-2010 05:59:06 13 C 9.87 g/m*3 13 C 0 km/h
871 14-09-2010 06:11:06 13.3 C 10.05 g/m*3 13.3 C 0 km/h
872 14-09-2010 06:23:06 13.5 C 9.83 g/m*3 13.5 C 0 km/h
873 14-09-2010 06:35:06 13.8 C 9.06 g/m*3 13.8 C 0 km/h
874 14-09-2010 06:47:06 14.5 C 8.83 g/m*3 14.5 C 0 km/h
875 14-09-2010 06:59:07 14.4 C 8.53 g/m*3 14.4 C 0 km/h
Sensor: Nr:Datum:Temp:Abs-Feuchte:Windchill:Wind:
Aussen-T/F 876 14-09-2010 07:11:07 14.4 C 8.53 g/m*3 14.4 C 0 km/h
877 14-09-2010 07:23:07 14.4 C 8.65 g/m*3 14.4 C 0 km/h
878 14-09-2010 07:35:04 14.3 C 8.85 g/m*3 14.3 C 0 km/h
879 14-09-2010 07:47:02 13.6 C 9.18 g/m*3 13.6 C 0 km/h
880 14-09-2010 07:59:02 13.6 C 9.42 g/m*3 13.6 C 0 km/h
881 14-09-2010 08:11:01 13.7 C 9.47 g/m*3 13.7 C 0 km/h
882 14-09-2010 08:23:02 13.7 C 9.47 g/m*3 13.7 C 0 km/h
883 14-09-2010 08:35:02 14.1 C 9.34 g/m*3 14.1 C 0 km/h
884 14-09-2010 08:47:02 14.4 C 9.15 g/m*3 14.4 C 0 km/h
885 14-09-2010 08:59:02 14.6 C 9.13 g/m*3 14.6 C 0 km/h
886 14-09-2010 09:11:01 14.7 C 9.07 g/m*3 14.7 C 0 km/h
887 14-09-2010 09:23:02 14.8 C 9.12 g/m*3 14.8 C 0 km/h
888 14-09-2010 09:35:02 15.1 C 9.03 g/m*3 15.1 C 0 km/h
889 14-09-2010 09:47:01 15.6 C 9.04 g/m*3 15.6 C 0 km/h
890 14-09-2010 09:59:01 15.6 C 9.04 g/m*3 15.6 C 0 km/h
891 14-09-2010 10:11:02 15.6 C 9.04 g/m*3 15.6 C 0 km/h
892 14-09-2010 10:23:01 15.7 C 9.1 g/m*3 15.7 C 0 km/h
893 14-09-2010 10:35:01 16 C 8.99 g/m*3 16 C 0 km/h
894 14-09-2010 10:47:01 16.4 C 8.93 g/m*3 16.4 C 0 km/h
895 14-09-2010 10:59:01 16.8 C 9.29 g/m*3 16.8 C 0 km/h
896 14-09-2010 11:11:02 17 C 8.97 g/m*3 17 C 0 km/h
897 14-09-2010 11:23:01 17.1 C 9.03 g/m*3 17.1 C 0 km/h
898 14-09-2010 11:35:01 17 C 9.12 g/m*3 17 C 0 km/h
899 14-09-2010 11:47:01 16.7 C 9.24 g/m*3 16.7 C 0 km/h
900 14-09-2010 11:59:01 17.5 C 9.39 g/m*3 17.5 C 0 km/h
Sensor: Nr:Datum:Temp:Abs-Feuchte:Windchill:Wind:
Aussen-T/F 901 14-09-2010 12:11:02 17.8 C 9.26 g/m*3 17.8 C 0 km/h
902 14-09-2010 12:23:02 18.2 C 9.01 g/m*3 18.2 C 0 km/h
903 14-09-2010 12:35:01 18.5 C 9.18 g/m*3 18.5 C 0 km/h
904 14-09-2010 12:47:02 18.8 C 9.18 g/m*3 18.8 C 0 km/h
905 14-09-2010 12:59:02 18.9 C 9.23 g/m*3 18.9 C 0 km/h
906 14-09-2010 13:11:01 19.6 C 9.28 g/m*3 19.6 C 0 km/h
907 14-09-2010 13:23:01 19.7 C 9.34 g/m*3 19.7 C 0 km/h
908 14-09-2010 13:35:01 20.2 C 9.44 g/m*3 20.2 C 0 km/h
909 14-09-2010 13:47:02 20.4 C 9.02 g/m*3 20.4 C 0 km/h
910 14-09-2010 13:59:02 20 C 8.99 g/m*3 20 C 0 km/h
911 14-09-2010 14:11:02 19.7 C 8.83 g/m*3 19.7 C 0 km/h
912 14-09-2010 14:23:02 19.7 C 9 g/m*3 19.7 C 0 km/h
913 14-09-2010 14:35:02 19.8 C 8.71 g/m*3 19.8 C 0 km/h
914 14-09-2010 14:47:01 19.6 C 8.78 g/m*3 19.6 C 0 km/h
915 14-09-2010 14:59:01 19.5 C 8.89 g/m*3 19.5 C 0 km/h
916 14-09-2010 15:11:02 20 C 8.81 g/m*3 20 C 0 km/h
917 14-09-2010 15:23:01 20 C 8.64 g/m*3 20 C 0 km/h
918 14-09-2010 15:35:02 20.4 C 8.67 g/m*3 20.4 C 0 km/h
919 14-09-2010 15:47:01 20.7 C 8.46 g/m*3 20.7 C 0 km/h
920 14-09-2010 15:59:01 20.9 C 8.56 g/m*3 20.9 C 0 km/h
921 14-09-2010 16:11:02 20.8 C 8.15 g/m*3 20.8 C 0 km/h
922 14-09-2010 16:23:01 20.9 C 8.2 g/m*3 20.9 C 0 km/h
923 14-09-2010 16:35:02 20.6 C 7.7 g/m*3 20.6 C 0 km/h
924 14-09-2010 16:47:01 20.6 C 7.7 g/m*3 20.6 C 0 km/h
925 14-09-2010 16:59:01 20.5 C 7.65 g/m*3 20.5 C 0 km/h
Sensor: Nr:Datum:Temp:Abs-Feuchte:Windchill:Wind:
Aussen-T/F 926 14-09-2010 17:11:02 20.5 C 7.47 g/m*3 20.5 C 0 km/h
927 14-09-2010 17:23:01 20.4 C 7.43 g/m*3 20.4 C 0 km/h
928 14-09-2010 17:35:01 20 C 7.26 g/m*3 20 C 0 km/h
929 14-09-2010 17:47:01 20 C 7.43 g/m*3 20 C 0 km/h
930 14-09-2010 17:59:01 19.8 C 7.69 g/m*3 19.8 C 0 km/h
931 14-09-2010 18:11:01 19.6 C 7.77 g/m*3 19.6 C 0 km/h
932 14-09-2010 18:23:02 19.4 C 7.84 g/m*3 19.4 C 0 km/h
933 14-09-2010 18:35:01 19.3 C 7.8 g/m*3 19.3 C 0 km/h
934 14-09-2010 18:47:02 19.3 C 7.8 g/m*3 19.3 C 0 km/h
935 14-09-2010 18:59:02 19.1 C 7.87 g/m*3 19.1 C 0 km/h
936 14-09-2010 19:11:01 19 C 7.82 g/m*3 19 C 0 km/h
937 14-09-2010 19:23:01 18.9 C 7.78 g/m*3 18.9 C 0 km/h
938 14-09-2010 19:35:01 18.7 C 7.68 g/m*3 18.7 C 0 km/h
939 14-09-2010 19:47:02 18.7 C 7.68 g/m*3 18.7 C 0 km/h
940 14-09-2010 19:59:03 18.7 C 7.68 g/m*3 18.7 C 0 km/h
941 14-09-2010 20:11:01 18.7 C 7.68 g/m*3 18.7 C 0 km/h
942 14-09-2010 20:23:02 18.6 C 7.64 g/m*3 18.6 C 0 km/h
943 14-09-2010 20:35:02 18.7 C 7.68 g/m*3 18.7 C 0 km/h
944 14-09-2010 20:47:02 18.5 C 7.75 g/m*3 18.5 C 0 km/h
945 14-09-2010 20:59:02 18.5 C 7.75 g/m*3 18.5 C 0 km/h
946 14-09-2010 21:11:03 18.5 C 7.75 g/m*3 18.5 C 0 km/h
947 14-09-2010 21:23:02 18.5 C 7.75 g/m*3 18.5 C 0 km/h
948 14-09-2010 21:35:02 18.6 C 7.96 g/m*3 18.6 C 0 km/h
949 14-09-2010 21:47:01 18.5 C 7.75 g/m*3 18.5 C 0 km/h
950 14-09-2010 21:59:01 18.6 C 7.64 g/m*3 18.6 C 0 km/h
Sensor: Nr:Datum:Temp:Abs-Feuchte:Windchill:Wind:
Aussen-T/F 951 14-09-2010 22:12:03 18.6 C 7.8 g/m*3 18.6 C 0 km/h
952 14-09-2010 22:24:03 18.5 C 7.75 g/m*3 18.5 C 0 km/h
953 14-09-2010 22:36:03 18.4 C 7.86 g/m*3 18.4 C 0 km/h
954 14-09-2010 22:48:03 18.5 C 7.91 g/m*3 18.5 C 0 km/h
955 14-09-2010 23:00:03 18.5 C 7.91 g/m*3 18.5 C 0 km/h
956 14-09-2010 23:12:03 18.4 C 7.86 g/m*3 18.4 C 0 km/h
957 14-09-2010 23:24:03 18.2 C 7.77 g/m*3 18.2 C 0 km/h
958 14-09-2010 23:36:04 18 C 7.99 g/m*3 18 C 0 km/h
959 14-09-2010 23:48:04 18 C 7.99 g/m*3 18 C 0 km/h
960 15-09-2010 00:00:04 18 C 7.99 g/m*3 18 C 0 km/h
961 15-09-2010 00:12:04 18 C 7.83 g/m*3 18 C 0 km/h
962 15-09-2010 00:24:04 18 C 7.83 g/m*3 18 C 0 km/h
963 15-09-2010 00:36:04 18 C 7.83 g/m*3 18 C 0 km/h
964 15-09-2010 00:48:04 18.1 C 7.88 g/m*3 18.1 C 0 km/h
965 15-09-2010 01:00:04 18.1 C 7.73 g/m*3 18.1 C 0 km/h
966 15-09-2010 01:12:04 18.1 C 7.73 g/m*3 18.1 C 0 km/h
967 15-09-2010 01:24:04 18.2 C 7.62 g/m*3 18.2 C 0 km/h
968 15-09-2010 01:36:04 18.3 C 7.66 g/m*3 18.3 C 0 km/h
969 15-09-2010 01:48:04 18.2 C 7.62 g/m*3 18.2 C 0 km/h
970 15-09-2010 02:00:04 18.3 C 7.66 g/m*3 18.3 C 0 km/h
971 15-09-2010 02:12:04 18.4 C 7.55 g/m*3 18.4 C 0 km/h
972 15-09-2010 02:24:04 18.4 C 7.55 g/m*3 18.4 C 0 km/h
973 15-09-2010 02:36:05 18.3 C 7.66 g/m*3 18.3 C 0 km/h
974 15-09-2010 02:48:05 18.2 C 7.77 g/m*3 18.2 C 0 km/h
975 15-09-2010 03:00:05 18.2 C 7.93 g/m*3 18.2 C 0 km/h
Sensor: Nr:Datum:Temp:Abs-Feuchte:Windchill:Wind:
Aussen-T/F 976 15-09-2010 03:12:05 18.1 C 8.03 g/m*3 18.1 C 0 km/h
977 15-09-2010 03:24:05 18 C 8.29 g/m*3 18 C 0 km/h
978 15-09-2010 03:36:05 18 C 8.45 g/m*3 18 C 0 km/h
979 15-09-2010 03:48:05 18 C 8.45 g/m*3 18 C 0 km/h
980 15-09-2010 04:00:05 17.9 C 8.7 g/m*3 17.9 C 0 km/h
981 15-09-2010 04:12:05 17.9 C 9.01 g/m*3 17.9 C 0 km/h
982 15-09-2010 04:24:05 17.7 C 9.05 g/m*3 17.7 C 0 km/h
983 15-09-2010 04:36:05 17.6 C 9.3 g/m*3 17.6 C 0 km/h
984 15-09-2010 04:48:05 17.4 C 9.48 g/m*3 17.4 C 0 km/h
985 15-09-2010 05:00:05 17.4 C 9.48 g/m*3 17.4 C 0 km/h
986 15-09-2010 05:12:05 16.9 C 10.07 g/m*3 16.9 C 0 km/h
987 15-09-2010 05:24:05 14.4 C 9.27 g/m*3 14.4 C 0 km/h
988 15-09-2010 05:36:05 13.3 C 9.7 g/m*3 13.3 C 0 km/h
989 15-09-2010 05:48:05 13 C 9.87 g/m*3 13 C 0 km/h
990 15-09-2010 06:00:05 12.9 C 10.03 g/m*3 12.9 C 0 km/h
991 15-09-2010 06:12:05 12.8 C 10.08 g/m*3 12.8 C 0 km/h
992 15-09-2010 06:24:05 12.7 C 10.02 g/m*3 12.7 C 0 km/h
993 15-09-2010 06:36:05 12.7 C 10.13 g/m*3 12.7 C 0 km/h
994 15-09-2010 06:48:05 12.8 C 10.19 g/m*3 12.8 C 0 km/h
995 15-09-2010 07:00:06 12.8 C 10.3 g/m*3 12.8 C 0 km/h
996 15-09-2010 07:12:06 12.7 C 10.24 g/m*3 12.7 C 0 km/h
997 15-09-2010 07:24:06 12.7 C 10.24 g/m*3 12.7 C 0 km/h
998 15-09-2010 07:36:03 12.8 C 10.3 g/m*3 12.8 C 0 km/h
999 15-09-2010 07:48:02 12.7 C 10.35 g/m*3 12.7 C 0 km/h
1000 15-09-2010 08:00:02 12.6 C 10.29 g/m*3 12.6 C 0 km/h
Sensor: Nr:Datum:Temp:Abs-Feuchte:Windchill:Wind:
Aussen-T/F 1001 15-09-2010 08:12:02 12.7 C 10.35 g/m*3 12.7 C 0 km/h
1002 15-09-2010 08:24:02 12.7 C 10.35 g/m*3 12.7 C 0 km/h
1003 15-09-2010 08:36:01 12.8 C 10.42 g/m*3 12.8 C 0 km/h
1004 15-09-2010 08:48:02 12.7 C 10.35 g/m*3 12.7 C 0 km/h
1005 15-09-2010 09:00:02 12.5 C 10.22 g/m*3 12.5 C 0 km/h
1006 15-09-2010 09:12:01 12.7 C 10.35 g/m*3 12.7 C 0 km/h
1007 15-09-2010 09:24:01 12.7 C 10.24 g/m*3 12.7 C 0 km/h
1008 15-09-2010 09:36:02 13.1 C 10.38 g/m*3 13.1 C 0 km/h
1009 15-09-2010 09:48:02 13.6 C 10.59 g/m*3 13.6 C 0 km/h
1010 15-09-2010 10:00:02 14 C 10.49 g/m*3 14 C 0 km/h
1011 15-09-2010 10:12:02 14 C 10.01 g/m*3 14 C 0 km/h
1012 15-09-2010 10:24:02 14.1 C 9.95 g/m*3 14.1 C 0 km/h
1013 15-09-2010 10:36:02 14.1 C 9.71 g/m*3 14.1 C 0 km/h
1014 15-09-2010 10:48:02 14.1 C 9.59 g/m*3 14.1 C 0 km/h
1015 15-09-2010 11:00:02 14.2 C 9.52 g/m*3 14.2 C 0 km/h
1016 15-09-2010 11:12:02 14.6 C 9.01 g/m*3 14.6 C 0 km/h
1017 15-09-2010 11:24:02 15 C 8.72 g/m*3 15 C 0 km/h
1018 15-09-2010 11:36:02 15.6 C 8.51 g/m*3 15.6 C 0 km/h
1019 15-09-2010 11:48:01 15.7 C 8.43 g/m*3 15.7 C 0 km/h
1020 15-09-2010 12:00:01 16.2 C 7.31 g/m*3 16.2 C 0 km/h
1021 15-09-2010 12:12:01 16.4 C 7.4 g/m*3 16.4 C 0 km/h
1022 15-09-2010 12:24:01 17.2 C 7.18 g/m*3 17.2 C 0 km/h
1023 15-09-2010 12:36:01 16.6 C 7.06 g/m*3 16.6 C 0 km/h
1024 15-09-2010 12:48:02 16.1 C 6.17 g/m*3 16.1 C 0 km/h
1025 15-09-2010 13:00:02 16.1 C 6.44 g/m*3 16.1 C 0 km/h
Sensor: Nr:Datum:Temp:Abs-Feuchte:Windchill:Wind:
Aussen-T/F 1026 15-09-2010 13:12:02 16.4 C 6.7 g/m*3 16.4 C 0 km/h
1027 15-09-2010 13:24:02 17.4 C 6.52 g/m*3 17.4 C 0 km/h
1028 15-09-2010 13:36:02 17.9 C 5.95 g/m*3 17.9 C 0 km/h
1029 15-09-2010 13:48:02 18.4 C 5.82 g/m*3 18.4 C 0 km/h
1030 15-09-2010 14:00:02 18.5 C 5.7 g/m*3 18.5 C 0 km/h
1031 15-09-2010 14:12:02 18.1 C 5.87 g/m*3 18.1 C 0 km/h
1032 15-09-2010 14:24:02 18.5 C 5.54 g/m*3 18.5 C 0 km/h
1033 15-09-2010 14:36:02 18.3 C 5.47 g/m*3 18.3 C 0 km/h
1034 15-09-2010 14:48:02 18.5 C 5.7 g/m*3 18.5 C 0 km/h
1035 15-09-2010 15:00:03 19.5 C 5.87 g/m*3 19.5 C 0 km/h
1036 15-09-2010 15:12:01 19.6 C 5.4 g/m*3 19.6 C 0 km/h
1037 15-09-2010 15:24:01 19.3 C 5.64 g/m*3 19.3 C 0 km/h
1038 15-09-2010 15:36:02 19.2 C 5.94 g/m*3 19.2 C 0 km/h
1039 15-09-2010 15:48:02 20 C 5.88 g/m*3 20 C 0 km/h
1040 15-09-2010 16:00:02 19.6 C 5.91 g/m*3 19.6 C 0 km/h
1041 15-09-2010 16:12:02 19.6 C 5.91 g/m*3 19.6 C 0 km/h
1042 15-09-2010 16:24:02 19.3 C 5.97 g/m*3 19.3 C 0 km/h
1043 15-09-2010 16:36:02 19.6 C 6.08 g/m*3 19.6 C 0 km/h
1044 15-09-2010 16:48:02 19.5 C 6.04 g/m*3 19.5 C 0 km/h
1045 15-09-2010 17:00:02 20.4 C 5.84 g/m*3 20.4 C 0 km/h
1046 15-09-2010 17:12:02 19 C 5.7 g/m*3 19 C 0 km/h
1047 15-09-2010 17:24:02 19.4 C 6.01 g/m*3 19.4 C 0 km/h
1048 15-09-2010 17:36:02 19.9 C 5.84 g/m*3 19.9 C 0 km/h
1049 15-09-2010 17:48:02 19.7 C 5.6 g/m*3 19.7 C 0 km/h
1050 15-09-2010 18:00:02 18.7 C 5.44 g/m*3 18.7 C 0 km/h
Sensor: Nr:Datum:Temp:Abs-Feuchte:Windchill:Wind:
Aussen-T/F 1051 15-09-2010 18:12:02 18.2 C 5.28 g/m*3 18.2 C 0 km/h
1052 15-09-2010 18:24:03 17.5 C 5.22 g/m*3 17.5 C 0 km/h
1053 15-09-2010 18:36:02 17.7 C 5.28 g/m*3 17.7 C 0 km/h
1054 15-09-2010 18:48:02 17.1 C 5.39 g/m*3 17.1 C 0 km/h
1055 15-09-2010 19:00:02 16.9 C 5.61 g/m*3 16.9 C 0 km/h
1056 15-09-2010 19:12:02 16.7 C 5.4 g/m*3 16.7 C 0 km/h
1057 15-09-2010 19:24:02 16.6 C 5.65 g/m*3 16.6 C 0 km/h
1058 15-09-2010 19:36:02 16.4 C 5.72 g/m*3 16.4 C 0 km/h
1059 15-09-2010 19:48:02 16.4 C 5.86 g/m*3 16.4 C 0 km/h
1060 15-09-2010 20:00:02 16.2 C 6.07 g/m*3 16.2 C 0 km/h
1061 15-09-2010 20:12:02 16 C 6.27 g/m*3 16 C 0 km/h
1062 15-09-2010 20:24:02 15.8 C 6.46 g/m*3 15.8 C 0 km/h
1063 15-09-2010 20:36:01 15.7 C 6.15 g/m*3 15.7 C 0 km/h
1064 15-09-2010 20:48:02 15.5 C 6.34 g/m*3 15.5 C 0 km/h
1065 15-09-2010 21:00:03 15.4 C 6.31 g/m*3 15.4 C 0 km/h
1066 15-09-2010 21:12:01 15.2 C 6.49 g/m*3 15.2 C 0 km/h
1067 15-09-2010 21:24:01 15 C 6.41 g/m*3 15 C 0 km/h
1068 15-09-2010 21:37:02 15.1 C 6.32 g/m*3 15.1 C 0 km/h
1069 15-09-2010 21:49:02 15.2 C 6.36 g/m*3 15.2 C 0 km/h
1070 15-09-2010 22:01:02 15.1 C 6.32 g/m*3 15.1 C 0 km/h
1071 15-09-2010 22:13:02 15.1 C 6.06 g/m*3 15.1 C 0 km/h
1072 15-09-2010 22:25:02 14.9 C 5.86 g/m*3 14.9 C 0 km/h
1073 15-09-2010 22:37:02 14.8 C 5.83 g/m*3 14.8 C 0 km/h
1074 15-09-2010 22:49:02 14.9 C 5.74 g/m*3 14.9 C 0 km/h
1075 15-09-2010 23:01:02 15 C 5.51 g/m*3 15 C 0 km/h
Sensor: Nr:Datum:Temp:Abs-Feuchte:Windchill:Wind:
Aussen-T/F 1076 15-09-2010 23:13:02 15 C 5.51 g/m*3 15 C 0 km/h
1077 15-09-2010 23:25:02 14.9 C 5.74 g/m*3 14.9 C 0 km/h
1078 15-09-2010 23:37:02 14.8 C 5.7 g/m*3 14.8 C 0 km/h
1079 15-09-2010 23:49:02 14.6 C 5.76 g/m*3 14.6 C 0 km/h
1080 16-09-2010 00:01:02 14.5 C 5.97 g/m*3 14.5 C 0 km/h
1081 16-09-2010 00:13:02 14.4 C 5.93 g/m*3 14.4 C 0 km/h
1082 16-09-2010 00:25:02 14.2 C 5.86 g/m*3 14.2 C 0 km/h
1083 16-09-2010 00:37:02 13.8 C 5.96 g/m*3 13.8 C 0 km/h
1084 16-09-2010 00:49:02 14 C 5.79 g/m*3 14 C 0 km/h
1085 16-09-2010 01:01:02 14.1 C 5.58 g/m*3 14.1 C 0 km/h
1086 16-09-2010 01:13:03 14.2 C 5.49 g/m*3 14.2 C 0 km/h
1087 16-09-2010 01:25:03 14.1 C 5.34 g/m*3 14.1 C 0 km/h
1088 16-09-2010 01:37:03 14.1 C 5.34 g/m*3 14.1 C 0 km/h
1089 16-09-2010 01:49:03 14 C 5.31 g/m*3 14 C 0 km/h
1090 16-09-2010 02:01:03 13.9 C 5.51 g/m*3 13.9 C 0 km/h
1091 16-09-2010 02:13:03 14.1 C 5.58 g/m*3 14.1 C 0 km/h
1092 16-09-2010 02:25:03 14 C 5.79 g/m*3 14 C 0 km/h
1093 16-09-2010 02:37:03 13.7 C 5.92 g/m*3 13.7 C 0 km/h
1094 16-09-2010 02:49:03 14 C 6.15 g/m*3 14 C 0 km/h
1095 16-09-2010 03:01:03 13.9 C 6.35 g/m*3 13.9 C 0 km/h
1096 16-09-2010 03:13:03 13.9 C 6.59 g/m*3 13.9 C 0 km/h
1097 16-09-2010 03:25:03 13.9 C 6.71 g/m*3 13.9 C 0 km/h
1098 16-09-2010 03:37:03 13.8 C 6.79 g/m*3 13.8 C 0 km/h
1099 16-09-2010 03:49:03 13.7 C 7.1 g/m*3 13.7 C 0 km/h
1100 16-09-2010 04:01:03 13.2 C 7.12 g/m*3 13.2 C 0 km/h
Sensor: Nr:Datum:Temp:Abs-Feuchte:Windchill:Wind:
Aussen-T/F 1101 16-09-2010 04:13:03 13.6 C 6.94 g/m*3 13.6 C 0 km/h
1102 16-09-2010 04:25:03 13.7 C 6.87 g/m*3 13.7 C 0 km/h
1103 16-09-2010 04:37:03 13.7 C 6.99 g/m*3 13.7 C 0 km/h
1104 16-09-2010 04:49:03 13.7 C 6.99 g/m*3 13.7 C 0 km/h
1105 16-09-2010 05:01:03 13.7 C 6.99 g/m*3 13.7 C 0 km/h
1106 16-09-2010 05:13:03 13.6 C 7.06 g/m*3 13.6 C 0 km/h
1107 16-09-2010 05:25:04 13.2 C 7.35 g/m*3 13.2 C 0 km/h
1108 16-09-2010 05:37:04 13.1 C 7.42 g/m*3 13.1 C 0 km/h
1109 16-09-2010 05:49:04 13.2 C 7.46 g/m*3 13.2 C 0 km/h
1110 16-09-2010 06:01:04 13.1 C 7.65 g/m*3 13.1 C 0 km/h
1111 16-09-2010 06:13:04 12.6 C 7.97 g/m*3 12.6 C 0 km/h
1112 16-09-2010 06:25:04 12.5 C 8.03 g/m*3 12.5 C 0 km/h
1113 16-09-2010 06:37:04 12.1 C 8.26 g/m*3 12.1 C 0 km/h
1114 16-09-2010 06:49:04 11.9 C 8.47 g/m*3 11.9 C 0 km/h
1115 16-09-2010 07:01:04 11.9 C 8.47 g/m*3 11.9 C 0 km/h
1116 16-09-2010 07:13:04 11.9 C 8.58 g/m*3 11.9 C 0 km/h
1117 16-09-2010 07:25:04 11.9 C 8.79 g/m*3 11.9 C 0 km/h
1118 16-09-2010 07:37:04 11.6 C 8.73 g/m*3 11.6 C 0 km/h
1119 16-09-2010 07:49:04 11.6 C 8.83 g/m*3 11.6 C 0 km/h
1120 16-09-2010 08:01:02 11.6 C 8.83 g/m*3 11.6 C 0 km/h
1121 16-09-2010 08:13:02 11.7 C 8.79 g/m*3 11.7 C 0 km/h
1122 16-09-2010 08:25:02 12 C 8.85 g/m*3 12 C 0 km/h
1123 16-09-2010 08:37:02 12 C 8.85 g/m*3 12 C 0 km/h
1124 16-09-2010 08:49:02 12 C 8.85 g/m*3 12 C 0 km/h
1125 16-09-2010 09:01:02 12 C 8.95 g/m*3 12 C 0 km/h
Sensor: Nr:Datum:Temp:Abs-Feuchte:Windchill:Wind:
Aussen-T/F 1126 16-09-2010 09:13:02 12.1 C 9.01 g/m*3 12.1 C 0 km/h
1127 16-09-2010 09:25:01 12.6 C 9.29 g/m*3 12.6 C 0 km/h
1128 16-09-2010 09:37:02 13 C 9.41 g/m*3 13 C 0 km/h
1129 16-09-2010 09:49:02 13.5 C 9.59 g/m*3 13.5 C 0 km/h
1130 16-09-2010 10:01:02 13.7 C 9.12 g/m*3 13.7 C 0 km/h
1131 16-09-2010 10:13:02 14 C 8.68 g/m*3 14 C 0 km/h
1132 16-09-2010 10:25:02 14 C 8.56 g/m*3 14 C 0 km/h
1133 16-09-2010 10:37:02 14.3 C 8.35 g/m*3 14.3 C 0 km/h
1134 16-09-2010 10:49:02 14.6 C 8.51 g/m*3 14.6 C 0 km/h
1135 16-09-2010 11:01:02 15.2 C 8.18 g/m*3 15.2 C 0 km/h
1136 16-09-2010 11:13:02 15 C 8.08 g/m*3 15 C 0 km/h
1137 16-09-2010 11:25:02 15.2 C 8.44 g/m*3 15.2 C 0 km/h
1138 16-09-2010 11:37:02 15.1 C 8.26 g/m*3 15.1 C 0 km/h
1139 16-09-2010 11:49:01 15.8 C 8.21 g/m*3 15.8 C 0 km/h
1140 16-09-2010 12:01:02 16.4 C 7.82 g/m*3 16.4 C 0 km/h
1141 16-09-2010 12:13:02 16.7 C 7.82 g/m*3 16.7 C 0 km/h
1142 16-09-2010 12:25:02 17.2 C 7.61 g/m*3 17.2 C 0 km/h
1143 16-09-2010 12:37:02 17.1 C 7.42 g/m*3 17.1 C 0 km/h
1144 16-09-2010 12:49:02 17.7 C 7.69 g/m*3 17.7 C 0 km/h
1145 16-09-2010 13:01:01 17.7 C 7.09 g/m*3 17.7 C 0 km/h
1146 16-09-2010 13:13:01 17.9 C 7.02 g/m*3 17.9 C 0 km/h
1147 16-09-2010 13:25:02 17.4 C 6.97 g/m*3 17.4 C 0 km/h
1148 16-09-2010 13:37:01 16.9 C 7.34 g/m*3 16.9 C 0 km/h
1149 16-09-2010 13:49:01 16.7 C 7.39 g/m*3 16.7 C 0 km/h
1150 16-09-2010 14:01:01 17 C 7.23 g/m*3 17 C 0 km/h
Sensor: Nr:Datum:Temp:Abs-Feuchte:Windchill:Wind:
Aussen-T/F 1151 16-09-2010 14:13:01 16 C 7.36 g/m*3 16 C 0 km/h
1152 16-09-2010 14:25:01 14 C 8.81 g/m*3 14 C 0 km/h
1153 16-09-2010 14:37:02 14.2 C 9.52 g/m*3 14.2 C 0 km/h
1154 16-09-2010 14:49:02 15.2 C 10.25 g/m*3 15.2 C 0 km/h
1155 16-09-2010 15:01:02 15.9 C 10.29 g/m*3 15.9 C 0 km/h
1156 16-09-2010 15:13:02 16.8 C 9.44 g/m*3 16.8 C 0 km/h
1157 16-09-2010 15:25:01 17 C 8.97 g/m*3 17 C 0 km/h
1158 16-09-2010 15:37:02 18.5 C 9.02 g/m*3 18.5 C 0 km/h
1159 16-09-2010 15:49:02 17.9 C 7.79 g/m*3 17.9 C 0 km/h
1160 16-09-2010 16:01:02 18.3 C 7.82 g/m*3 18.3 C 0 km/h
1161 16-09-2010 16:13:03 17.4 C 7.56 g/m*3 17.4 C 0 km/h
1162 16-09-2010 16:25:01 16.6 C 8.05 g/m*3 16.6 C 0 km/h
1163 16-09-2010 16:37:02 15 C 8.85 g/m*3 15 C 0 km/h
1164 16-09-2010 16:49:02 14.5 C 9.7 g/m*3 14.5 C 0 km/h
1165 16-09-2010 17:01:02 14.5 C 9.83 g/m*3 14.5 C 0 km/h
1166 16-09-2010 17:13:02 15.1 C 10.06 g/m*3 15.1 C 0 km/h
1167 16-09-2010 17:25:02 15.5 C 9.65 g/m*3 15.5 C 0 km/h
1168 16-09-2010 17:37:02 15.2 C 9.22 g/m*3 15.2 C 0 km/h
1169 16-09-2010 17:49:02 16.2 C 8.69 g/m*3 16.2 C 0 km/h
1170 16-09-2010 18:01:02 15.3 C 8.88 g/m*3 15.3 C 0 km/h
1171 16-09-2010 18:13:02 15 C 8.72 g/m*3 15 C 0 km/h
1172 16-09-2010 18:25:02 15 C 8.85 g/m*3 15 C 0 km/h
1173 16-09-2010 18:37:01 14.8 C 8.99 g/m*3 14.8 C 0 km/h
1174 16-09-2010 18:49:02 14.4 C 9.27 g/m*3 14.4 C 0 km/h
1175 16-09-2010 19:01:01 13.8 C 9.41 g/m*3 13.8 C 0 km/h
Sensor: Nr:Datum:Temp:Abs-Feuchte:Windchill:Wind:
Aussen-T/F 1176 16-09-2010 19:13:01 13.5 C 9.59 g/m*3 13.5 C 0 km/h
1177 16-09-2010 19:25:02 13.4 C 9.76 g/m*3 13.4 C 0 km/h
1178 16-09-2010 19:37:02 13.3 C 9.82 g/m*3 13.3 C 0 km/h
1179 16-09-2010 19:49:02 13.1 C 9.81 g/m*3 13.1 C 0 km/h
1180 16-09-2010 20:01:02 13 C 9.87 g/m*3 13 C 0 km/h
1181 16-09-2010 20:13:02 13 C 9.98 g/m*3 13 C 0 km/h
1182 16-09-2010 20:25:02 12.8 C 10.08 g/m*3 12.8 C 0 km/h
1183 16-09-2010 20:37:02 12.7 C 10.02 g/m*3 12.7 C 0 km/h
1184 16-09-2010 20:49:02 12.7 C 10.13 g/m*3 12.7 C 0 km/h
1185 16-09-2010 21:01:02 12.6 C 10.07 g/m*3 12.6 C 0 km/h
1186 16-09-2010 21:13:02 12.7 C 10.13 g/m*3 12.7 C 0 km/h
1187 16-09-2010 21:25:01 12.7 C 10.13 g/m*3 12.7 C 0 km/h
1188 16-09-2010 21:37:02 12.6 C 10.07 g/m*3 12.6 C 0 km/h
1189 16-09-2010 21:49:02 12.5 C 10 g/m*3 12.5 C 0 km/h
1190 16-09-2010 22:01:02 12.2 C 9.71 g/m*3 12.2 C 0 km/h
1191 16-09-2010 22:13:02 12.2 C 9.6 g/m*3 12.2 C 0 km/h
1192 16-09-2010 22:25:02 12.2 C 9.6 g/m*3 12.2 C 0 km/h
1193 16-09-2010 22:38:02 12.2 C 9.5 g/m*3 12.2 C 0 km/h
1194 16-09-2010 22:50:02 12.2 C 9.5 g/m*3 12.2 C 0 km/h
1195 16-09-2010 23:02:02 12.2 C 9.5 g/m*3 12.2 C 0 km/h
1196 16-09-2010 23:14:02 12.1 C 9.33 g/m*3 12.1 C 0 km/h
1197 16-09-2010 23:26:02 12.1 C 9.22 g/m*3 12.1 C 0 km/h
1198 16-09-2010 23:38:02 12.1 C 9.22 g/m*3 12.1 C 0 km/h
1199 16-09-2010 23:50:02 12 C 9.17 g/m*3 12 C 0 km/h
1200 17-09-2010 00:02:02 12.1 C 9.12 g/m*3 12.1 C 0 km/h
Sensor: Nr:Datum:Temp:Abs-Feuchte:Windchill:Wind:
Aussen-T/F 1201 17-09-2010 00:14:02 12.1 C 9.22 g/m*3 12.1 C 0 km/h
1202 17-09-2010 00:26:02 12.2 C 9.28 g/m*3 12.2 C 0 km/h
1203 17-09-2010 00:38:02 12.2 C 9.28 g/m*3 12.2 C 0 km/h
1204 17-09-2010 00:50:02 12.2 C 9.28 g/m*3 12.2 C 0 km/h
1205 17-09-2010 01:02:02 12.1 C 9.22 g/m*3 12.1 C 0 km/h
1206 17-09-2010 01:14:03 12.1 C 9.22 g/m*3 12.1 C 0 km/h
1207 17-09-2010 01:26:03 12.1 C 9.33 g/m*3 12.1 C 0 km/h
1208 17-09-2010 01:38:03 12 C 9.27 g/m*3 12 C 0 km/h
1209 17-09-2010 01:50:03 12 C 9.27 g/m*3 12 C 0 km/h
1210 17-09-2010 02:02:03 11.9 C 9.32 g/m*3 11.9 C 0 km/h
1211 17-09-2010 02:14:03 11.9 C 9.32 g/m*3 11.9 C 0 km/h
1212 17-09-2010 02:26:03 12 C 9.38 g/m*3 12 C 0 km/h
1213 17-09-2010 02:38:03 12 C 9.27 g/m*3 12 C 0 km/h
1214 17-09-2010 02:50:03 12 C 9.17 g/m*3 12 C 0 km/h
1215 17-09-2010 03:02:03 12.1 C 9.01 g/m*3 12.1 C 0 km/h
1216 17-09-2010 03:14:03 12.1 C 8.9 g/m*3 12.1 C 0 km/h
1217 17-09-2010 03:26:03 12.1 C 8.9 g/m*3 12.1 C 0 km/h
1218 17-09-2010 03:38:03 12 C 8.95 g/m*3 12 C 0 km/h
1219 17-09-2010 03:50:03 12 C 8.95 g/m*3 12 C 0 km/h
1220 17-09-2010 04:02:03 12 C 9.06 g/m*3 12 C 0 km/h
1221 17-09-2010 04:14:03 11.9 C 8.9 g/m*3 11.9 C 0 km/h
1222 17-09-2010 04:26:03 12 C 8.85 g/m*3 12 C 0 km/h
1223 17-09-2010 04:38:03 11.8 C 8.63 g/m*3 11.8 C 0 km/h
1224 17-09-2010 04:50:03 12 C 8.21 g/m*3 12 C 0 km/h
1225 17-09-2010 05:02:03 11.9 C 8.15 g/m*3 11.9 C 0 km/h
Sensor: Nr:Datum:Temp:Abs-Feuchte:Windchill:Wind:
Aussen-T/F 1226 17-09-2010 05:14:03 11.5 C 8.16 g/m*3 11.5 C 0 km/h
1227 17-09-2010 05:26:04 11.1 C 8.16 g/m*3 11.1 C 0 km/h
1228 17-09-2010 05:38:04 10.8 C 8.3 g/m*3 10.8 C 0 km/h
1229 17-09-2010 05:50:04 10.7 C 8.35 g/m*3 10.7 C 0 km/h
1230 17-09-2010 06:02:04 10.5 C 8.34 g/m*3 10.5 C 0 km/h
1231 17-09-2010 06:14:04 10.5 C 8.44 g/m*3 10.5 C 0 km/h
1232 17-09-2010 06:26:04 10.7 C 8.74 g/m*3 10.7 C 0 km/h
1233 17-09-2010 06:38:04 10.8 C 8.8 g/m*3 10.8 C 0 km/h
1234 17-09-2010 06:50:04 10.5 C 8.63 g/m*3 10.5 C 0 km/h
1235 17-09-2010 07:02:02 10.2 C 8.37 g/m*3 10.2 C 0 km/h
1236 17-09-2010 07:14:02 10 C 8.27 g/m*3 10 C 0 km/h
1237 17-09-2010 07:26:02 9.9 C 8.31 g/m*3 9.9 C 0 km/h
1238 17-09-2010 07:38:01 10 C 7.99 g/m*3 10 C 0 km/h
1239 17-09-2010 07:50:02 10 C 7.8 g/m*3 10 C 0 km/h
1240 17-09-2010 08:02:01 9.9 C 7.84 g/m*3 9.9 C 0 km/h
1241 17-09-2010 08:14:01 10 C 7.8 g/m*3 10 C 0 km/h
1242 17-09-2010 08:26:01 10.1 C 7.66 g/m*3 10.1 C 0 km/h
1243 17-09-2010 08:38:01 10.3 C 7.57 g/m*3 10.3 C 0 km/h
1244 17-09-2010 08:50:01 10.8 C 7.41 g/m*3 10.8 C 0 km/h
1245 17-09-2010 09:02:01 10.8 C 7.31 g/m*3 10.8 C 0 km/h
1246 17-09-2010 09:14:01 10.7 C 7.27 g/m*3 10.7 C 0 km/h
1247 17-09-2010 09:26:02 10.8 C 7.31 g/m*3 10.8 C 0 km/h
1248 17-09-2010 09:38:01 10.9 C 7.26 g/m*3 10.9 C 0 km/h
1249 17-09-2010 09:50:02 11.1 C 7.25 g/m*3 11.1 C 0 km/h
1250 17-09-2010 10:02:02 11.4 C 7.39 g/m*3 11.4 C 0 km/h
Sensor: Nr:Datum:Temp:Abs-Feuchte:Windchill:Wind:
Aussen-T/F 1251 17-09-2010 10:14:02 11.7 C 7.53 g/m*3 11.7 C 0 km/h
1252 17-09-2010 10:26:02 12.1 C 7.61 g/m*3 12.1 C 0 km/h
1253 17-09-2010 10:38:01 12.4 C 7.54 g/m*3 12.4 C 0 km/h
1254 17-09-2010 10:50:02 12.7 C 7.68 g/m*3 12.7 C 0 km/h
1255 17-09-2010 11:02:01 13.1 C 7.65 g/m*3 13.1 C 0 km/h
1256 17-09-2010 11:14:01 13.3 C 7.63 g/m*3 13.3 C 0 km/h
1257 17-09-2010 11:26:01 13.8 C 7.74 g/m*3 13.8 C 0 km/h
1258 17-09-2010 11:38:02 14.1 C 7.4 g/m*3 14.1 C 0 km/h
1259 17-09-2010 11:50:02 14.3 C 7.37 g/m*3 14.3 C 0 km/h
1260 17-09-2010 12:02:02 15.2 C 7.01 g/m*3 15.2 C 0 km/h
1261 17-09-2010 12:14:02 15.2 C 6.62 g/m*3 15.2 C 0 km/h
1262 17-09-2010 12:26:02 15.7 C 6.42 g/m*3 15.7 C 0 km/h
1263 17-09-2010 12:38:02 16.2 C 6.62 g/m*3 16.2 C 0 km/h
1264 17-09-2010 12:50:02 16.2 C 6.21 g/m*3 16.2 C 0 km/h
1265 17-09-2010 13:02:02 15.9 C 6.23 g/m*3 15.9 C 0 km/h
1266 17-09-2010 13:14:02 16.2 C 5.93 g/m*3 16.2 C 0 km/h
1267 17-09-2010 13:26:02 16.3 C 5.83 g/m*3 16.3 C 0 km/h
1268 17-09-2010 13:38:02 17 C 5.79 g/m*3 17 C 0 km/h
1269 17-09-2010 13:50:02 17.9 C 5.65 g/m*3 17.9 C 0 km/h
1270 17-09-2010 14:02:02 18.5 C 5.54 g/m*3 18.5 C 0 km/h
1271 17-09-2010 14:14:02 17.1 C 5.24 g/m*3 17.1 C 0 km/h
1272 17-09-2010 14:26:02 16.8 C 5.29 g/m*3 16.8 C 0 km/h
1273 17-09-2010 14:38:02 17.4 C 5.34 g/m*3 17.4 C 0 km/h
1274 17-09-2010 14:50:02 18.3 C 5 g/m*3 18.3 C 0 km/h
1275 17-09-2010 15:02:02 18.6 C 4.93 g/m*3 18.6 C 0 km/h
Sensor: Nr:Datum:Temp:Abs-Feuchte:Windchill:Wind:
Aussen-T/F 1276 17-09-2010 15:14:02 18.2 C 4.97 g/m*3 18.2 C 0 km/h
1277 17-09-2010 15:26:02 17.2 C 5.13 g/m*3 17.2 C 0 km/h
1278 17-09-2010 15:38:02 16.6 C 5.09 g/m*3 16.6 C 0 km/h
1279 17-09-2010 15:50:02 16.8 C 5.15 g/m*3 16.8 C 0 km/h
1280 17-09-2010 16:02:02 18.4 C 5.19 g/m*3 18.4 C 0 km/h
1281 17-09-2010 16:14:02 18.9 C 5.02 g/m*3 18.9 C 0 km/h
1282 17-09-2010 16:26:02 19.3 C 4.81 g/m*3 19.3 C 0 km/h
1283 17-09-2010 16:38:01 18.9 C 4.86 g/m*3 18.9 C 0 km/h
1284 17-09-2010 16:50:02 19.8 C 4.78 g/m*3 19.8 C 0 km/h
1285 17-09-2010 17:02:01 20.1 C 4.69 g/m*3 20.1 C 0 km/h
1286 17-09-2010 17:14:01 19.7 C 4.25 g/m*3 19.7 C 0 km/h
1287 17-09-2010 17:26:01 18.8 C 4.35 g/m*3 18.8 C 0 km/h
1288 17-09-2010 17:38:02 19.3 C 4.31 g/m*3 19.3 C 0 km/h
1289 17-09-2010 17:50:02 19.4 C 4.67 g/m*3 19.4 C 0 km/h
1290 17-09-2010 18:02:02 17.5 C 5.22 g/m*3 17.5 C 0 km/h
1291 17-09-2010 18:14:02 16 C 5.99 g/m*3 16 C 0 km/h
1292 17-09-2010 18:26:02 17.2 C 6.3 g/m*3 17.2 C 0 km/h
1293 17-09-2010 18:38:02 16.3 C 6.24 g/m*3 16.3 C 0 km/h
1294 17-09-2010 18:50:01 16.3 C 6.66 g/m*3 16.3 C 0 km/h
1295 17-09-2010 19:02:01 16.3 C 6.66 g/m*3 16.3 C 0 km/h
1296 17-09-2010 19:14:02 15.7 C 6.56 g/m*3 15.7 C 0 km/h
1297 17-09-2010 19:26:01 15 C 6.54 g/m*3 15 C 0 km/h
1298 17-09-2010 19:38:01 14.7 C 6.8 g/m*3 14.7 C 0 km/h
1299 17-09-2010 19:50:02 14.5 C 6.84 g/m*3 14.5 C 0 km/h
1300 17-09-2010 20:02:02 14.5 C 6.96 g/m*3 14.5 C 0 km/h
Sensor: Nr:Datum:Temp:Abs-Feuchte:Windchill:Wind:
Aussen-T/F 1301 17-09-2010 20:14:02 14.5 C 6.96 g/m*3 14.5 C 0 km/h
1302 17-09-2010 20:26:02 14.5 C 7.09 g/m*3 14.5 C 0 km/h
1303 17-09-2010 20:38:02 14.1 C 7.28 g/m*3 14.1 C 0 km/h
1304 17-09-2010 20:50:01 13.7 C 6.99 g/m*3 13.7 C 0 km/h
1305 17-09-2010 21:02:02 13.7 C 7.22 g/m*3 13.7 C 0 km/h
1306 17-09-2010 21:14:02 13.5 C 7.13 g/m*3 13.5 C 0 km/h
1307 17-09-2010 21:26:01 13.4 C 7.09 g/m*3 13.4 C 0 km/h
1308 17-09-2010 21:38:01 13.4 C 7.09 g/m*3 13.4 C 0 km/h
1309 17-09-2010 21:50:01 13.4 C 7.21 g/m*3 13.4 C 0 km/h
1310 17-09-2010 22:02:01 13.6 C 6.94 g/m*3 13.6 C 0 km/h
1311 17-09-2010 22:14:01 13.6 C 6.71 g/m*3 13.6 C 0 km/h
1312 17-09-2010 22:26:02 13.4 C 6.63 g/m*3 13.4 C 0 km/h
1313 17-09-2010 22:39:36 13.1 C 6.62 g/m*3 13.1 C 0 km/h
1314 17-09-2010 22:51:37 13 C 6.69 g/m*3 13 C 0 km/h
1315 17-09-2010 23:03:37 12.8 C 6.72 g/m*3 12.8 C 0 km/h
1316 17-09-2010 23:15:37 12.6 C 6.75 g/m*3 12.6 C 0 km/h
1317 17-09-2010 23:27:37 12.6 C 6.86 g/m*3 12.6 C 0 km/h
1318 17-09-2010 23:39:37 12.5 C 6.82 g/m*3 12.5 C 0 km/h
1319 17-09-2010 23:51:37 12.4 C 6.88 g/m*3 12.4 C 0 km/h
1320 18-09-2010 00:03:37 12.2 C 6.8 g/m*3 12.2 C 0 km/h
1321 18-09-2010 00:15:37 12.3 C 6.95 g/m*3 12.3 C 0 km/h
1322 18-09-2010 00:27:37 12 C 6.82 g/m*3 12 C 0 km/h
1323 18-09-2010 00:39:37 12 C 7.03 g/m*3 12 C 0 km/h
1324 18-09-2010 00:51:37 12.1 C 7.08 g/m*3 12.1 C 0 km/h
1325 18-09-2010 01:03:37 11.9 C 7.2 g/m*3 11.9 C 0 km/h
Sensor: Nr:Datum:Temp:Abs-Feuchte:Windchill:Wind:
Aussen-T/F 1326 18-09-2010 01:15:37 11.2 C 6.99 g/m*3 11.2 C 0 km/h
1327 18-09-2010 01:27:37 10.8 C 7.02 g/m*3 10.8 C 0 km/h
1328 18-09-2010 01:39:37 10.4 C 6.94 g/m*3 10.4 C 0 km/h
1329 18-09-2010 01:51:37 10.2 C 6.85 g/m*3 10.2 C 0 km/h
1330 18-09-2010 02:03:37 10.2 C 6.95 g/m*3 10.2 C 0 km/h
1331 18-09-2010 02:15:37 10 C 7.05 g/m*3 10 C 0 km/h
1332 18-09-2010 02:27:37 10 C 7.24 g/m*3 10 C 0 km/h
1333 18-09-2010 02:39:37 9.8 C 7.33 g/m*3 9.8 C 0 km/h
1334 18-09-2010 02:51:37 10 C 7.42 g/m*3 10 C 0 km/h
1335 18-09-2010 03:03:38 9.9 C 7.47 g/m*3 9.9 C 0 km/h
1336 18-09-2010 03:15:38 9.5 C 7.28 g/m*3 9.5 C 0 km/h
1337 18-09-2010 03:27:38 9.4 C 7.33 g/m*3 9.4 C 0 km/h
1338 18-09-2010 03:39:38 9.1 C 7.19 g/m*3 9.1 C 0 km/h
1339 18-09-2010 03:51:38 9 C 7.23 g/m*3 9 C 0 km/h
1340 18-09-2010 04:03:38 8.9 C 7.36 g/m*3 8.9 C 0 km/h
1341 18-09-2010 04:15:38 8.7 C 7.26 g/m*3 8.7 C 0 km/h
1342 18-09-2010 04:27:38 8.5 C 7.17 g/m*3 8.5 C 0 km/h
1343 18-09-2010 04:39:38 8.4 C 7.13 g/m*3 8.4 C 0 km/h
1344 18-09-2010 04:51:38 8.2 C 7.03 g/m*3 8.2 C 0 km/h
1345 18-09-2010 05:03:38 8.2 C 7.12 g/m*3 8.2 C 0 km/h
1346 18-09-2010 05:15:38 8.1 C 7.16 g/m*3 8.1 C 0 km/h
1347 18-09-2010 05:27:38 7.9 C 7.23 g/m*3 7.9 C 0 km/h
1348 18-09-2010 05:39:38 7.7 C 7.14 g/m*3 7.7 C 0 km/h
1349 18-09-2010 05:51:38 7.8 C 7.26 g/m*3 7.8 C 0 km/h
1350 18-09-2010 06:03:38 7.8 C 7.35 g/m*3 7.8 C 0 km/h
Sensor: Nr:Datum:Temp:Abs-Feuchte:Windchill:Wind:
Aussen-T/F 1351 18-09-2010 06:15:38 7.5 C 7.28 g/m*3 7.5 C 0 km/h
1352 18-09-2010 06:27:38 7.5 C 7.28 g/m*3 7.5 C 0 km/h
1353 18-09-2010 06:39:38 7.6 C 7.41 g/m*3 7.6 C 0 km/h
1354 18-09-2010 06:51:38 7.7 C 7.46 g/m*3 7.7 C 0 km/h
1355 18-09-2010 07:03:39 7.7 C 7.46 g/m*3 7.7 C 0 km/h
1356 18-09-2010 07:15:39 7.6 C 7.33 g/m*3 7.6 C 0 km/h
1357 18-09-2010 07:27:39 7.5 C 7.28 g/m*3 7.5 C 0 km/h
1358 18-09-2010 07:39:39 7.3 C 7.19 g/m*3 7.3 C 0 km/h
1359 18-09-2010 07:51:39 7.4 C 7.24 g/m*3 7.4 C 0 km/h
1360 18-09-2010 08:03:02 7.3 C 7.11 g/m*3 7.3 C 0 km/h
1361 18-09-2010 08:15:03 7.4 C 7.16 g/m*3 7.4 C 0 km/h
1362 18-09-2010 08:27:03 7.5 C 7.28 g/m*3 7.5 C 0 km/h
1363 18-09-2010 08:39:02 7.5 C 7.28 g/m*3 7.5 C 0 km/h
1364 18-09-2010 08:51:02 7.6 C 7.33 g/m*3 7.6 C 0 km/h
1365 18-09-2010 09:03:02 7.7 C 7.38 g/m*3 7.7 C 0 km/h
1366 18-09-2010 09:15:02 7.8 C 7.43 g/m*3 7.8 C 0 km/h
1367 18-09-2010 09:27:02 8 C 7.44 g/m*3 8 C 0 km/h
1368 18-09-2010 09:39:02 8.2 C 7.54 g/m*3 8.2 C 0 km/h
1369 18-09-2010 09:51:02 8.9 C 7.97 g/m*3 8.9 C 0 km/h
1370 18-09-2010 10:03:02 9.3 C 8.09 g/m*3 9.3 C 0 km/h
1371 18-09-2010 10:15:02 9.5 C 8.1 g/m*3 9.5 C 0 km/h
1372 18-09-2010 10:27:03 9.8 C 8.07 g/m*3 9.8 C 0 km/h
1373 18-09-2010 10:39:01 10.7 C 8.25 g/m*3 10.7 C 0 km/h
1374 18-09-2010 10:51:02 11.7 C 8.37 g/m*3 11.7 C 0 km/h
1375 18-09-2010 11:03:02 12.2 C 6.91 g/m*3 12.2 C 0 km/h
Sensor: Nr:Datum:Temp:Abs-Feuchte:Windchill:Wind:
Aussen-T/F 1376 18-09-2010 11:15:02 13 C 6.8 g/m*3 13 C 0 km/h
1377 18-09-2010 11:27:02 13.6 C 6.59 g/m*3 13.6 C 0 km/h
1378 18-09-2010 11:39:02 14 C 6.39 g/m*3 14 C 0 km/h
1379 18-09-2010 11:51:01 14.5 C 6.47 g/m*3 14.5 C 0 km/h
1380 18-09-2010 12:03:02 14.6 C 6.13 g/m*3 14.6 C 0 km/h
1381 18-09-2010 12:15:01 15.7 C 6.15 g/m*3 15.7 C 0 km/h
1382 18-09-2010 12:27:01 15.1 C 5.42 g/m*3 15.1 C 0 km/h
1383 18-09-2010 12:39:01 15.4 C 6.04 g/m*3 15.4 C 0 km/h
1384 18-09-2010 12:51:01 14.9 C 5.86 g/m*3 14.9 C 0 km/h
1385 18-09-2010 13:03:02 14.9 C 5.86 g/m*3 14.9 C 0 km/h
1386 18-09-2010 13:15:01 15.3 C 5.48 g/m*3 15.3 C 0 km/h
1387 18-09-2010 13:27:01 15.6 C 5.32 g/m*3 15.6 C 0 km/h
1388 18-09-2010 13:39:01 15.8 C 5.25 g/m*3 15.8 C 0 km/h
1389 18-09-2010 13:51:01 16.4 C 5.16 g/m*3 16.4 C 0 km/h
1390 18-09-2010 14:03:01 16.2 C 4.96 g/m*3 16.2 C 0 km/h
1391 18-09-2010 14:15:02 15.4 C 4.73 g/m*3 15.4 C 0 km/h
1392 18-09-2010 14:27:02 14.7 C 4.66 g/m*3 14.7 C 0 km/h
1393 18-09-2010 14:39:01 14.9 C 4.72 g/m*3 14.9 C 0 km/h
1394 18-09-2010 14:51:02 15.1 C 4.77 g/m*3 15.1 C 0 km/h
1395 18-09-2010 15:03:02 15.4 C 4.6 g/m*3 15.4 C 0 km/h
1396 18-09-2010 15:15:02 16.1 C 4.52 g/m*3 16.1 C 0 km/h
1397 18-09-2010 15:27:02 15.9 C 4.74 g/m*3 15.9 C 0 km/h
1398 18-09-2010 15:39:02 17.3 C 4.57 g/m*3 17.3 C 0 km/h
1399 18-09-2010 15:51:02 16.8 C 4.43 g/m*3 16.8 C 0 km/h
1400 18-09-2010 16:03:01 16.4 C 4.75 g/m*3 16.4 C 0 km/h
Sensor: Nr:Datum:Temp:Abs-Feuchte:Windchill:Wind:
Aussen-T/F 1401 18-09-2010 16:15:02 16.2 C 4.55 g/m*3 16.2 C 0 km/h
1402 18-09-2010 16:27:03 16.1 C 4.66 g/m*3 16.1 C 0 km/h
1403 18-09-2010 16:39:01 16.1 C 4.8 g/m*3 16.1 C 0 km/h
1404 18-09-2010 16:51:02 16.3 C 5.55 g/m*3 16.3 C 0 km/h
1405 18-09-2010 17:03:02 16.3 C 4.99 g/m*3 16.3 C 0 km/h
1406 18-09-2010 17:15:02 16.4 C 6.14 g/m*3 16.4 C 0 km/h
1407 18-09-2010 17:27:02 16.3 C 5.41 g/m*3 16.3 C 0 km/h
1408 18-09-2010 17:39:02 15.6 C 6.12 g/m*3 15.6 C 0 km/h
1409 18-09-2010 17:51:01 14.7 C 5.92 g/m*3 14.7 C 0 km/h
1410 18-09-2010 18:03:02 14.5 C 6.09 g/m*3 14.5 C 0 km/h
1411 18-09-2010 18:15:01 15.6 C 5.98 g/m*3 15.6 C 0 km/h
1412 18-09-2010 18:27:01 16.2 C 5.93 g/m*3 16.2 C 0 km/h
1413 18-09-2010 18:39:01 16.2 C 6.07 g/m*3 16.2 C 0 km/h
1414 18-09-2010 18:51:01 15.8 C 6.19 g/m*3 15.8 C 0 km/h
1415 18-09-2010 19:03:02 15.2 C 6.1 g/m*3 15.2 C 0 km/h
1416 18-09-2010 19:15:01 14 C 5.91 g/m*3 14 C 0 km/h
1417 18-09-2010 19:27:01 13 C 6.12 g/m*3 13 C 0 km/h
1418 18-09-2010 19:39:01 12.2 C 6.04 g/m*3 12.2 C 0 km/h
1419 18-09-2010 19:51:01 11.9 C 6.14 g/m*3 11.9 C 0 km/h
1420 18-09-2010 20:03:02 11.4 C 6.36 g/m*3 11.4 C 0 km/h
1421 18-09-2010 20:15:02 11.2 C 6.39 g/m*3 11.2 C 0 km/h
1422 18-09-2010 20:27:02 11.1 C 6.75 g/m*3 11.1 C 0 km/h
1423 18-09-2010 20:39:01 10.9 C 6.76 g/m*3 10.9 C 0 km/h
1424 18-09-2010 20:51:01 10.8 C 6.72 g/m*3 10.8 C 0 km/h
1425 18-09-2010 21:03:01 10.6 C 6.73 g/m*3 10.6 C 0 km/h
Sensor: Nr:Datum:Temp:Abs-Feuchte:Windchill:Wind:
Aussen-T/F 1426 18-09-2010 21:15:02 10.2 C 6.66 g/m*3 10.2 C 0 km/h
1427 18-09-2010 21:27:02 10 C 6.48 g/m*3 10 C 0 km/h
1428 18-09-2010 21:39:01 9.7 C 6.64 g/m*3 9.7 C 0 km/h
1429 18-09-2010 21:51:02 9.6 C 6.6 g/m*3 9.6 C 0 km/h
1430 18-09-2010 22:03:02 9.3 C 6.56 g/m*3 9.3 C 0 km/h
1431 18-09-2010 22:15:02 9.2 C 6.61 g/m*3 9.2 C 0 km/h
1432 18-09-2010 22:27:02 9 C 6.7 g/m*3 9 C 0 km/h
1433 18-09-2010 22:40:03 8.8 C 6.79 g/m*3 8.8 C 0 km/h
1434 18-09-2010 22:52:03 8.6 C 6.79 g/m*3 8.6 C 0 km/h
1435 18-09-2010 23:04:03 8.5 C 6.74 g/m*3 8.5 C 0 km/h
1436 18-09-2010 23:16:03 8.4 C 6.87 g/m*3 8.4 C 0 km/h
1437 18-09-2010 23:28:03 8.2 C 6.78 g/m*3 8.2 C 0 km/h
1438 18-09-2010 23:40:03 8 C 6.7 g/m*3 8 C 0 km/h
1439 18-09-2010 23:52:03 7.9 C 6.74 g/m*3 7.9 C 0 km/h
1440 19-09-2010 00:04:03 7.8 C 6.77 g/m*3 7.8 C 0 km/h
1441 19-09-2010 00:16:03 7.7 C 6.73 g/m*3 7.7 C 0 km/h
1442 19-09-2010 00:28:03 7.6 C 6.77 g/m*3 7.6 C 0 km/h
1443 19-09-2010 00:40:03 7.4 C 6.68 g/m*3 7.4 C 0 km/h
1444 19-09-2010 00:52:03 7.3 C 6.64 g/m*3 7.3 C 0 km/h
1445 19-09-2010 01:04:04 7.1 C 6.47 g/m*3 7.1 C 0 km/h
1446 19-09-2010 01:16:04 7.1 C 6.55 g/m*3 7.1 C 0 km/h
1447 19-09-2010 01:28:04 6.9 C 6.54 g/m*3 6.9 C 0 km/h
1448 19-09-2010 01:40:04 6.8 C 6.58 g/m*3 6.8 C 0 km/h
1449 19-09-2010 01:52:04 6.7 C 6.53 g/m*3 6.7 C 0 km/h
1450 19-09-2010 02:04:04 6.6 C 6.57 g/m*3 6.6 C 0 km/h
Sensor: Nr:Datum:Temp:Abs-Feuchte:Windchill:Wind:
Aussen-T/F 1451 19-09-2010 02:16:04 6.4 C 6.48 g/m*3 6.4 C 0 km/h
1452 19-09-2010 02:28:04 6.4 C 6.48 g/m*3 6.4 C 0 km/h
1453 19-09-2010 02:40:04 6.4 C 6.56 g/m*3 6.4 C 0 km/h
1454 19-09-2010 02:52:04 6.4 C 6.56 g/m*3 6.4 C 0 km/h
1455 19-09-2010 03:04:04 6.4 C 6.56 g/m*3 6.4 C 0 km/h
1456 19-09-2010 03:16:04 6.4 C 6.56 g/m*3 6.4 C 0 km/h
1457 19-09-2010 03:28:04 6.4 C 6.56 g/m*3 6.4 C 0 km/h
1458 19-09-2010 03:40:04 6.5 C 6.6 g/m*3 6.5 C 0 km/h
1459 19-09-2010 03:52:04 6.4 C 6.56 g/m*3 6.4 C 0 km/h
1460 19-09-2010 04:04:04 6.3 C 6.51 g/m*3 6.3 C 0 km/h
1461 19-09-2010 04:16:04 6.1 C 6.43 g/m*3 6.1 C 0 km/h
1462 19-09-2010 04:28:04 5.9 C 6.42 g/m*3 5.9 C 0 km/h
1463 19-09-2010 04:40:04 6.2 C 6.47 g/m*3 6.2 C 0 km/h
1464 19-09-2010 04:52:04 6.5 C 6.67 g/m*3 6.5 C 0 km/h
1465 19-09-2010 05:04:05 6.6 C 6.72 g/m*3 6.6 C 0 km/h
1466 19-09-2010 05:16:05 6.2 C 6.47 g/m*3 6.2 C 0 km/h
1467 19-09-2010 05:28:05 6 C 6.39 g/m*3 6 C 0 km/h
1468 19-09-2010 05:40:05 5.8 C 6.3 g/m*3 5.8 C 0 km/h
1469 19-09-2010 05:52:05 5.6 C 6.22 g/m*3 5.6 C 0 km/h
1470 19-09-2010 06:04:05 5.5 C 6.18 g/m*3 5.5 C 0 km/h
1471 19-09-2010 06:16:05 5.5 C 6.18 g/m*3 5.5 C 0 km/h
1472 19-09-2010 06:28:05 5.7 C 6.33 g/m*3 5.7 C 0 km/h
1473 19-09-2010 06:40:05 6 C 6.46 g/m*3 6 C 0 km/h
1474 19-09-2010 06:52:05 6.1 C 6.5 g/m*3 6.1 C 0 km/h
1475 19-09-2010 07:04:05 6.3 C 6.59 g/m*3 6.3 C 0 km/h
Sensor: Nr:Datum:Temp:Abs-Feuchte:Windchill:Wind:
Aussen-T/F 1476 19-09-2010 07:16:05 6.1 C 6.5 g/m*3 6.1 C 0 km/h
1477 19-09-2010 07:28:05 5.8 C 6.38 g/m*3 5.8 C 0 km/h
1478 19-09-2010 07:40:05 5.9 C 6.42 g/m*3 5.9 C 0 km/h
1479 19-09-2010 07:52:05 5.9 C 6.42 g/m*3 5.9 C 0 km/h
1480 19-09-2010 08:04:05 6.2 C 6.47 g/m*3 6.2 C 0 km/h
1481 19-09-2010 08:16:05 6.7 C 6.76 g/m*3 6.7 C 0 km/h
1482 19-09-2010 08:28:05 7.3 C 6.95 g/m*3 7.3 C 0 km/h
1483 19-09-2010 08:40:05 7.4 C 7 g/m*3 7.4 C 0 km/h
1484 19-09-2010 08:52:02 7.2 C 6.75 g/m*3 7.2 C 0 km/h
1485 19-09-2010 09:04:02 7.2 C 6.67 g/m*3 7.2 C 0 km/h
1486 19-09-2010 09:16:02 7.3 C 6.79 g/m*3 7.3 C 0 km/h
1487 19-09-2010 09:28:02 7.7 C 6.97 g/m*3 7.7 C 0 km/h
1488 19-09-2010 09:40:02 8.8 C 7.31 g/m*3 8.8 C 0 km/h
1489 19-09-2010 09:52:01 9.6 C 7.15 g/m*3 9.6 C 0 km/h
1490 19-09-2010 10:04:01 10.2 C 6.76 g/m*3 10.2 C 0 km/h
1491 19-09-2010 10:16:01 10.9 C 6.86 g/m*3 10.9 C 0 km/h
1492 19-09-2010 10:28:01 10.8 C 6.62 g/m*3 10.8 C 0 km/h
1493 19-09-2010 10:40:01 10.7 C 6.58 g/m*3 10.7 C 0 km/h
1494 19-09-2010 10:52:01 11 C 6.61 g/m*3 11 C 0 km/h
1495 19-09-2010 11:04:01 11.5 C 6.51 g/m*3 11.5 C 0 km/h
1496 19-09-2010 11:16:02 12.2 C 6.58 g/m*3 12.2 C 0 km/h
1497 19-09-2010 11:28:02 13.3 C 6.47 g/m*3 13.3 C 0 km/h
1498 19-09-2010 11:40:01 13.8 C 5.96 g/m*3 13.8 C 0 km/h
1499 19-09-2010 11:52:03 13.8 C 5.72 g/m*3 13.8 C 0 km/h
1500 19-09-2010 12:04:02 13.8 C 5.84 g/m*3 13.8 C 0 km/h
Sensor: Nr:Datum:Temp:Abs-Feuchte:Windchill:Wind:
Aussen-T/F 1501 19-09-2010 12:16:02 14.3 C 5.9 g/m*3 14.3 C 0 km/h
1502 19-09-2010 12:28:02 15.2 C 5.84 g/m*3 15.2 C 0 km/h
1503 19-09-2010 12:40:02 15.7 C 5.35 g/m*3 15.7 C 0 km/h
1504 19-09-2010 12:52:02 15.7 C 5.35 g/m*3 15.7 C 0 km/h
1505 19-09-2010 13:04:01 16.2 C 5.52 g/m*3 16.2 C 0 km/h
1506 19-09-2010 13:16:02 16.4 C 5.58 g/m*3 16.4 C 0 km/h
1507 19-09-2010 13:28:02 16.1 C 5.48 g/m*3 16.1 C 0 km/h
1508 19-09-2010 13:40:02 16 C 5.59 g/m*3 16 C 0 km/h
1509 19-09-2010 13:52:01 15.9 C 5.55 g/m*3 15.9 C 0 km/h
1510 19-09-2010 14:04:02 16.5 C 5.62 g/m*3 16.5 C 0 km/h
1511 19-09-2010 14:16:01 17.5 C 5.67 g/m*3 17.5 C 0 km/h
1512 19-09-2010 14:28:01 17.5 C 5.67 g/m*3 17.5 C 0 km/h
1513 19-09-2010 14:40:01 17.5 C 5.67 g/m*3 17.5 C 0 km/h
1514 19-09-2010 14:52:01 17.9 C 5.8 g/m*3 17.9 C 0 km/h
1515 19-09-2010 15:04:02 17.8 C 5.46 g/m*3 17.8 C 0 km/h
1516 19-09-2010 15:16:01 18.6 C 5.73 g/m*3 18.6 C 0 km/h
1517 19-09-2010 15:28:01 18.4 C 5.66 g/m*3 18.4 C 0 km/h
1518 19-09-2010 15:40:02 19 C 5.38 g/m*3 19 C 0 km/h
1519 19-09-2010 15:52:01 19.3 C 4.98 g/m*3 19.3 C 0 km/h
1520 19-09-2010 16:04:02 18.8 C 5.31 g/m*3 18.8 C 0 km/h
1521 19-09-2010 16:16:01 18.6 C 5.41 g/m*3 18.6 C 0 km/h
1522 19-09-2010 16:28:01 18.8 C 5.31 g/m*3 18.8 C 0 km/h
1523 19-09-2010 16:40:02 19.6 C 5.4 g/m*3 19.6 C 0 km/h
1524 19-09-2010 16:52:01 19.4 C 5.01 g/m*3 19.4 C 0 km/h
1525 19-09-2010 17:04:02 19.8 C 5.3 g/m*3 19.8 C 0 km/h
Sensor: Nr:Datum:Temp:Abs-Feuchte:Windchill:Wind:
Aussen-T/F 1526 19-09-2010 17:16:02 19.1 C 5.25 g/m*3 19.1 C 0 km/h
1527 19-09-2010 17:28:02 18.6 C 5.57 g/m*3 18.6 C 0 km/h
1528 19-09-2010 17:40:01 18.4 C 6.29 g/m*3 18.4 C 0 km/h
1529 19-09-2010 17:52:02 18 C 5.99 g/m*3 18 C 0 km/h
1530 19-09-2010 18:04:01 17.6 C 6 g/m*3 17.6 C 0 km/h
1531 19-09-2010 18:16:02 17.2 C 6.3 g/m*3 17.2 C 0 km/h
1532 19-09-2010 18:28:03 17.1 C 5.82 g/m*3 17.1 C 0 km/h
1533 19-09-2010 18:40:01 17 C 6.08 g/m*3 17 C 0 km/h
1534 19-09-2010 18:52:02 16.5 C 5.76 g/m*3 16.5 C 0 km/h
1535 19-09-2010 19:04:02 16.2 C 5.79 g/m*3 16.2 C 0 km/h
1536 19-09-2010 19:16:02 16 C 5.99 g/m*3 16 C 0 km/h
1537 19-09-2010 19:28:02 15.8 C 5.92 g/m*3 15.8 C 0 km/h
1538 19-09-2010 19:40:03 15.6 C 5.98 g/m*3 15.6 C 0 km/h
1539 19-09-2010 19:52:02 15.3 C 6.14 g/m*3 15.3 C 0 km/h
1540 19-09-2010 20:04:02 14.8 C 6.33 g/m*3 14.8 C 0 km/h
1541 19-09-2010 20:16:02 14.5 C 6.34 g/m*3 14.5 C 0 km/h
1542 19-09-2010 20:28:02 14.3 C 6.27 g/m*3 14.3 C 0 km/h
1543 19-09-2010 20:40:02 14.3 C 6.39 g/m*3 14.3 C 0 km/h
1544 19-09-2010 20:52:02 14.4 C 6.18 g/m*3 14.4 C 0 km/h
1545 19-09-2010 21:04:02 14.4 C 6.43 g/m*3 14.4 C 0 km/h
1546 19-09-2010 21:16:02 14.2 C 6.47 g/m*3 14.2 C 0 km/h
1547 19-09-2010 21:28:02 14 C 6.51 g/m*3 14 C 0 km/h
1548 19-09-2010 21:40:02 13.7 C 6.87 g/m*3 13.7 C 0 km/h
1549 19-09-2010 21:52:03 13.5 C 6.78 g/m*3 13.5 C 0 km/h
1550 19-09-2010 22:04:03 13.4 C 6.74 g/m*3 13.4 C 0 km/h
Sensor: Nr:Datum:Temp:Abs-Feuchte:Windchill:Wind:
Aussen-T/F 1551 19-09-2010 22:17:01 13.3 C 6.7 g/m*3 13.3 C 0 km/h
1552 19-09-2010 22:29:01 13.4 C 6.86 g/m*3 13.4 C 0 km/h
1553 19-09-2010 22:41:01 13.3 C 6.82 g/m*3 13.3 C 0 km/h
1554 19-09-2010 22:53:01 13.2 C 6.77 g/m*3 13.2 C 0 km/h
1555 19-09-2010 23:05:01 13 C 6.8 g/m*3 13 C 0 km/h
1556 19-09-2010 23:17:01 12.5 C 6.82 g/m*3 12.5 C 0 km/h
1557 19-09-2010 23:29:01 12.2 C 6.8 g/m*3 12.2 C 0 km/h
1558 19-09-2010 23:41:01 11.9 C 6.67 g/m*3 11.9 C 0 km/h
1559 19-09-2010 23:53:01 11.8 C 6.74 g/m*3 11.8 C 0 km/h
1560 20-09-2010 00:05:01 11.9 C 6.88 g/m*3 11.9 C 0 km/h
1561 20-09-2010 00:17:01 11.9 C 6.99 g/m*3 11.9 C 0 km/h
1562 20-09-2010 00:29:02 11.9 C 6.88 g/m*3 11.9 C 0 km/h
1563 20-09-2010 00:41:02 11.4 C 6.77 g/m*3 11.4 C 0 km/h
1564 20-09-2010 00:53:02 11.3 C 6.83 g/m*3 11.3 C 0 km/h
1565 20-09-2010 01:05:02 10.8 C 6.72 g/m*3 10.8 C 0 km/h
1566 20-09-2010 01:17:02 10.5 C 6.69 g/m*3 10.5 C 0 km/h
1567 20-09-2010 01:29:02 10.4 C 6.75 g/m*3 10.4 C 0 km/h
1568 20-09-2010 01:41:02 10.2 C 6.85 g/m*3 10.2 C 0 km/h
1569 20-09-2010 01:53:02 10.3 C 6.9 g/m*3 10.3 C 0 km/h
1570 20-09-2010 02:05:02 10.1 C 6.81 g/m*3 10.1 C 0 km/h
1571 20-09-2010 02:17:02 10 C 6.77 g/m*3 10 C 0 km/h
1572 20-09-2010 02:29:02 9.8 C 6.96 g/m*3 9.8 C 0 km/h
1573 20-09-2010 02:41:02 9.6 C 6.87 g/m*3 9.6 C 0 km/h
1574 20-09-2010 02:53:02 9.7 C 7.01 g/m*3 9.7 C 0 km/h
1575 20-09-2010 03:05:02 9.8 C 6.96 g/m*3 9.8 C 0 km/h
Sensor: Nr:Datum:Temp:Abs-Feuchte:Windchill:Wind:
Aussen-T/F 1576 20-09-2010 03:17:02 9.6 C 6.96 g/m*3 9.6 C 0 km/h
1577 20-09-2010 03:29:02 9.7 C 7.1 g/m*3 9.7 C 0 km/h
1578 20-09-2010 03:41:02 9.7 C 7.1 g/m*3 9.7 C 0 km/h
1579 20-09-2010 03:53:02 9.4 C 6.96 g/m*3 9.4 C 0 km/h
1580 20-09-2010 04:05:02 9.3 C 6.92 g/m*3 9.3 C 0 km/h
1581 20-09-2010 04:17:02 9.2 C 6.88 g/m*3 9.2 C 0 km/h
1582 20-09-2010 04:29:02 9 C 6.88 g/m*3 9 C 0 km/h
1583 20-09-2010 04:41:03 8.8 C 6.88 g/m*3 8.8 C 0 km/h
1584 20-09-2010 04:53:03 8.6 C 6.87 g/m*3 8.6 C 0 km/h
1585 20-09-2010 05:05:03 8.4 C 6.87 g/m*3 8.4 C 0 km/h
1586 20-09-2010 05:17:03 8.4 C 6.87 g/m*3 8.4 C 0 km/h
1587 20-09-2010 05:29:03 8.3 C 6.91 g/m*3 8.3 C 0 km/h
1588 20-09-2010 05:41:03 8.2 C 6.87 g/m*3 8.2 C 0 km/h
1589 20-09-2010 05:53:03 8.3 C 6.91 g/m*3 8.3 C 0 km/h
1590 20-09-2010 06:05:03 8.3 C 6.91 g/m*3 8.3 C 0 km/h
1591 20-09-2010 06:17:03 8.4 C 7.04 g/m*3 8.4 C 0 km/h
1592 20-09-2010 06:29:03 8.5 C 7 g/m*3 8.5 C 0 km/h
1593 20-09-2010 06:41:03 8.5 C 7 g/m*3 8.5 C 0 km/h
1594 20-09-2010 06:53:03 8.7 C 7.18 g/m*3 8.7 C 0 km/h
1595 20-09-2010 07:05:01 8.6 C 7.13 g/m*3 8.6 C 0 km/h
1596 20-09-2010 07:17:02 8.4 C 7.04 g/m*3 8.4 C 0 km/h
1597 20-09-2010 07:29:02 8.5 C 7.09 g/m*3 8.5 C 0 km/h
1598 20-09-2010 07:41:01 8.5 C 7.09 g/m*3 8.5 C 0 km/h
1599 20-09-2010 07:53:02 8.6 C 7.13 g/m*3 8.6 C 0 km/h
1600 20-09-2010 08:05:02 9 C 7.14 g/m*3 9 C 0 km/h
Sensor: Nr:Datum:Temp:Abs-Feuchte:Windchill:Wind:
Aussen-T/F 1601 20-09-2010 08:17:02 9.2 C 6.97 g/m*3 9.2 C 0 km/h
1602 20-09-2010 08:29:02 9.2 C 6.79 g/m*3 9.2 C 0 km/h
1603 20-09-2010 08:41:02 9.3 C 6.74 g/m*3 9.3 C 0 km/h
1604 20-09-2010 08:53:01 9.2 C 6.7 g/m*3 9.2 C 0 km/h
1605 20-09-2010 09:05:02 9.3 C 6.83 g/m*3 9.3 C 0 km/h
1606 20-09-2010 09:17:01 9.6 C 6.87 g/m*3 9.6 C 0 km/h
1607 20-09-2010 09:29:01 9.7 C 6.82 g/m*3 9.7 C 0 km/h
1608 20-09-2010 09:41:01 10 C 6.95 g/m*3 10 C 0 km/h
1609 20-09-2010 09:53:01 10.6 C 7.12 g/m*3 10.6 C 0 km/h
1610 20-09-2010 10:05:02 11.4 C 7.29 g/m*3 11.4 C 0 km/h
1611 20-09-2010 10:17:02 12.1 C 7.18 g/m*3 12.1 C 0 km/h
1612 20-09-2010 10:29:02 12.4 C 7.1 g/m*3 12.4 C 0 km/h
1613 20-09-2010 10:41:01 12.9 C 7.33 g/m*3 12.9 C 0 km/h
1614 20-09-2010 10:53:01 13.2 C 7.12 g/m*3 13.2 C 0 km/h
1615 20-09-2010 11:05:01 13.3 C 7.39 g/m*3 13.3 C 0 km/h
1616 20-09-2010 11:17:02 13.8 C 7.15 g/m*3 13.8 C 0 km/h
1617 20-09-2010 11:29:02 14.8 C 6.84 g/m*3 14.8 C 0 km/h
1618 20-09-2010 11:41:01 15.3 C 6.66 g/m*3 15.3 C 0 km/h
1619 20-09-2010 11:53:02 15.9 C 6.77 g/m*3 15.9 C 0 km/h
1620 20-09-2010 12:05:02 16.1 C 6.31 g/m*3 16.1 C 0 km/h
1621 20-09-2010 12:17:02 15.9 C 6.5 g/m*3 15.9 C 0 km/h
1622 20-09-2010 12:29:03 16.1 C 6.31 g/m*3 16.1 C 0 km/h
1623 20-09-2010 12:41:02 16.4 C 6.42 g/m*3 16.4 C 0 km/h
1624 20-09-2010 12:53:02 16.8 C 6.15 g/m*3 16.8 C 0 km/h
1625 20-09-2010 13:05:01 17.1 C 6.11 g/m*3 17.1 C 0 km/h
Sensor: Nr:Datum:Temp:Abs-Feuchte:Windchill:Wind:
Aussen-T/F 1626 20-09-2010 13:17:02 17.5 C 6.26 g/m*3 17.5 C 0 km/h
1627 20-09-2010 13:29:02 18.1 C 6.33 g/m*3 18.1 C 0 km/h
1628 20-09-2010 13:41:02 18.5 C 6.01 g/m*3 18.5 C 0 km/h
1629 20-09-2010 13:53:02 18.9 C 5.83 g/m*3 18.9 C 0 km/h
1630 20-09-2010 14:05:03 19.5 C 6.04 g/m*3 19.5 C 0 km/h
1631 20-09-2010 14:17:02 19.7 C 5.94 g/m*3 19.7 C 0 km/h
1632 20-09-2010 14:29:02 20.1 C 5.91 g/m*3 20.1 C 0 km/h
1633 20-09-2010 14:41:02 20.5 C 5.69 g/m*3 20.5 C 0 km/h
1634 20-09-2010 14:53:01 20.3 C 5.45 g/m*3 20.3 C 0 km/h
1635 20-09-2010 15:05:02 20.8 C 5.79 g/m*3 20.8 C 0 km/h
1636 20-09-2010 15:17:01 21.4 C 5.81 g/m*3 21.4 C 0 km/h
1637 20-09-2010 15:29:01 21.5 C 5.85 g/m*3 21.5 C 0 km/h
1638 20-09-2010 15:41:01 21.6 C 5.88 g/m*3 21.6 C 0 km/h
1639 20-09-2010 15:53:01 21.8 C 5.95 g/m*3 21.8 C 0 km/h
1640 20-09-2010 16:05:01 22.2 C 6.48 g/m*3 22.2 C 0 km/h
1641 20-09-2010 16:17:02 22.6 C 6.23 g/m*3 22.6 C 0 km/h
1642 20-09-2010 16:29:02 22.8 C 6.1 g/m*3 22.8 C 0 km/h
1643 20-09-2010 16:41:01 22.6 C 6.23 g/m*3 22.6 C 0 km/h
1644 20-09-2010 16:53:01 22.1 C 6.05 g/m*3 22.1 C 0 km/h
1645 20-09-2010 17:05:01 22.2 C 6.28 g/m*3 22.2 C 0 km/h
1646 20-09-2010 17:17:02 22.1 C 5.86 g/m*3 22.1 C 0 km/h
1647 20-09-2010 17:29:02 22.3 C 6.32 g/m*3 22.3 C 0 km/h
1648 20-09-2010 17:41:01 22.1 C 5.86 g/m*3 22.1 C 0 km/h
1649 20-09-2010 17:53:02 22.7 C 6.26 g/m*3 22.7 C 0 km/h
1650 20-09-2010 18:05:02 22.7 C 6.47 g/m*3 22.7 C 0 km/h
Sensor: Nr:Datum:Temp:Abs-Feuchte:Windchill:Wind:
Aussen-T/F 1651 20-09-2010 18:17:02 22.2 C 6.28 g/m*3 22.2 C 0 km/h
1652 20-09-2010 18:29:02 21.6 C 6.64 g/m*3 21.6 C 0 km/h
1653 20-09-2010 18:41:02 20.6 C 6.8 g/m*3 20.6 C 0 km/h
1654 20-09-2010 18:53:02 19.4 C 7.01 g/m*3 19.4 C 0 km/h
1655 20-09-2010 19:05:01 18.9 C 6.97 g/m*3 18.9 C 0 km/h
1656 20-09-2010 19:17:01 18.1 C 7.11 g/m*3 18.1 C 0 km/h
1657 20-09-2010 19:29:01 17.5 C 7.31 g/m*3 17.5 C 0 km/h
1658 20-09-2010 19:41:02 16.8 C 7.29 g/m*3 16.8 C 0 km/h
1659 20-09-2010 19:53:02 16.2 C 7.17 g/m*3 16.2 C 0 km/h
1660 20-09-2010 20:05:02 15.9 C 7.31 g/m*3 15.9 C 0 km/h
1661 20-09-2010 20:17:02 15.6 C 7.45 g/m*3 15.6 C 0 km/h
1662 20-09-2010 20:29:02 15.3 C 7.57 g/m*3 15.3 C 0 km/h
1663 20-09-2010 20:41:02 15.1 C 7.74 g/m*3 15.1 C 0 km/h
1664 20-09-2010 20:53:02 14.8 C 7.6 g/m*3 14.8 C 0 km/h
1665 20-09-2010 21:05:02 14.7 C 7.68 g/m*3 14.7 C 0 km/h
1666 20-09-2010 21:17:02 14.4 C 7.66 g/m*3 14.4 C 0 km/h
1667 20-09-2010 21:29:02 14.2 C 7.69 g/m*3 14.2 C 0 km/h
1668 20-09-2010 21:41:02 14 C 7.72 g/m*3 14 C 0 km/h
1669 20-09-2010 21:53:02 13.7 C 7.82 g/m*3 13.7 C 0 km/h
1670 20-09-2010 22:06:02 13.6 C 8 g/m*3 13.6 C 0 km/h
1671 20-09-2010 22:18:02 13.5 C 7.95 g/m*3 13.5 C 0 km/h
1672 20-09-2010 22:30:02 13.5 C 8.07 g/m*3 13.5 C 0 km/h
1673 20-09-2010 22:42:02 12.9 C 8.11 g/m*3 12.9 C 0 km/h
1674 20-09-2010 22:54:02 12.6 C 8.19 g/m*3 12.6 C 0 km/h
1675 20-09-2010 23:06:02 12.6 C 8.19 g/m*3 12.6 C 0 km/h
Sensor: Nr:Datum:Temp:Abs-Feuchte:Windchill:Wind:
Aussen-T/F 1676 20-09-2010 23:18:02 12.5 C 8.14 g/m*3 12.5 C 0 km/h
1677 20-09-2010 23:30:02 12.3 C 8.04 g/m*3 12.3 C 0 km/h
1678 20-09-2010 23:42:02 12.1 C 7.94 g/m*3 12.1 C 0 km/h
1679 20-09-2010 23:54:02 11.9 C 7.94 g/m*3 11.9 C 0 km/h
1680 21-09-2010 00:06:03 11.8 C 7.89 g/m*3 11.8 C 0 km/h
1681 21-09-2010 00:18:03 11.6 C 7.9 g/m*3 11.6 C 0 km/h
1682 21-09-2010 00:30:03 11.5 C 7.85 g/m*3 11.5 C 0 km/h
1683 21-09-2010 00:42:03 11.4 C 7.9 g/m*3 11.4 C 0 km/h
1684 21-09-2010 00:54:03 11.3 C 7.85 g/m*3 11.3 C 0 km/h
1685 21-09-2010 01:06:03 11.2 C 7.8 g/m*3 11.2 C 0 km/h
1686 21-09-2010 01:18:03 11.1 C 7.86 g/m*3 11.1 C 0 km/h
1687 21-09-2010 01:30:03 10.9 C 7.86 g/m*3 10.9 C 0 km/h
1688 21-09-2010 01:42:03 10.8 C 7.81 g/m*3 10.8 C 0 km/h
1689 21-09-2010 01:54:03 10.5 C 7.66 g/m*3 10.5 C 0 km/h
1690 21-09-2010 02:06:03 10.4 C 7.71 g/m*3 10.4 C 0 km/h
1691 21-09-2010 02:18:03 10.4 C 7.71 g/m*3 10.4 C 0 km/h
1692 21-09-2010 02:30:03 10.3 C 7.76 g/m*3 10.3 C 0 km/h
1693 21-09-2010 02:42:03 10.1 C 7.66 g/m*3 10.1 C 0 km/h
1694 21-09-2010 02:54:03 10 C 7.61 g/m*3 10 C 0 km/h
1695 21-09-2010 03:06:03 10 C 7.71 g/m*3 10 C 0 km/h
1696 21-09-2010 03:18:03 9.9 C 7.75 g/m*3 9.9 C 0 km/h
1697 21-09-2010 03:30:03 9.8 C 7.79 g/m*3 9.8 C 0 km/h
1698 21-09-2010 03:42:03 9.5 C 7.65 g/m*3 9.5 C 0 km/h
1699 21-09-2010 03:54:03 9.5 C 7.65 g/m*3 9.5 C 0 km/h
1700 21-09-2010 04:06:04 9.4 C 7.6 g/m*3 9.4 C 0 km/h
Sensor: Nr:Datum:Temp:Abs-Feuchte:Windchill:Wind:
Aussen-T/F 1701 21-09-2010 04:18:04 9.3 C 7.55 g/m*3 9.3 C 0 km/h
1702 21-09-2010 04:30:04 9.2 C 7.5 g/m*3 9.2 C 0 km/h
1703 21-09-2010 04:42:04 9.2 C 7.5 g/m*3 9.2 C 0 km/h
1704 21-09-2010 04:54:04 9 C 7.41 g/m*3 9 C 0 km/h
1705 21-09-2010 05:06:04 9 C 7.49 g/m*3 9 C 0 km/h
1706 21-09-2010 05:18:04 8.8 C 7.49 g/m*3 8.8 C 0 km/h
1707 21-09-2010 05:30:04 8.8 C 7.49 g/m*3 8.8 C 0 km/h
1708 21-09-2010 05:42:04 8.7 C 7.44 g/m*3 8.7 C 0 km/h
1709 21-09-2010 05:54:04 8.6 C 7.39 g/m*3 8.6 C 0 km/h
1710 21-09-2010 06:06:04 8.5 C 7.43 g/m*3 8.5 C 0 km/h
1711 21-09-2010 06:18:04 8.4 C 7.38 g/m*3 8.4 C 0 km/h
1712 21-09-2010 06:30:04 8.3 C 7.33 g/m*3 8.3 C 0 km/h
1713 21-09-2010 06:42:04 8.2 C 7.29 g/m*3 8.2 C 0 km/h
1714 21-09-2010 06:54:04 8.3 C 7.42 g/m*3 8.3 C 0 km/h
1715 21-09-2010 07:06:02 8.2 C 7.37 g/m*3 8.2 C 0 km/h
1716 21-09-2010 07:18:02 8.2 C 7.37 g/m*3 8.2 C 0 km/h
1717 21-09-2010 07:30:02 8.1 C 7.32 g/m*3 8.1 C 0 km/h
1718 21-09-2010 07:42:03 8.1 C 7.32 g/m*3 8.1 C 0 km/h
1719 21-09-2010 07:54:02 8.1 C 7.32 g/m*3 8.1 C 0 km/h
1720 21-09-2010 08:06:01 8 C 7.36 g/m*3 8 C 0 km/h
1721 21-09-2010 08:18:02 8.1 C 7.41 g/m*3 8.1 C 0 km/h
1722 21-09-2010 08:30:02 8.2 C 7.54 g/m*3 8.2 C 0 km/h
1723 21-09-2010 08:42:02 8.4 C 7.63 g/m*3 8.4 C 0 km/h
1724 21-09-2010 08:54:02 8.6 C 7.73 g/m*3 8.6 C 0 km/h
1725 21-09-2010 09:06:02 8.7 C 7.78 g/m*3 8.7 C 0 km/h
Sensor: Nr:Datum:Temp:Abs-Feuchte:Windchill:Wind:
Aussen-T/F 1726 21-09-2010 09:18:02 8.9 C 7.88 g/m*3 8.9 C 0 km/h
1727 21-09-2010 09:30:02 9.3 C 8 g/m*3 9.3 C 0 km/h
1728 21-09-2010 09:42:02 9.5 C 8.1 g/m*3 9.5 C 0 km/h
1729 21-09-2010 09:54:01 9.5 C 8.1 g/m*3 9.5 C 0 km/h
1730 21-09-2010 10:06:02 9.9 C 8.31 g/m*3 9.9 C 0 km/h
1731 21-09-2010 10:18:01 10.5 C 8.53 g/m*3 10.5 C 0 km/h
1732 21-09-2010 10:30:01 11.1 C 8.76 g/m*3 11.1 C 0 km/h
1733 21-09-2010 10:42:01 11.7 C 8.99 g/m*3 11.7 C 0 km/h
1734 21-09-2010 10:54:01 12.4 C 8.96 g/m*3 12.4 C 0 km/h
1735 21-09-2010 11:06:01 13 C 8.51 g/m*3 13 C 0 km/h
1736 21-09-2010 11:18:02 13.6 C 8.59 g/m*3 13.6 C 0 km/h
1737 21-09-2010 11:30:02 14 C 8.56 g/m*3 14 C 0 km/h
1738 21-09-2010 11:42:01 14.7 C 8.81 g/m*3 14.7 C 0 km/h
1739 21-09-2010 11:54:03 15.3 C 8.75 g/m*3 15.3 C 0 km/h
1740 21-09-2010 12:06:02 15.8 C 8.75 g/m*3 15.8 C 0 km/h
1741 21-09-2010 12:18:02 16.5 C 8.85 g/m*3 16.5 C 0 km/h
1742 21-09-2010 12:30:03 16.5 C 9.13 g/m*3 16.5 C 0 km/h
1743 21-09-2010 12:42:02 16 C 8.86 g/m*3 16 C 0 km/h
1744 21-09-2010 12:54:02 15.9 C 9.34 g/m*3 15.9 C 0 km/h
1745 21-09-2010 13:06:02 16.4 C 9.77 g/m*3 16.4 C 0 km/h
1746 21-09-2010 13:18:02 16.6 C 9.46 g/m*3 16.6 C 0 km/h
1747 21-09-2010 13:30:02 16.8 C 9.72 g/m*3 16.8 C 0 km/h
1748 21-09-2010 13:42:02 17.3 C 9.87 g/m*3 17.3 C 0 km/h
1749 21-09-2010 13:54:02 18 C 9.37 g/m*3 18 C 0 km/h
1750 21-09-2010 14:06:02 17.5 C 9.54 g/m*3 17.5 C 0 km/h
Sensor: Nr:Datum:Temp:Abs-Feuchte:Windchill:Wind:
Aussen-T/F 1751 21-09-2010 14:18:01 17.4 C 9.63 g/m*3 17.4 C 0 km/h
1752 21-09-2010 14:30:01 17.2 C 9.52 g/m*3 17.2 C 0 km/h
1753 21-09-2010 14:42:02 17.5 C 9.54 g/m*3 17.5 C 0 km/h
1754 21-09-2010 14:54:02 19.5 C 9.06 g/m*3 19.5 C 0 km/h
1755 21-09-2010 15:06:02 21.3 C 8.76 g/m*3 21.3 C 0 km/h
1756 21-09-2010 15:18:02 22.6 C 8.44 g/m*3 22.6 C 0 km/h
1757 21-09-2010 15:30:02 23.3 C 7.95 g/m*3 23.3 C 0 km/h
1758 21-09-2010 15:42:02 23.9 C 7.79 g/m*3 23.9 C 0 km/h
1759 21-09-2010 15:54:02 24.5 C 7.83 g/m*3 24.5 C 0 km/h
1760 21-09-2010 16:06:02 25 C 7.6 g/m*3 25 C 0 km/h
1761 21-09-2010 16:18:02 25.2 C 7.45 g/m*3 25.2 C 0 km/h
1762 21-09-2010 16:30:02 25.2 C 7.68 g/m*3 25.2 C 0 km/h
1763 21-09-2010 16:42:02 25.1 C 7.87 g/m*3 25.1 C 0 km/h
1764 21-09-2010 16:54:02 25.3 C 7.49 g/m*3 25.3 C 0 km/h
1765 21-09-2010 17:06:02 25.4 C 7.53 g/m*3 25.4 C 0 km/h
1766 21-09-2010 17:18:02 25.5 C 7.81 g/m*3 25.5 C 0 km/h
1767 21-09-2010 17:30:02 24.5 C 7.39 g/m*3 24.5 C 0 km/h
1768 21-09-2010 17:42:02 24.1 C 7.44 g/m*3 24.1 C 0 km/h
1769 21-09-2010 17:54:02 23.5 C 7.61 g/m*3 23.5 C 0 km/h
1770 21-09-2010 18:06:02 23.2 C 7.69 g/m*3 23.2 C 0 km/h
1771 21-09-2010 18:18:02 22.7 C 7.88 g/m*3 22.7 C 0 km/h
1772 21-09-2010 18:30:02 22.2 C 7.85 g/m*3 22.2 C 0 km/h
1773 21-09-2010 18:42:02 21.7 C 8.01 g/m*3 21.7 C 0 km/h
1774 21-09-2010 18:54:02 21.1 C 7.92 g/m*3 21.1 C 0 km/h
1775 21-09-2010 19:06:01 20.2 C 8.04 g/m*3 20.2 C 0 km/h
Sensor: Nr:Datum:Temp:Abs-Feuchte:Windchill:Wind:
Aussen-T/F 1776 21-09-2010 19:18:02 19.5 C 8.22 g/m*3 19.5 C 0 km/h
1777 21-09-2010 19:30:02 18.5 C 8.39 g/m*3 18.5 C 0 km/h
1778 21-09-2010 19:42:02 17.8 C 8.5 g/m*3 17.8 C 0 km/h
1779 21-09-2010 19:54:02 17.2 C 8.49 g/m*3 17.2 C 0 km/h
1780 21-09-2010 20:06:03 16.8 C 8.58 g/m*3 16.8 C 0 km/h
1781 21-09-2010 20:18:02 16.5 C 8.43 g/m*3 16.5 C 0 km/h
1782 21-09-2010 20:30:02 16.3 C 8.46 g/m*3 16.3 C 0 km/h
1783 21-09-2010 20:42:02 16.1 C 8.5 g/m*3 16.1 C 0 km/h
1784 21-09-2010 20:54:02 15.8 C 8.62 g/m*3 15.8 C 0 km/h
1785 21-09-2010 21:06:02 15.6 C 8.51 g/m*3 15.6 C 0 km/h
1786 21-09-2010 21:18:01 15.4 C 8.41 g/m*3 15.4 C 0 km/h
1787 21-09-2010 21:30:01 15.1 C 8.51 g/m*3 15.1 C 0 km/h
1788 21-09-2010 21:42:02 14.7 C 8.56 g/m*3 14.7 C 0 km/h
1789 21-09-2010 21:54:02 14.5 C 8.46 g/m*3 14.5 C 0 km/h
1790 21-09-2010 22:06:02 14.4 C 8.53 g/m*3 14.4 C 0 km/h
1791 21-09-2010 22:18:01 14.1 C 8.5 g/m*3 14.1 C 0 km/h
1792 21-09-2010 22:30:01 13.9 C 8.51 g/m*3 13.9 C 0 km/h
1793 21-09-2010 22:42:01 13.6 C 8.47 g/m*3 13.6 C 0 km/h
1794 21-09-2010 22:54:01 13.5 C 8.54 g/m*3 13.5 C 0 km/h
1795 21-09-2010 23:06:01 13.2 C 8.38 g/m*3 13.2 C 0 km/h
1796 21-09-2010 23:18:01 13.1 C 8.44 g/m*3 13.1 C 0 km/h
1797 21-09-2010 23:30:01 13 C 8.51 g/m*3 13 C 0 km/h
1798 21-09-2010 23:42:01 12.9 C 8.68 g/m*3 12.9 C 0 km/h
1799 21-09-2010 23:54:01 12.7 C 8.68 g/m*3 12.7 C 0 km/h
1800 22-09-2010 00:06:01 12.5 C 8.69 g/m*3 12.5 C 0 km/h
Sensor: Nr:Datum:Temp:Abs-Feuchte:Windchill:Wind:
Aussen-T/F 1801 22-09-2010 00:18:01 12.3 C 8.58 g/m*3 12.3 C 0 km/h
1802 22-09-2010 00:30:01 12.2 C 8.52 g/m*3 12.2 C 0 km/h
1803 22-09-2010 00:42:01 12.1 C 8.47 g/m*3 12.1 C 0 km/h
1804 22-09-2010 00:54:01 11.9 C 8.47 g/m*3 11.9 C 0 km/h
1805 22-09-2010 01:06:02 11.8 C 8.53 g/m*3 11.8 C 0 km/h
1806 22-09-2010 01:18:02 11.6 C 8.42 g/m*3 11.6 C 0 km/h
1807 22-09-2010 01:30:02 11.5 C 8.47 g/m*3 11.5 C 0 km/h
1808 22-09-2010 01:42:02 11.3 C 8.26 g/m*3 11.3 C 0 km/h
1809 22-09-2010 01:54:02 11.3 C 8.36 g/m*3 11.3 C 0 km/h
1810 22-09-2010 02:06:02 11 C 8.21 g/m*3 11 C 0 km/h
1811 22-09-2010 02:18:02 10.9 C 8.16 g/m*3 10.9 C 0 km/h
1812 22-09-2010 02:30:02 10.8 C 8.2 g/m*3 10.8 C 0 km/h
1813 22-09-2010 02:42:02 10.7 C 8.15 g/m*3 10.7 C 0 km/h
1814 22-09-2010 02:54:02 10.5 C 8.05 g/m*3 10.5 C 0 km/h
1815 22-09-2010 03:06:02 10.4 C 8 g/m*3 10.4 C 0 km/h
1816 22-09-2010 03:18:02 10.4 C 8 g/m*3 10.4 C 0 km/h
1817 22-09-2010 03:30:02 10.3 C 8.04 g/m*3 10.3 C 0 km/h
1818 22-09-2010 03:42:02 10.1 C 7.94 g/m*3 10.1 C 0 km/h
1819 22-09-2010 03:54:02 9.9 C 8.03 g/m*3 9.9 C 0 km/h
1820 22-09-2010 04:06:02 9.9 C 8.03 g/m*3 9.9 C 0 km/h
1821 22-09-2010 04:18:02 9.7 C 7.93 g/m*3 9.7 C 0 km/h
1822 22-09-2010 04:30:02 9.6 C 7.79 g/m*3 9.6 C 0 km/h
1823 22-09-2010 04:42:02 9.6 C 7.88 g/m*3 9.6 C 0 km/h
1824 22-09-2010 04:54:02 9.8 C 8.07 g/m*3 9.8 C 0 km/h
1825 22-09-2010 05:06:02 9.8 C 8.07 g/m*3 9.8 C 0 km/h
Sensor: Nr:Datum:Temp:Abs-Feuchte:Windchill:Wind:
Aussen-T/F 1826 22-09-2010 05:18:02 9.9 C 8.22 g/m*3 9.9 C 0 km/h
1827 22-09-2010 05:30:03 9.9 C 8.22 g/m*3 9.9 C 0 km/h
1828 22-09-2010 05:42:03 9.9 C 8.22 g/m*3 9.9 C 0 km/h
1829 22-09-2010 05:54:03 9.7 C 8.02 g/m*3 9.7 C 0 km/h
1830 22-09-2010 06:06:03 9.8 C 8.16 g/m*3 9.8 C 0 km/h
1831 22-09-2010 06:18:03 9.8 C 8.16 g/m*3 9.8 C 0 km/h
1832 22-09-2010 06:30:03 9.8 C 8.16 g/m*3 9.8 C 0 km/h
1833 22-09-2010 06:42:03 9.7 C 8.11 g/m*3 9.7 C 0 km/h
1834 22-09-2010 06:54:03 9.8 C 8.16 g/m*3 9.8 C 0 km/h
1835 22-09-2010 07:06:01 9.8 C 8.16 g/m*3 9.8 C 0 km/h
1836 22-09-2010 07:18:02 9.8 C 8.16 g/m*3 9.8 C 0 km/h
1837 22-09-2010 07:30:02 9.6 C 8.06 g/m*3 9.6 C 0 km/h
1838 22-09-2010 07:42:01 9.3 C 7.91 g/m*3 9.3 C 0 km/h
1839 22-09-2010 07:54:01 9.3 C 7.91 g/m*3 9.3 C 0 km/h
1840 22-09-2010 08:06:01 9.3 C 7.91 g/m*3 9.3 C 0 km/h
1841 22-09-2010 08:18:02 9.3 C 7.91 g/m*3 9.3 C 0 km/h
1842 22-09-2010 08:30:02 9.6 C 8.15 g/m*3 9.6 C 0 km/h
1843 22-09-2010 08:42:01 9.3 C 7.91 g/m*3 9.3 C 0 km/h
1844 22-09-2010 08:54:02 9.3 C 7.91 g/m*3 9.3 C 0 km/h
1845 22-09-2010 09:06:01 9.6 C 8.06 g/m*3 9.6 C 0 km/h
1846 22-09-2010 09:18:02 9.8 C 8.16 g/m*3 9.8 C 0 km/h
1847 22-09-2010 09:30:02 10.2 C 8.09 g/m*3 10.2 C 0 km/h
1848 22-09-2010 09:42:01 10.3 C 8.04 g/m*3 10.3 C 0 km/h
1849 22-09-2010 09:54:02 11 C 8.41 g/m*3 11 C 0 km/h
1850 22-09-2010 10:06:01 11.8 C 8.63 g/m*3 11.8 C 0 km/h
Sensor: Nr:Datum:Temp:Abs-Feuchte:Windchill:Wind:
Aussen-T/F 1851 22-09-2010 10:18:01 12.4 C 8.74 g/m*3 12.4 C 0 km/h
1852 22-09-2010 10:30:01 12 C 8.31 g/m*3 12 C 0 km/h
1853 22-09-2010 10:42:02 12.7 C 8.79 g/m*3 12.7 C 0 km/h
1854 22-09-2010 10:54:01 13.2 C 8.73 g/m*3 13.2 C 0 km/h
1855 22-09-2010 11:06:02 12.9 C 8.68 g/m*3 12.9 C 0 km/h
1856 22-09-2010 11:18:01 13.1 C 8.9 g/m*3 13.1 C 0 km/h
1857 22-09-2010 11:30:01 13.6 C 9.3 g/m*3 13.6 C 0 km/h
1858 22-09-2010 11:42:02 14.2 C 9.52 g/m*3 14.2 C 0 km/h
1859 22-09-2010 11:54:01 15.1 C 9.55 g/m*3 15.1 C 0 km/h
1860 22-09-2010 12:06:02 15.6 C 9.71 g/m*3 15.6 C 0 km/h
1861 22-09-2010 12:18:01 16 C 9.67 g/m*3 16 C 0 km/h
1862 22-09-2010 12:30:01 16.5 C 9.97 g/m*3 16.5 C 0 km/h
1863 22-09-2010 12:42:01 17.1 C 10.19 g/m*3 17.1 C 0 km/h
1864 22-09-2010 12:54:01 17.5 C 10.29 g/m*3 17.5 C 0 km/h
1865 22-09-2010 13:06:01 18.4 C 9.91 g/m*3 18.4 C 0 km/h
1866 22-09-2010 13:18:02 19.1 C 9.84 g/m*3 19.1 C 0 km/h
1867 22-09-2010 13:30:02 19.7 C 10.19 g/m*3 19.7 C 0 km/h
1868 22-09-2010 13:42:01 20.4 C 10.26 g/m*3 20.4 C 0 km/h
1869 22-09-2010 13:54:01 21.2 C 10.19 g/m*3 21.2 C 0 km/h
1870 22-09-2010 14:06:01 21.8 C 10.36 g/m*3 21.8 C 0 km/h
1871 22-09-2010 14:18:02 22.2 C 10.01 g/m*3 22.2 C 0 km/h
1872 22-09-2010 14:30:02 22.9 C 10.22 g/m*3 22.9 C 0 km/h
1873 22-09-2010 14:42:01 23.4 C 9.88 g/m*3 23.4 C 0 km/h
1874 22-09-2010 14:54:02 24 C 9.79 g/m*3 24 C 0 km/h
1875 22-09-2010 15:06:01 24.2 C 9.9 g/m*3 24.2 C 0 km/h
Sensor: Nr:Datum:Temp:Abs-Feuchte:Windchill:Wind:
Aussen-T/F 1876 22-09-2010 15:18:01 24.1 C 9.63 g/m*3 24.1 C 0 km/h
1877 22-09-2010 15:30:01 24.9 C 9.61 g/m*3 24.9 C 0 km/h
1878 22-09-2010 15:42:01 25.6 C 8.81 g/m*3 25.6 C 0 km/h
1879 22-09-2010 15:54:01 26.5 C 8.26 g/m*3 26.5 C 0 km/h
1880 22-09-2010 16:06:01 26.9 C 8.7 g/m*3 26.9 C 0 km/h
1881 22-09-2010 16:18:01 27.1 C 8.8 g/m*3 27.1 C 0 km/h
1882 22-09-2010 16:30:01 27.4 C 8.68 g/m*3 27.4 C 0 km/h
1883 22-09-2010 16:42:02 27.6 C 8.51 g/m*3 27.6 C 0 km/h
1884 22-09-2010 16:54:01 27.6 C 8.25 g/m*3 27.6 C 0 km/h
1885 22-09-2010 17:06:02 27.3 C 7.85 g/m*3 27.3 C 0 km/h
1886 22-09-2010 17:18:01 27.4 C 8.16 g/m*3 27.4 C 0 km/h
1887 22-09-2010 17:30:01 27.2 C 8.07 g/m*3 27.2 C 0 km/h
1888 22-09-2010 17:42:01 26.9 C 7.93 g/m*3 26.9 C 0 km/h
1889 22-09-2010 17:54:01 26.5 C 8.76 g/m*3 26.5 C 0 km/h
1890 22-09-2010 18:06:02 26.1 C 8.81 g/m*3 26.1 C 0 km/h
1891 22-09-2010 18:18:01 25.6 C 9.05 g/m*3 25.6 C 0 km/h
1892 22-09-2010 18:30:01 25.3 C 9.36 g/m*3 25.3 C 0 km/h
1893 22-09-2010 18:42:01 24.1 C 8.97 g/m*3 24.1 C 0 km/h
1894 22-09-2010 18:54:01 23.3 C 9.2 g/m*3 23.3 C 0 km/h
1895 22-09-2010 19:06:01 22.5 C 9.19 g/m*3 22.5 C 0 km/h
1896 22-09-2010 19:18:02 21.8 C 9.4 g/m*3 21.8 C 0 km/h
1897 22-09-2010 19:30:02 20.6 C 9.31 g/m*3 20.6 C 0 km/h
1898 22-09-2010 19:42:01 20 C 8.99 g/m*3 20 C 0 km/h
1899 22-09-2010 19:54:01 19.5 C 9.06 g/m*3 19.5 C 0 km/h
1900 22-09-2010 20:06:01 19 C 9.13 g/m*3 19 C 0 km/h
Sensor: Nr:Datum:Temp:Abs-Feuchte:Windchill:Wind:
Aussen-T/F 1901 22-09-2010 20:18:02 18.7 C 9.13 g/m*3 18.7 C 0 km/h
1902 22-09-2010 20:30:02 18.5 C 9.02 g/m*3 18.5 C 0 km/h
1903 22-09-2010 20:42:01 18.4 C 9.12 g/m*3 18.4 C 0 km/h
1904 22-09-2010 20:54:02 18.1 C 9.12 g/m*3 18.1 C 0 km/h
1905 22-09-2010 21:06:01 17.9 C 9.31 g/m*3 17.9 C 0 km/h
1906 22-09-2010 21:18:01 17.6 C 9.45 g/m*3 17.6 C 0 km/h
1907 22-09-2010 21:30:01 17.5 C 9.24 g/m*3 17.5 C 0 km/h
1908 22-09-2010 21:42:01 17.3 C 9.28 g/m*3 17.3 C 0 km/h
1909 22-09-2010 21:54:01 17 C 9.26 g/m*3 17 C 0 km/h
1910 22-09-2010 22:08:02 16.8 C 9.29 g/m*3 16.8 C 0 km/h
1911 22-09-2010 22:20:02 16.4 C 9.35 g/m*3 16.4 C 0 km/h
1912 22-09-2010 22:32:02 16.1 C 9.32 g/m*3 16.1 C 0 km/h
1913 22-09-2010 22:44:02 15.9 C 9.21 g/m*3 15.9 C 0 km/h
1914 22-09-2010 22:56:02 15.7 C 9.1 g/m*3 15.7 C 0 km/h
1915 22-09-2010 23:08:02 15.4 C 8.8 g/m*3 15.4 C 0 km/h
1916 22-09-2010 23:20:02 15.1 C 8.77 g/m*3 15.1 C 0 km/h
1917 22-09-2010 23:32:02 14.9 C 8.79 g/m*3 14.9 C 0 km/h
1918 22-09-2010 23:44:02 14.7 C 8.81 g/m*3 14.7 C 0 km/h
1919 22-09-2010 23:56:02 14.5 C 8.71 g/m*3 14.5 C 0 km/h
1920 23-09-2010 00:08:02 14.4 C 8.53 g/m*3 14.4 C 0 km/h
1921 23-09-2010 00:20:02 14.2 C 8.67 g/m*3 14.2 C 0 km/h
1922 23-09-2010 00:32:02 14 C 8.56 g/m*3 14 C 0 km/h
1923 23-09-2010 00:44:02 13.8 C 8.7 g/m*3 13.8 C 0 km/h
1924 23-09-2010 00:56:02 13.7 C 8.76 g/m*3 13.7 C 0 km/h
1925 23-09-2010 01:08:02 13.5 C 8.77 g/m*3 13.5 C 0 km/h
Sensor: Nr:Datum:Temp:Abs-Feuchte:Windchill:Wind:
Aussen-T/F 1926 23-09-2010 01:20:02 13.4 C 8.72 g/m*3 13.4 C 0 km/h
1927 23-09-2010 01:32:02 13.2 C 8.73 g/m*3 13.2 C 0 km/h
1928 23-09-2010 01:44:02 13.1 C 8.67 g/m*3 13.1 C 0 km/h
1929 23-09-2010 01:56:03 12.9 C 8.68 g/m*3 12.9 C 0 km/h
1930 23-09-2010 02:08:03 12.8 C 8.74 g/m*3 12.8 C 0 km/h
1931 23-09-2010 02:20:03 12.6 C 8.74 g/m*3 12.6 C 0 km/h
1932 23-09-2010 02:32:03 12.4 C 8.74 g/m*3 12.4 C 0 km/h
1933 23-09-2010 02:44:03 12.3 C 8.69 g/m*3 12.3 C 0 km/h
1934 23-09-2010 02:56:03 12.1 C 8.58 g/m*3 12.1 C 0 km/h
1935 23-09-2010 03:08:03 12 C 8.53 g/m*3 12 C 0 km/h
1936 23-09-2010 03:20:03 11.8 C 8.53 g/m*3 11.8 C 0 km/h
1937 23-09-2010 03:32:03 11.8 C 8.53 g/m*3 11.8 C 0 km/h
1938 23-09-2010 03:44:03 11.8 C 8.63 g/m*3 11.8 C 0 km/h
1939 23-09-2010 03:56:03 11.6 C 8.63 g/m*3 11.6 C 0 km/h
1940 23-09-2010 04:08:03 11.4 C 8.52 g/m*3 11.4 C 0 km/h
1941 23-09-2010 04:20:03 11.2 C 8.41 g/m*3 11.2 C 0 km/h
1942 23-09-2010 04:32:03 11.2 C 8.41 g/m*3 11.2 C 0 km/h
1943 23-09-2010 04:44:03 11 C 8.31 g/m*3 11 C 0 km/h
1944 23-09-2010 04:56:03 11 C 8.31 g/m*3 11 C 0 km/h
1945 23-09-2010 05:08:03 10.9 C 8.36 g/m*3 10.9 C 0 km/h
1946 23-09-2010 05:20:03 10.7 C 8.25 g/m*3 10.7 C 0 km/h
1947 23-09-2010 05:32:03 10.6 C 8.2 g/m*3 10.6 C 0 km/h
1948 23-09-2010 05:44:03 10.5 C 8.15 g/m*3 10.5 C 0 km/h
1949 23-09-2010 05:56:03 10.5 C 8.15 g/m*3 10.5 C 0 km/h
1950 23-09-2010 06:08:03 10.4 C 8.1 g/m*3 10.4 C 0 km/h
Sensor: Nr:Datum:Temp:Abs-Feuchte:Windchill:Wind:
Aussen-T/F 1951 23-09-2010 06:20:04 10.5 C 8.24 g/m*3 10.5 C 0 km/h
1952 23-09-2010 06:32:04 10.6 C 8.3 g/m*3 10.6 C 0 km/h
1953 23-09-2010 06:44:04 10.4 C 8.19 g/m*3 10.4 C 0 km/h
1954 23-09-2010 06:56:04 10.4 C 8.19 g/m*3 10.4 C 0 km/h
1955 23-09-2010 07:08:02 10.5 C 8.24 g/m*3 10.5 C 0 km/h
1956 23-09-2010 07:20:01 10.4 C 8.19 g/m*3 10.4 C 0 km/h
1957 23-09-2010 07:32:02 10.5 C 8.24 g/m*3 10.5 C 0 km/h
1958 23-09-2010 07:44:02 10.6 C 8.3 g/m*3 10.6 C 0 km/h
1959 23-09-2010 07:56:02 10.6 C 8.3 g/m*3 10.6 C 0 km/h
1960 23-09-2010 08:08:02 10.6 C 8.3 g/m*3 10.6 C 0 km/h
1961 23-09-2010 08:20:01 10.7 C 8.35 g/m*3 10.7 C 0 km/h
1962 23-09-2010 08:32:02 10.8 C 8.4 g/m*3 10.8 C 0 km/h
1963 23-09-2010 08:44:02 11 C 8.51 g/m*3 11 C 0 km/h
1964 23-09-2010 08:56:02 11.3 C 8.57 g/m*3 11.3 C 0 km/h
1965 23-09-2010 09:08:01 11.4 C 8.52 g/m*3 11.4 C 0 km/h
1966 23-09-2010 09:20:01 11.4 C 8.52 g/m*3 11.4 C 0 km/h
1967 23-09-2010 09:32:02 11.4 C 8.52 g/m*3 11.4 C 0 km/h
1968 23-09-2010 09:44:02 11.7 C 8.79 g/m*3 11.7 C 0 km/h
1969 23-09-2010 09:56:02 12.3 C 8.9 g/m*3 12.3 C 0 km/h
1970 23-09-2010 10:08:02 12.4 C 8.96 g/m*3 12.4 C 0 km/h
1971 23-09-2010 10:20:02 12.5 C 9.02 g/m*3 12.5 C 0 km/h
1972 23-09-2010 10:32:02 12.9 C 9.24 g/m*3 12.9 C 0 km/h
1973 23-09-2010 10:44:02 13.3 C 9.36 g/m*3 13.3 C 0 km/h
1974 23-09-2010 10:56:02 13.8 C 9.65 g/m*3 13.8 C 0 km/h
1975 23-09-2010 11:08:02 14.1 C 9.71 g/m*3 14.1 C 0 km/h
Sensor: Nr:Datum:Temp:Abs-Feuchte:Windchill:Wind:
Aussen-T/F 1976 23-09-2010 11:20:02 15 C 10 g/m*3 15 C 0 km/h
1977 23-09-2010 11:32:02 15.8 C 10.23 g/m*3 15.8 C 0 km/h
1978 23-09-2010 11:44:02 16.3 C 10.13 g/m*3 16.3 C 0 km/h
1979 23-09-2010 11:56:02 17 C 10.27 g/m*3 17 C 0 km/h
1980 23-09-2010 12:08:02 17.5 C 10.44 g/m*3 17.5 C 0 km/h
1981 23-09-2010 12:20:02 18 C 10.44 g/m*3 18 C 0 km/h
1982 23-09-2010 12:32:02 18.7 C 10.73 g/m*3 18.7 C 0 km/h
1983 23-09-2010 12:44:02 19.2 C 10.55 g/m*3 19.2 C 0 km/h
1984 23-09-2010 12:56:02 19.9 C 10.82 g/m*3 19.9 C 0 km/h
1985 23-09-2010 13:08:02 20.5 C 11.03 g/m*3 20.5 C 0 km/h
1986 23-09-2010 13:20:02 21.4 C 11.06 g/m*3 21.4 C 0 km/h
1987 23-09-2010 13:32:01 22.3 C 11.26 g/m*3 22.3 C 0 km/h
1988 23-09-2010 13:44:01 23.3 C 10.66 g/m*3 23.3 C 0 km/h
1989 23-09-2010 13:56:02 24 C 9.14 g/m*3 24 C 0 km/h
1990 23-09-2010 14:08:01 24.5 C 9.62 g/m*3 24.5 C 0 km/h
1991 23-09-2010 14:20:02 23.8 C 10.11 g/m*3 23.8 C 0 km/h
1992 23-09-2010 14:32:02 23.7 C 10.48 g/m*3 23.7 C 0 km/h
1993 23-09-2010 14:44:02 23.8 C 10.54 g/m*3 23.8 C 0 km/h
1994 23-09-2010 14:56:02 24.5 C 10.3 g/m*3 24.5 C 0 km/h
1995 23-09-2010 15:08:02 25.2 C 8.85 g/m*3 25.2 C 0 km/h
1996 23-09-2010 15:20:02 25.2 C 9.78 g/m*3 25.2 C 0 km/h
1997 23-09-2010 15:32:02 24.8 C 9.33 g/m*3 24.8 C 0 km/h
1998 23-09-2010 15:44:03 25.1 C 9.26 g/m*3 25.1 C 0 km/h
1999 23-09-2010 15:56:01 24.9 C 9.61 g/m*3 24.9 C 0 km/h
2000 23-09-2010 16:08:02 25.1 C 10.19 g/m*3 25.1 C 0 km/h
Sensor: Nr:Datum:Temp:Abs-Feuchte:Windchill:Wind:
Aussen-T/F 2001 23-09-2010 16:20:01 26 C 9.74 g/m*3 26 C 0 km/h
2002 23-09-2010 16:32:01 25.6 C 9.05 g/m*3 25.6 C 0 km/h
2003 23-09-2010 16:44:01 24.9 C 10.07 g/m*3 24.9 C 0 km/h
2004 23-09-2010 16:56:01 24.1 C 10.28 g/m*3 24.1 C 0 km/h
2005 23-09-2010 17:08:01 23.7 C 10.91 g/m*3 23.7 C 0 km/h
2006 23-09-2010 17:20:02 23.4 C 10.72 g/m*3 23.4 C 0 km/h
2007 23-09-2010 17:32:01 23.2 C 10.81 g/m*3 23.2 C 0 km/h
2008 23-09-2010 17:44:01 23.3 C 10.45 g/m*3 23.3 C 0 km/h
2009 23-09-2010 17:56:02 23.8 C 10.76 g/m*3 23.8 C 0 km/h
2010 23-09-2010 18:08:01 23.3 C 10.45 g/m*3 23.3 C 0 km/h
2011 23-09-2010 18:20:02 22.6 C 10.25 g/m*3 22.6 C 0 km/h
2012 23-09-2010 18:32:01 21.7 C 10.68 g/m*3 21.7 C 0 km/h
2013 23-09-2010 18:44:01 21.6 C 10.81 g/m*3 21.6 C 0 km/h
2014 23-09-2010 18:56:02 21.4 C 10.87 g/m*3 21.4 C 0 km/h
2015 23-09-2010 19:08:02 20.9 C 10.93 g/m*3 20.9 C 0 km/h
2016 23-09-2010 19:20:02 20.4 C 10.97 g/m*3 20.4 C 0 km/h
2017 23-09-2010 19:32:02 19.8 C 11.1 g/m*3 19.8 C 0 km/h
2018 23-09-2010 19:44:02 19.4 C 11.18 g/m*3 19.4 C 0 km/h
2019 23-09-2010 19:56:02 19 C 11.08 g/m*3 19 C 0 km/h
2020 23-09-2010 20:08:01 18.8 C 11.43 g/m*3 18.8 C 0 km/h
2021 23-09-2010 20:20:02 18.6 C 11.3 g/m*3 18.6 C 0 km/h
2022 23-09-2010 20:32:02 18.6 C 11.3 g/m*3 18.6 C 0 km/h
2023 23-09-2010 20:44:02 18.4 C 11.32 g/m*3 18.4 C 0 km/h
2024 23-09-2010 20:56:02 18.1 C 11.12 g/m*3 18.1 C 0 km/h
2025 23-09-2010 21:08:02 18.4 C 11.48 g/m*3 18.4 C 0 km/h
Sensor: Nr:Datum:Temp:Abs-Feuchte:Windchill:Wind:
Aussen-T/F 2026 23-09-2010 21:20:01 18.3 C 11.41 g/m*3 18.3 C 0 km/h
2027 23-09-2010 21:32:02 18.4 C 11.64 g/m*3 18.4 C 0 km/h
2028 23-09-2010 21:44:02 18.7 C 11.53 g/m*3 18.7 C 0 km/h
2029 23-09-2010 21:57:02 18.7 C 11.37 g/m*3 18.7 C 0 km/h
2030 23-09-2010 22:09:02 18.5 C 11.23 g/m*3 18.5 C 0 km/h
2031 23-09-2010 22:21:02 18.5 C 11.39 g/m*3 18.5 C 0 km/h
2032 23-09-2010 22:33:02 17.9 C 11.6 g/m*3 17.9 C 0 km/h
2033 23-09-2010 22:45:02 17.7 C 12.52 g/m*3 17.7 C 0 km/h
2034 23-09-2010 22:57:02 17.1 C 12.23 g/m*3 17.1 C 0 km/h
2035 23-09-2010 23:09:02 16.9 C 12.37 g/m*3 16.9 C 0 km/h
2036 23-09-2010 23:21:02 16.5 C 12.22 g/m*3 16.5 C 0 km/h
2037 23-09-2010 23:33:02 16.4 C 12.28 g/m*3 16.4 C 0 km/h
2038 23-09-2010 23:45:02 16.2 C 12.14 g/m*3 16.2 C 0 km/h
2039 23-09-2010 23:57:02 16.2 C 12.27 g/m*3 16.2 C 0 km/h
2040 24-09-2010 00:09:02 16 C 12.13 g/m*3 16 C 0 km/h
2041 24-09-2010 00:21:02 15.9 C 12.32 g/m*3 15.9 C 0 km/h
2042 24-09-2010 00:33:02 15.6 C 12.1 g/m*3 15.6 C 0 km/h
2043 24-09-2010 00:45:02 15.5 C 12.16 g/m*3 15.5 C 0 km/h
2044 24-09-2010 00:57:02 15.5 C 12.16 g/m*3 15.5 C 0 km/h
2045 24-09-2010 01:09:02 15.5 C 12.16 g/m*3 15.5 C 0 km/h
2046 24-09-2010 01:21:02 15.5 C 12.29 g/m*3 15.5 C 0 km/h
2047 24-09-2010 01:33:02 15.6 C 12.37 g/m*3 15.6 C 0 km/h
2048 24-09-2010 01:45:02 15.6 C 12.37 g/m*3 15.6 C 0 km/h
2049 24-09-2010 01:57:03 15.5 C 12.29 g/m*3 15.5 C 0 km/h
2050 24-09-2010 02:09:03 15.5 C 12.29 g/m*3 15.5 C 0 km/h
Sensor: Nr:Datum:Temp:Abs-Feuchte:Windchill:Wind:
Aussen-T/F 2051 24-09-2010 02:21:03 15.5 C 12.29 g/m*3 15.5 C 0 km/h
2052 24-09-2010 02:33:03 15.4 C 12.22 g/m*3 15.4 C 0 km/h
2053 24-09-2010 02:45:03 15.3 C 12.01 g/m*3 15.3 C 0 km/h
2054 24-09-2010 02:57:03 15.2 C 11.94 g/m*3 15.2 C 0 km/h
2055 24-09-2010 03:09:03 15.1 C 11.87 g/m*3 15.1 C 0 km/h
2056 24-09-2010 03:21:03 14.9 C 11.85 g/m*3 14.9 C 0 km/h
2057 24-09-2010 03:33:03 14.9 C 11.85 g/m*3 14.9 C 0 km/h
2058 24-09-2010 03:45:03 14.9 C 11.98 g/m*3 14.9 C 0 km/h
2059 24-09-2010 03:57:03 14.9 C 11.98 g/m*3 14.9 C 0 km/h
2060 24-09-2010 04:09:03 14.8 C 11.91 g/m*3 14.8 C 0 km/h
2061 24-09-2010 04:21:03 14.8 C 11.91 g/m*3 14.8 C 0 km/h
2062 24-09-2010 04:33:03 14.8 C 11.91 g/m*3 14.8 C 0 km/h
2063 24-09-2010 04:45:03 14.8 C 11.91 g/m*3 14.8 C 0 km/h
2064 24-09-2010 04:57:03 14.7 C 11.83 g/m*3 14.7 C 0 km/h
2065 24-09-2010 05:09:03 14.5 C 11.69 g/m*3 14.5 C 0 km/h
2066 24-09-2010 05:21:03 14.5 C 11.69 g/m*3 14.5 C 0 km/h
2067 24-09-2010 05:33:03 14.5 C 11.69 g/m*3 14.5 C 0 km/h
2068 24-09-2010 05:45:03 14.6 C 11.76 g/m*3 14.6 C 0 km/h
2069 24-09-2010 05:57:03 14.6 C 11.76 g/m*3 14.6 C 0 km/h
2070 24-09-2010 06:09:03 14.7 C 11.83 g/m*3 14.7 C 0 km/h
2071 24-09-2010 06:21:04 14.7 C 11.83 g/m*3 14.7 C 0 km/h
2072 24-09-2010 06:33:04 14.7 C 11.83 g/m*3 14.7 C 0 km/h
2073 24-09-2010 06:45:04 14.7 C 11.83 g/m*3 14.7 C 0 km/h
2074 24-09-2010 06:57:04 14.7 C 11.83 g/m*3 14.7 C 0 km/h
2075 24-09-2010 07:09:04 14.5 C 11.69 g/m*3 14.5 C 0 km/h
Sensor: Nr:Datum:Temp:Abs-Feuchte:Windchill:Wind:
Aussen-T/F 2076 24-09-2010 07:21:04 14.4 C 11.62 g/m*3 14.4 C 0 km/h
2077 24-09-2010 07:33:02 14.3 C 11.55 g/m*3 14.3 C 0 km/h
2078 24-09-2010 07:45:02 14.4 C 11.62 g/m*3 14.4 C 0 km/h
2079 24-09-2010 07:57:02 14.4 C 11.62 g/m*3 14.4 C 0 km/h
2080 24-09-2010 08:09:02 14.4 C 11.62 g/m*3 14.4 C 0 km/h
2081 24-09-2010 08:21:01 14.3 C 11.55 g/m*3 14.3 C 0 km/h
2082 24-09-2010 08:33:02 14.6 C 11.89 g/m*3 14.6 C 0 km/h
2083 24-09-2010 08:45:02 14.8 C 12.03 g/m*3 14.8 C 0 km/h
2084 24-09-2010 08:57:02 14.8 C 12.03 g/m*3 14.8 C 0 km/h
2085 24-09-2010 09:09:01 14.8 C 12.03 g/m*3 14.8 C 0 km/h
2086 24-09-2010 09:21:02 14.8 C 12.03 g/m*3 14.8 C 0 km/h
2087 24-09-2010 09:33:01 14.9 C 12.11 g/m*3 14.9 C 0 km/h
2088 24-09-2010 09:45:02 14.9 C 12.11 g/m*3 14.9 C 0 km/h
2089 24-09-2010 09:57:02 15 C 12.05 g/m*3 15 C 0 km/h
2090 24-09-2010 10:09:02 15 C 12.05 g/m*3 15 C 0 km/h
2091 24-09-2010 10:21:02 14.9 C 12.11 g/m*3 14.9 C 0 km/h
2092 24-09-2010 10:33:02 15 C 12.05 g/m*3 15 C 0 km/h
2093 24-09-2010 10:45:01 15 C 12.05 g/m*3 15 C 0 km/h
2094 24-09-2010 10:57:01 15 C 12.05 g/m*3 15 C 0 km/h
2095 24-09-2010 11:09:02 15.1 C 12.13 g/m*3 15.1 C 0 km/h
2096 24-09-2010 11:21:01 15.1 C 12.13 g/m*3 15.1 C 0 km/h
2097 24-09-2010 11:33:01 15.4 C 12.35 g/m*3 15.4 C 0 km/h
2098 24-09-2010 11:45:02 15.4 C 12.35 g/m*3 15.4 C 0 km/h
2099 24-09-2010 11:57:02 15.1 C 12.13 g/m*3 15.1 C 0 km/h
2100 24-09-2010 12:09:02 15.1 C 12.13 g/m*3 15.1 C 0 km/h
Sensor: Nr:Datum:Temp:Abs-Feuchte:Windchill:Wind:
Aussen-T/F 2101 24-09-2010 12:21:02 15.1 C 12.13 g/m*3 15.1 C 0 km/h
2102 24-09-2010 12:33:03 15.4 C 12.48 g/m*3 15.4 C 0 km/h
2103 24-09-2010 12:45:02 15.1 C 12.13 g/m*3 15.1 C 0 km/h
2104 24-09-2010 12:57:03 15 C 12.05 g/m*3 15 C 0 km/h
2105 24-09-2010 13:09:02 14.8 C 11.91 g/m*3 14.8 C 0 km/h
2106 24-09-2010 13:21:02 14.6 C 11.76 g/m*3 14.6 C 0 km/h
2107 24-09-2010 13:33:02 14.5 C 11.69 g/m*3 14.5 C 0 km/h
2108 24-09-2010 13:45:02 14.5 C 11.69 g/m*3 14.5 C 0 km/h
2109 24-09-2010 13:57:02 14.4 C 11.62 g/m*3 14.4 C 0 km/h
2110 24-09-2010 14:09:03 14.1 C 11.41 g/m*3 14.1 C 0 km/h
2111 24-09-2010 14:21:02 13.8 C 11.2 g/m*3 13.8 C 0 km/h
2112 24-09-2010 14:33:03 13.5 C 10.99 g/m*3 13.5 C 0 km/h
2113 24-09-2010 14:45:02 13.2 C 10.79 g/m*3 13.2 C 0 km/h
2114 24-09-2010 14:57:02 13.1 C 10.73 g/m*3 13.1 C 0 km/h
2115 24-09-2010 15:09:02 12.9 C 10.71 g/m*3 12.9 C 0 km/h
2116 24-09-2010 15:21:03 13.1 C 10.73 g/m*3 13.1 C 0 km/h
2117 24-09-2010 15:33:02 13 C 10.77 g/m*3 13 C 0 km/h
2118 24-09-2010 15:45:03 13.2 C 10.91 g/m*3 13.2 C 0 km/h
2119 24-09-2010 15:57:03 13.2 C 10.91 g/m*3 13.2 C 0 km/h
2120 24-09-2010 16:09:02 13.3 C 10.98 g/m*3 13.3 C 0 km/h
2121 24-09-2010 16:21:02 13.7 C 11.25 g/m*3 13.7 C 0 km/h
2122 24-09-2010 16:33:02 14 C 11.46 g/m*3 14 C 0 km/h
2123 24-09-2010 16:45:02 14.1 C 11.53 g/m*3 14.1 C 0 km/h
2124 24-09-2010 16:57:02 13.9 C 11.39 g/m*3 13.9 C 0 km/h
2125 24-09-2010 17:09:02 13.9 C 11.39 g/m*3 13.9 C 0 km/h
Sensor: Nr:Datum:Temp:Abs-Feuchte:Windchill:Wind:
Aussen-T/F 2126 24-09-2010 17:21:02 13.9 C 11.39 g/m*3 13.9 C 0 km/h
2127 24-09-2010 17:33:02 13.4 C 10.93 g/m*3 13.4 C 0 km/h
2128 24-09-2010 17:45:02 13.2 C 10.79 g/m*3 13.2 C 0 km/h
2129 24-09-2010 17:57:02 13 C 10.66 g/m*3 13 C 0 km/h
2130 24-09-2010 18:09:01 13.2 C 10.79 g/m*3 13.2 C 0 km/h
2131 24-09-2010 18:21:01 13.3 C 10.86 g/m*3 13.3 C 0 km/h
2132 24-09-2010 18:33:02 13.3 C 10.86 g/m*3 13.3 C 0 km/h
2133 24-09-2010 18:45:02 13.3 C 10.86 g/m*3 13.3 C 0 km/h
2134 24-09-2010 18:57:02 13.2 C 10.79 g/m*3 13.2 C 0 km/h
2135 24-09-2010 19:09:02 13.1 C 10.73 g/m*3 13.1 C 0 km/h
2136 24-09-2010 19:21:01 12.9 C 10.71 g/m*3 12.9 C 0 km/h
2137 24-09-2010 19:33:02 12.8 C 10.64 g/m*3 12.8 C 0 km/h
2138 24-09-2010 19:45:02 12.7 C 10.58 g/m*3 12.7 C 0 km/h
2139 24-09-2010 19:57:02 12.7 C 10.58 g/m*3 12.7 C 0 km/h
2140 24-09-2010 20:09:02 12.7 C 10.58 g/m*3 12.7 C 0 km/h
2141 24-09-2010 20:21:01 12.7 C 10.58 g/m*3 12.7 C 0 km/h
2142 24-09-2010 20:33:02 12.7 C 10.58 g/m*3 12.7 C 0 km/h
2143 24-09-2010 20:45:01 12.7 C 10.58 g/m*3 12.7 C 0 km/h
2144 24-09-2010 20:57:01 12.7 C 10.58 g/m*3 12.7 C 0 km/h
2145 24-09-2010 21:09:02 12.8 C 10.64 g/m*3 12.8 C 0 km/h
2146 24-09-2010 21:21:02 12.8 C 10.64 g/m*3 12.8 C 0 km/h
2147 24-09-2010 21:33:02 12.9 C 10.71 g/m*3 12.9 C 0 km/h
2148 24-09-2010 21:45:02 12.8 C 10.64 g/m*3 12.8 C 0 km/h
2149 24-09-2010 21:57:02 12.8 C 10.64 g/m*3 12.8 C 0 km/h
2150 24-09-2010 22:09:01 12.8 C 10.64 g/m*3 12.8 C 0 km/h
Sensor: Nr:Datum:Temp:Abs-Feuchte:Windchill:Wind:
Aussen-T/F 2151 24-09-2010 22:21:02 12.8 C 10.64 g/m*3 12.8 C 0 km/h
2152 24-09-2010 22:33:02 12.7 C 10.58 g/m*3 12.7 C 0 km/h
2153 24-09-2010 22:46:04 12.6 C 10.51 g/m*3 12.6 C 0 km/h
2154 24-09-2010 22:58:04 12.6 C 10.51 g/m*3 12.6 C 0 km/h
2155 24-09-2010 23:10:04 12.5 C 10.44 g/m*3 12.5 C 0 km/h
2156 24-09-2010 23:22:04 12.4 C 10.38 g/m*3 12.4 C 0 km/h
2157 24-09-2010 23:34:04 12.4 C 10.38 g/m*3 12.4 C 0 km/h
2158 24-09-2010 23:46:04 12.3 C 10.32 g/m*3 12.3 C 0 km/h
2159 24-09-2010 23:58:04 12.4 C 10.38 g/m*3 12.4 C 0 km/h
2160 25-09-2010 00:10:04 12.4 C 10.38 g/m*3 12.4 C 0 km/h
2161 25-09-2010 00:22:04 12.5 C 10.44 g/m*3 12.5 C 0 km/h
2162 25-09-2010 00:34:04 12.5 C 10.44 g/m*3 12.5 C 0 km/h
2163 25-09-2010 00:46:04 12.5 C 10.44 g/m*3 12.5 C 0 km/h
2164 25-09-2010 00:58:05 12.5 C 10.44 g/m*3 12.5 C 0 km/h
2165 25-09-2010 01:10:05 12.5 C 10.44 g/m*3 12.5 C 0 km/h
2166 25-09-2010 01:22:05 12.5 C 10.44 g/m*3 12.5 C 0 km/h
2167 25-09-2010 01:34:05 12.5 C 10.44 g/m*3 12.5 C 0 km/h
2168 25-09-2010 01:46:05 12.5 C 10.44 g/m*3 12.5 C 0 km/h
2169 25-09-2010 01:58:05 12.6 C 10.51 g/m*3 12.6 C 0 km/h
2170 25-09-2010 02:10:05 12.6 C 10.51 g/m*3 12.6 C 0 km/h
2171 25-09-2010 02:22:05 12.6 C 10.51 g/m*3 12.6 C 0 km/h
2172 25-09-2010 02:34:05 12.6 C 10.51 g/m*3 12.6 C 0 km/h
2173 25-09-2010 02:46:05 12.6 C 10.51 g/m*3 12.6 C 0 km/h
2174 25-09-2010 02:58:05 12.6 C 10.51 g/m*3 12.6 C 0 km/h
2175 25-09-2010 03:10:05 12.7 C 10.58 g/m*3 12.7 C 0 km/h
Sensor: Nr:Datum:Temp:Abs-Feuchte:Windchill:Wind:
Aussen-T/F 2176 25-09-2010 03:22:05 12.6 C 10.51 g/m*3 12.6 C 0 km/h
2177 25-09-2010 03:34:05 12.6 C 10.51 g/m*3 12.6 C 0 km/h
2178 25-09-2010 03:46:05 12.6 C 10.51 g/m*3 12.6 C 0 km/h
2179 25-09-2010 03:58:05 12.6 C 10.51 g/m*3 12.6 C 0 km/h
2180 25-09-2010 04:10:05 12.6 C 10.51 g/m*3 12.6 C 0 km/h
2181 25-09-2010 04:22:05 12.5 C 10.44 g/m*3 12.5 C 0 km/h
2182 25-09-2010 04:34:05 12.6 C 10.51 g/m*3 12.6 C 0 km/h
2183 25-09-2010 04:46:05 12.5 C 10.44 g/m*3 12.5 C 0 km/h
2184 25-09-2010 04:58:06 12.5 C 10.44 g/m*3 12.5 C 0 km/h
2185 25-09-2010 05:10:06 12.5 C 10.44 g/m*3 12.5 C 0 km/h
2186 25-09-2010 05:22:06 12.4 C 10.38 g/m*3 12.4 C 0 km/h
2187 25-09-2010 05:34:06 12.4 C 10.38 g/m*3 12.4 C 0 km/h
2188 25-09-2010 05:46:06 12.3 C 10.32 g/m*3 12.3 C 0 km/h
2189 25-09-2010 05:58:06 12.3 C 10.21 g/m*3 12.3 C 0 km/h
2190 25-09-2010 06:10:06 12.1 C 10.08 g/m*3 12.1 C 0 km/h
2191 25-09-2010 06:22:06 12.1 C 10.08 g/m*3 12.1 C 0 km/h
2192 25-09-2010 06:34:06 12.1 C 10.08 g/m*3 12.1 C 0 km/h
2193 25-09-2010 06:46:06 12 C 10.02 g/m*3 12 C 0 km/h
2194 25-09-2010 06:58:06 12 C 10.02 g/m*3 12 C 0 km/h
2195 25-09-2010 07:10:06 12 C 10.02 g/m*3 12 C 0 km/h
2196 25-09-2010 07:22:06 11.9 C 9.96 g/m*3 11.9 C 0 km/h
2197 25-09-2010 07:34:06 11.9 C 9.96 g/m*3 11.9 C 0 km/h
2198 25-09-2010 07:46:02 11.8 C 9.89 g/m*3 11.8 C 0 km/h
2199 25-09-2010 07:58:02 11.8 C 9.89 g/m*3 11.8 C 0 km/h
2200 25-09-2010 08:10:02 11.7 C 9.83 g/m*3 11.7 C 0 km/h
Sensor: Nr:Datum:Temp:Abs-Feuchte:Windchill:Wind:
Aussen-T/F 2201 25-09-2010 08:22:02 11.6 C 9.77 g/m*3 11.6 C 0 km/h
2202 25-09-2010 08:34:02 11.2 C 9.43 g/m*3 11.2 C 0 km/h
2203 25-09-2010 08:46:02 11 C 9.31 g/m*3 11 C 0 km/h
2204 25-09-2010 08:58:02 10.8 C 9.19 g/m*3 10.8 C 0 km/h
2205 25-09-2010 09:10:01 10.6 C 9.08 g/m*3 10.6 C 0 km/h
2206 25-09-2010 09:22:02 10.4 C 8.96 g/m*3 10.4 C 0 km/h
2207 25-09-2010 09:34:02 10.5 C 8.92 g/m*3 10.5 C 0 km/h
2208 25-09-2010 09:46:02 10.5 C 8.83 g/m*3 10.5 C 0 km/h
2209 25-09-2010 09:58:02 10.4 C 8.29 g/m*3 10.4 C 0 km/h
2210 25-09-2010 10:10:03 10.5 C 8.15 g/m*3 10.5 C 0 km/h
2211 25-09-2010 10:22:02 10.8 C 8.2 g/m*3 10.8 C 0 km/h
2212 25-09-2010 10:34:02 11.1 C 8.36 g/m*3 11.1 C 0 km/h
2213 25-09-2010 10:46:01 11.3 C 8.36 g/m*3 11.3 C 0 km/h
2214 25-09-2010 10:58:01 11.5 C 8.16 g/m*3 11.5 C 0 km/h
2215 25-09-2010 11:10:02 11.6 C 7.8 g/m*3 11.6 C 0 km/h
2216 25-09-2010 11:22:01 12.1 C 7.72 g/m*3 12.1 C 0 km/h
2217 25-09-2010 11:34:02 12.3 C 7.38 g/m*3 12.3 C 0 km/h
2218 25-09-2010 11:46:01 12.5 C 7.26 g/m*3 12.5 C 0 km/h
2219 25-09-2010 11:58:01 13 C 7.03 g/m*3 13 C 0 km/h
2220 25-09-2010 12:10:02 12.8 C 6.83 g/m*3 12.8 C 0 km/h
2221 25-09-2010 12:22:01 12.8 C 7.06 g/m*3 12.8 C 0 km/h
2222 25-09-2010 12:34:02 12.4 C 6.88 g/m*3 12.4 C 0 km/h
2223 25-09-2010 12:46:02 11.8 C 6.84 g/m*3 11.8 C 0 km/h
2224 25-09-2010 12:58:02 12.4 C 6.88 g/m*3 12.4 C 0 km/h
2225 25-09-2010 13:10:02 12.7 C 6.68 g/m*3 12.7 C 0 km/h
Sensor: Nr:Datum:Temp:Abs-Feuchte:Windchill:Wind:
Aussen-T/F 2226 25-09-2010 13:22:01 13 C 6.35 g/m*3 13 C 0 km/h
2227 25-09-2010 13:34:02 13.8 C 6.43 g/m*3 13.8 C 0 km/h
2228 25-09-2010 13:46:01 13.5 C 5.38 g/m*3 13.5 C 0 km/h
2229 25-09-2010 13:58:01 13.3 C 5.31 g/m*3 13.3 C 0 km/h
2230 25-09-2010 14:10:02 13.7 C 5.45 g/m*3 13.7 C 0 km/h
2231 25-09-2010 14:22:01 13.5 C 5.5 g/m*3 13.5 C 0 km/h
2232 25-09-2010 14:34:02 13.8 C 5.36 g/m*3 13.8 C 0 km/h
2233 25-09-2010 14:46:01 14.4 C 5.32 g/m*3 14.4 C 0 km/h
2234 25-09-2010 14:58:01 15.8 C 5.12 g/m*3 15.8 C 0 km/h
2235 25-09-2010 15:10:02 14.8 C 4.43 g/m*3 14.8 C 0 km/h
2236 25-09-2010 15:22:02 14.5 C 4.6 g/m*3 14.5 C 0 km/h
2237 25-09-2010 15:34:01 15.7 C 4.68 g/m*3 15.7 C 0 km/h
2238 25-09-2010 15:46:02 15.5 C 4.63 g/m*3 15.5 C 0 km/h
2239 25-09-2010 15:58:02 14.7 C 5.04 g/m*3 14.7 C 0 km/h
2240 25-09-2010 16:10:01 14.2 C 4.88 g/m*3 14.2 C 0 km/h
2241 25-09-2010 16:22:02 14.4 C 5.07 g/m*3 14.4 C 0 km/h
2242 25-09-2010 16:34:01 14.7 C 5.16 g/m*3 14.7 C 0 km/h
2243 25-09-2010 16:46:02 15.6 C 4.79 g/m*3 15.6 C 0 km/h
2244 25-09-2010 16:58:02 14.7 C 4.91 g/m*3 14.7 C 0 km/h
2245 25-09-2010 17:10:02 14.3 C 4.91 g/m*3 14.3 C 0 km/h
2246 25-09-2010 17:22:02 14.8 C 5.32 g/m*3 14.8 C 0 km/h
2247 25-09-2010 17:34:03 15.6 C 5.19 g/m*3 15.6 C 0 km/h
2248 25-09-2010 17:46:02 16.8 C 5.15 g/m*3 16.8 C 0 km/h
2249 25-09-2010 17:58:02 16.5 C 4.77 g/m*3 16.5 C 0 km/h
2250 25-09-2010 18:10:01 15.4 C 4.47 g/m*3 15.4 C 0 km/h
Sensor: Nr:Datum:Temp:Abs-Feuchte:Windchill:Wind:
Aussen-T/F 2251 25-09-2010 18:22:01 14.3 C 4.67 g/m*3 14.3 C 0 km/h
2252 25-09-2010 18:34:02 13.9 C 4.92 g/m*3 13.9 C 0 km/h
2253 25-09-2010 18:46:02 13.8 C 5.36 g/m*3 13.8 C 0 km/h
2254 25-09-2010 18:58:02 13.7 C 5.8 g/m*3 13.7 C 0 km/h
2255 25-09-2010 19:10:02 13.5 C 5.5 g/m*3 13.5 C 0 km/h
2256 25-09-2010 19:22:02 13.1 C 5.59 g/m*3 13.1 C 0 km/h
2257 25-09-2010 19:34:02 13 C 5.67 g/m*3 13 C 0 km/h
2258 25-09-2010 19:46:02 12.7 C 5.9 g/m*3 12.7 C 0 km/h
2259 25-09-2010 19:58:02 12.6 C 6.08 g/m*3 12.6 C 0 km/h
2260 25-09-2010 20:10:02 12.5 C 5.72 g/m*3 12.5 C 0 km/h
2261 25-09-2010 20:22:02 12.2 C 5.61 g/m*3 12.2 C 0 km/h
2262 25-09-2010 20:34:02 11.8 C 5.79 g/m*3 11.8 C 0 km/h
2263 25-09-2010 20:46:02 11.1 C 6.04 g/m*3 11.1 C 0 km/h
2264 25-09-2010 20:58:02 10.9 C 6.17 g/m*3 10.9 C 0 km/h
2265 25-09-2010 21:10:02 10.4 C 6.17 g/m*3 10.4 C 0 km/h
2266 25-09-2010 21:22:03 10.2 C 6.28 g/m*3 10.2 C 0 km/h
2267 25-09-2010 21:34:02 10.1 C 6.34 g/m*3 10.1 C 0 km/h
2268 25-09-2010 21:46:03 10 C 6.3 g/m*3 10 C 0 km/h
2269 25-09-2010 21:58:03 9.9 C 6.44 g/m*3 9.9 C 0 km/h
2270 25-09-2010 22:10:02 9.9 C 6.54 g/m*3 9.9 C 0 km/h
2271 25-09-2010 22:22:02 10.2 C 6.57 g/m*3 10.2 C 0 km/h
2272 25-09-2010 22:34:02 10.5 C 6.69 g/m*3 10.5 C 0 km/h
2273 25-09-2010 22:46:02 10.5 C 6.69 g/m*3 10.5 C 0 km/h
2274 25-09-2010 22:58:02 10.3 C 6.9 g/m*3 10.3 C 0 km/h
2275 25-09-2010 23:10:02 9.6 C 7.15 g/m*3 9.6 C 0 km/h
Sensor: Nr:Datum:Temp:Abs-Feuchte:Windchill:Wind:
Aussen-T/F 2276 25-09-2010 23:22:02 9.3 C 7.28 g/m*3 9.3 C 0 km/h
2277 25-09-2010 23:34:01 9.2 C 7.5 g/m*3 9.2 C 0 km/h
2278 25-09-2010 23:46:02 9.1 C 7.45 g/m*3 9.1 C 0 km/h
2279 25-09-2010 23:58:02 9.2 C 7.59 g/m*3 9.2 C 0 km/h
2280 26-09-2010 00:10:01 9.1 C 7.63 g/m*3 9.1 C 0 km/h
2281 26-09-2010 00:22:02 9.5 C 7.92 g/m*3 9.5 C 0 km/h
2282 26-09-2010 00:34:02 9.5 C 7.92 g/m*3 9.5 C 0 km/h
2283 26-09-2010 00:46:02 9.6 C 7.79 g/m*3 9.6 C 0 km/h
2284 26-09-2010 00:58:02 9.5 C 7.55 g/m*3 9.5 C 0 km/h
2285 26-09-2010 01:10:02 9.5 C 7.37 g/m*3 9.5 C 0 km/h
2286 26-09-2010 01:22:02 9.5 C 7.28 g/m*3 9.5 C 0 km/h
2287 26-09-2010 01:34:02 9.4 C 7.15 g/m*3 9.4 C 0 km/h
2288 26-09-2010 01:46:01 9.5 C 7.19 g/m*3 9.5 C 0 km/h
2289 26-09-2010 01:58:01 9.5 C 7.19 g/m*3 9.5 C 0 km/h
2290 26-09-2010 02:10:02 9.5 C 7.19 g/m*3 9.5 C 0 km/h
2291 26-09-2010 02:22:01 9.5 C 7.1 g/m*3 9.5 C 0 km/h
2292 26-09-2010 02:34:01 9.3 C 7.01 g/m*3 9.3 C 0 km/h
2293 26-09-2010 02:46:01 9.4 C 6.96 g/m*3 9.4 C 0 km/h
2294 26-09-2010 02:58:01 9.4 C 6.96 g/m*3 9.4 C 0 km/h
2295 26-09-2010 03:10:01 9.3 C 6.92 g/m*3 9.3 C 0 km/h
2296 26-09-2010 03:22:01 9.3 C 7.01 g/m*3 9.3 C 0 km/h
2297 26-09-2010 03:34:01 9.3 C 7.1 g/m*3 9.3 C 0 km/h
2298 26-09-2010 03:46:01 9.1 C 7.1 g/m*3 9.1 C 0 km/h
2299 26-09-2010 03:58:01 9 C 7.23 g/m*3 9 C 0 km/h
2300 26-09-2010 04:10:01 9 C 7.32 g/m*3 9 C 0 km/h
Sensor: Nr:Datum:Temp:Abs-Feuchte:Windchill:Wind:
Aussen-T/F 2301 26-09-2010 04:22:01 9 C 7.23 g/m*3 9 C 0 km/h
2302 26-09-2010 04:34:02 8.9 C 7.27 g/m*3 8.9 C 0 km/h
2303 26-09-2010 04:46:01 8.7 C 7.26 g/m*3 8.7 C 0 km/h
2304 26-09-2010 04:58:01 8.8 C 7.31 g/m*3 8.8 C 0 km/h
2305 26-09-2010 05:10:02 9 C 7.32 g/m*3 9 C 0 km/h
2306 26-09-2010 05:22:01 9.1 C 7.36 g/m*3 9.1 C 0 km/h
2307 26-09-2010 05:34:01 9 C 7.32 g/m*3 9 C 0 km/h
2308 26-09-2010 05:46:01 9 C 7.32 g/m*3 9 C 0 km/h
2309 26-09-2010 05:58:01 9 C 7.32 g/m*3 9 C 0 km/h
2310 26-09-2010 06:10:02 9 C 7.32 g/m*3 9 C 0 km/h
2311 26-09-2010 06:22:01 9.1 C 7.36 g/m*3 9.1 C 0 km/h
2312 26-09-2010 06:34:01 8.8 C 7.31 g/m*3 8.8 C 0 km/h
2313 26-09-2010 06:46:01 8.8 C 7.4 g/m*3 8.8 C 0 km/h
2314 26-09-2010 06:58:01 8.8 C 7.49 g/m*3 8.8 C 0 km/h
2315 26-09-2010 07:10:01 8.8 C 7.49 g/m*3 8.8 C 0 km/h
2316 26-09-2010 07:22:02 8.5 C 7.26 g/m*3 8.5 C 0 km/h
2317 26-09-2010 07:34:01 8.6 C 7.39 g/m*3 8.6 C 0 km/h
2318 26-09-2010 07:46:02 8.9 C 7.62 g/m*3 8.9 C 0 km/h
2319 26-09-2010 07:58:02 9.2 C 7.5 g/m*3 9.2 C 0 km/h
2320 26-09-2010 08:10:01 9.5 C 7.55 g/m*3 9.5 C 0 km/h
2321 26-09-2010 08:22:02 9.6 C 7.33 g/m*3 9.6 C 0 km/h
2322 26-09-2010 08:34:01 9.7 C 7.19 g/m*3 9.7 C 0 km/h
2323 26-09-2010 08:46:02 9.7 C 7.19 g/m*3 9.7 C 0 km/h
2324 26-09-2010 08:58:02 9.6 C 7.24 g/m*3 9.6 C 0 km/h
2325 26-09-2010 09:10:01 9.4 C 7.24 g/m*3 9.4 C 0 km/h
Sensor: Nr:Datum:Temp:Abs-Feuchte:Windchill:Wind:
Aussen-T/F 2326 26-09-2010 09:22:01 9.4 C 7.33 g/m*3 9.4 C 0 km/h
2327 26-09-2010 09:34:02 10.5 C 7.57 g/m*3 10.5 C 0 km/h
2328 26-09-2010 09:46:01 11 C 7.11 g/m*3 11 C 0 km/h
2329 26-09-2010 09:58:01 11 C 6.61 g/m*3 11 C 0 km/h
2330 26-09-2010 10:10:02 11 C 6.61 g/m*3 11 C 0 km/h
2331 26-09-2010 10:22:01 11.6 C 6.76 g/m*3 11.6 C 0 km/h
2332 26-09-2010 10:34:02 12 C 6.61 g/m*3 12 C 0 km/h
2333 26-09-2010 10:46:01 11.9 C 6.78 g/m*3 11.9 C 0 km/h
2334 26-09-2010 10:58:01 12.7 C 7.01 g/m*3 12.7 C 0 km/h
2335 26-09-2010 11:10:02 12.9 C 6.42 g/m*3 12.9 C 0 km/h
2336 26-09-2010 11:22:01 13.1 C 6.5 g/m*3 13.1 C 0 km/h
2337 26-09-2010 11:34:02 13.2 C 6.66 g/m*3 13.2 C 0 km/h
2338 26-09-2010 11:46:02 13.5 C 6.32 g/m*3 13.5 C 0 km/h
2339 26-09-2010 11:58:02 13.4 C 6.28 g/m*3 13.4 C 0 km/h
2340 26-09-2010 12:10:01 14 C 6.39 g/m*3 14 C 0 km/h
2341 26-09-2010 12:22:02 14.3 C 6.51 g/m*3 14.3 C 0 km/h
2342 26-09-2010 12:34:01 14.6 C 6.51 g/m*3 14.6 C 0 km/h
2343 26-09-2010 12:46:01 15 C 6.28 g/m*3 15 C 0 km/h
2344 26-09-2010 12:58:01 14.5 C 6.22 g/m*3 14.5 C 0 km/h
2345 26-09-2010 13:10:02 14.5 C 6.34 g/m*3 14.5 C 0 km/h
2346 26-09-2010 13:22:01 13.2 C 7.12 g/m*3 13.2 C 0 km/h
2347 26-09-2010 13:34:01 12.6 C 7.63 g/m*3 12.6 C 0 km/h
2348 26-09-2010 13:46:01 12.4 C 8.3 g/m*3 12.4 C 0 km/h
2349 26-09-2010 13:58:01 12.3 C 8.25 g/m*3 12.3 C 0 km/h
2350 26-09-2010 14:10:01 13.2 C 8.61 g/m*3 13.2 C 0 km/h
Sensor: Nr:Datum:Temp:Abs-Feuchte:Windchill:Wind:
Aussen-T/F 2351 26-09-2010 14:22:01 13.4 C 8.37 g/m*3 13.4 C 0 km/h
2352 26-09-2010 14:34:01 13.3 C 8.43 g/m*3 13.3 C 0 km/h
2353 26-09-2010 14:46:01 13.2 C 8.15 g/m*3 13.2 C 0 km/h
2354 26-09-2010 14:58:01 13.4 C 7.9 g/m*3 13.4 C 0 km/h
2355 26-09-2010 15:10:01 13.6 C 7.89 g/m*3 13.6 C 0 km/h
2356 26-09-2010 15:22:02 13.9 C 8.39 g/m*3 13.9 C 0 km/h
2357 26-09-2010 15:34:01 14.4 C 8.16 g/m*3 14.4 C 0 km/h
2358 26-09-2010 15:46:02 14.5 C 7.96 g/m*3 14.5 C 0 km/h
2359 26-09-2010 15:58:02 14.5 C 8.21 g/m*3 14.5 C 0 km/h
2360 26-09-2010 16:10:01 13.7 C 7.7 g/m*3 13.7 C 0 km/h
2361 26-09-2010 16:22:02 13.8 C 7.51 g/m*3 13.8 C 0 km/h
2362 26-09-2010 16:34:01 15.7 C 7.09 g/m*3 15.7 C 0 km/h
2363 26-09-2010 16:46:01 15.5 C 6.21 g/m*3 15.5 C 0 km/h
2364 26-09-2010 16:58:01 15.9 C 6.5 g/m*3 15.9 C 0 km/h
2365 26-09-2010 17:10:01 16.1 C 6.44 g/m*3 16.1 C 0 km/h
2366 26-09-2010 17:22:01 15.6 C 6.38 g/m*3 15.6 C 0 km/h
2367 26-09-2010 17:34:02 15.4 C 6.7 g/m*3 15.4 C 0 km/h
2368 26-09-2010 17:46:01 14.6 C 6.76 g/m*3 14.6 C 0 km/h
2369 26-09-2010 17:58:01 14.2 C 6.72 g/m*3 14.2 C 0 km/h
2370 26-09-2010 18:10:02 13.6 C 6.83 g/m*3 13.6 C 0 km/h
2371 26-09-2010 18:22:01 13.1 C 6.85 g/m*3 13.1 C 0 km/h
2372 26-09-2010 18:34:01 12.9 C 6.99 g/m*3 12.9 C 0 km/h
2373 26-09-2010 18:46:01 12.7 C 7.01 g/m*3 12.7 C 0 km/h
2374 26-09-2010 18:58:01 12.5 C 7.04 g/m*3 12.5 C 0 km/h
2375 26-09-2010 19:10:02 12.4 C 7.1 g/m*3 12.4 C 0 km/h
Sensor: Nr:Datum:Temp:Abs-Feuchte:Windchill:Wind:
Aussen-T/F 2376 26-09-2010 19:22:01 12.4 C 7.1 g/m*3 12.4 C 0 km/h
2377 26-09-2010 19:34:01 12.2 C 7.01 g/m*3 12.2 C 0 km/h
2378 26-09-2010 19:46:01 12.1 C 7.18 g/m*3 12.1 C 0 km/h
2379 26-09-2010 19:58:01 12.1 C 7.08 g/m*3 12.1 C 0 km/h
2380 26-09-2010 20:10:02 12 C 7.25 g/m*3 12 C 0 km/h
2381 26-09-2010 20:22:01 11.9 C 7.31 g/m*3 11.9 C 0 km/h
2382 26-09-2010 20:34:01 11.7 C 7.22 g/m*3 11.7 C 0 km/h
2383 26-09-2010 20:46:01 11.7 C 7.22 g/m*3 11.7 C 0 km/h
2384 26-09-2010 20:58:01 11.6 C 7.07 g/m*3 11.6 C 0 km/h
2385 26-09-2010 21:10:01 11.6 C 7.07 g/m*3 11.6 C 0 km/h
2386 26-09-2010 21:22:01 11.4 C 7.08 g/m*3 11.4 C 0 km/h
2387 26-09-2010 21:34:01 11.2 C 7.1 g/m*3 11.2 C 0 km/h
2388 26-09-2010 21:46:01 10.9 C 7.16 g/m*3 10.9 C 0 km/h
2389 26-09-2010 21:58:01 10.7 C 7.17 g/m*3 10.7 C 0 km/h
2390 26-09-2010 22:10:01 10.3 C 6.99 g/m*3 10.3 C 0 km/h
2391 26-09-2010 22:22:01 10 C 7.05 g/m*3 10 C 0 km/h
2392 26-09-2010 22:34:01 9.7 C 7.1 g/m*3 9.7 C 0 km/h
2393 26-09-2010 22:47:04 9.3 C 7.1 g/m*3 9.3 C 0 km/h
2394 26-09-2010 22:59:04 9.2 C 7.05 g/m*3 9.2 C 0 km/h
2395 26-09-2010 23:11:04 9 C 7.05 g/m*3 9 C 0 km/h
2396 26-09-2010 23:23:04 8.9 C 7.18 g/m*3 8.9 C 0 km/h
2397 26-09-2010 23:35:04 8.9 C 7.27 g/m*3 8.9 C 0 km/h
2398 26-09-2010 23:47:04 8.8 C 7.22 g/m*3 8.8 C 0 km/h
2399 26-09-2010 23:59:04 8.6 C 7.13 g/m*3 8.6 C 0 km/h
2400 27-09-2010 00:11:04 8.5 C 7.17 g/m*3 8.5 C 0 km/h
Sensor: Nr:Datum:Temp:Abs-Feuchte:Windchill:Wind:
Aussen-T/F 2401 27-09-2010 00:23:04 8.2 C 7.03 g/m*3 8.2 C 0 km/h
2402 27-09-2010 00:35:04 8.1 C 6.99 g/m*3 8.1 C 0 km/h
2403 27-09-2010 00:47:04 7.9 C 6.98 g/m*3 7.9 C 0 km/h
2404 27-09-2010 00:59:04 7.9 C 7.15 g/m*3 7.9 C 0 km/h
2405 27-09-2010 01:11:04 7.8 C 7.18 g/m*3 7.8 C 0 km/h
2406 27-09-2010 01:23:04 7.6 C 7.09 g/m*3 7.6 C 0 km/h
2407 27-09-2010 01:35:04 7.5 C 7.04 g/m*3 7.5 C 0 km/h
2408 27-09-2010 01:47:04 7.3 C 6.95 g/m*3 7.3 C 0 km/h
2409 27-09-2010 01:59:04 7.1 C 6.94 g/m*3 7.1 C 0 km/h
2410 27-09-2010 02:11:04 7 C 6.9 g/m*3 7 C 0 km/h
2411 27-09-2010 02:23:04 7 C 6.9 g/m*3 7 C 0 km/h
2412 27-09-2010 02:35:05 6.8 C 6.81 g/m*3 6.8 C 0 km/h
2413 27-09-2010 02:47:05 6.7 C 6.84 g/m*3 6.7 C 0 km/h
2414 27-09-2010 02:59:05 6.7 C 6.84 g/m*3 6.7 C 0 km/h
2415 27-09-2010 03:11:05 6.5 C 6.75 g/m*3 6.5 C 0 km/h
2416 27-09-2010 03:23:05 6.7 C 6.84 g/m*3 6.7 C 0 km/h
2417 27-09-2010 03:35:05 6.4 C 6.71 g/m*3 6.4 C 0 km/h
2418 27-09-2010 03:47:05 6.3 C 6.66 g/m*3 6.3 C 0 km/h
2419 27-09-2010 03:59:05 6.4 C 6.78 g/m*3 6.4 C 0 km/h
2420 27-09-2010 04:11:05 6.5 C 6.9 g/m*3 6.5 C 0 km/h
2421 27-09-2010 04:23:05 6.4 C 6.85 g/m*3 6.4 C 0 km/h
2422 27-09-2010 04:35:05 6.3 C 6.81 g/m*3 6.3 C 0 km/h
2423 27-09-2010 04:47:05 6.1 C 6.72 g/m*3 6.1 C 0 km/h
2424 27-09-2010 04:59:05 5.9 C 6.71 g/m*3 5.9 C 0 km/h
2425 27-09-2010 05:11:05 5.9 C 6.71 g/m*3 5.9 C 0 km/h
Sensor: Nr:Datum:Temp:Abs-Feuchte:Windchill:Wind:
Aussen-T/F 2426 27-09-2010 05:23:05 6.1 C 6.72 g/m*3 6.1 C 0 km/h
2427 27-09-2010 05:35:05 6.3 C 6.81 g/m*3 6.3 C 0 km/h
2428 27-09-2010 05:47:05 6.4 C 6.93 g/m*3 6.4 C 0 km/h
2429 27-09-2010 05:59:05 6.5 C 6.97 g/m*3 6.5 C 0 km/h
2430 27-09-2010 06:11:05 6.5 C 6.97 g/m*3 6.5 C 0 km/h
2431 27-09-2010 06:23:05 6.4 C 6.93 g/m*3 6.4 C 0 km/h
2432 27-09-2010 06:35:05 6.2 C 6.84 g/m*3 6.2 C 0 km/h
2433 27-09-2010 06:47:06 6.2 C 6.84 g/m*3 6.2 C 0 km/h
2434 27-09-2010 06:59:06 6.3 C 6.88 g/m*3 6.3 C 0 km/h
2435 27-09-2010 07:11:04 6.3 C 6.88 g/m*3 6.3 C 0 km/h
2436 27-09-2010 07:23:04 6.6 C 7.02 g/m*3 6.6 C 0 km/h
2437 27-09-2010 07:35:04 6.7 C 7.14 g/m*3 6.7 C 0 km/h
2438 27-09-2010 07:47:02 6.9 C 7.24 g/m*3 6.9 C 0 km/h
2439 27-09-2010 07:59:02 7.2 C 7.38 g/m*3 7.2 C 0 km/h
2440 27-09-2010 08:11:02 7.5 C 7.52 g/m*3 7.5 C 0 km/h
2441 27-09-2010 08:23:02 7.5 C 7.52 g/m*3 7.5 C 0 km/h
2442 27-09-2010 08:35:02 7.6 C 7.57 g/m*3 7.6 C 0 km/h
2443 27-09-2010 08:47:02 7.8 C 7.67 g/m*3 7.8 C 0 km/h
2444 27-09-2010 08:59:02 8.1 C 7.74 g/m*3 8.1 C 0 km/h
2445 27-09-2010 09:11:02 8.5 C 7.94 g/m*3 8.5 C 0 km/h
2446 27-09-2010 09:23:02 8.8 C 8.09 g/m*3 8.8 C 0 km/h
2447 27-09-2010 09:35:02 9.2 C 8.22 g/m*3 9.2 C 0 km/h
2448 27-09-2010 09:47:01 9.6 C 8.34 g/m*3 9.6 C 0 km/h
2449 27-09-2010 09:59:01 10.1 C 8.42 g/m*3 10.1 C 0 km/h
2450 27-09-2010 10:11:02 10.4 C 8.29 g/m*3 10.4 C 0 km/h
Sensor: Nr:Datum:Temp:Abs-Feuchte:Windchill:Wind:
Aussen-T/F 2451 27-09-2010 10:23:01 10.4 C 7.9 g/m*3 10.4 C 0 km/h
2452 27-09-2010 10:35:02 10.8 C 7.51 g/m*3 10.8 C 0 km/h
2453 27-09-2010 10:47:01 11 C 7.11 g/m*3 11 C 0 km/h
2454 27-09-2010 10:59:01 11.2 C 6.99 g/m*3 11.2 C 0 km/h
2455 27-09-2010 11:11:02 11.7 C 7.01 g/m*3 11.7 C 0 km/h
2456 27-09-2010 11:23:01 11.8 C 6.74 g/m*3 11.8 C 0 km/h
2457 27-09-2010 11:35:02 12.2 C 6.8 g/m*3 12.2 C 0 km/h
2458 27-09-2010 11:47:01 12 C 6.61 g/m*3 12 C 0 km/h
2459 27-09-2010 11:59:01 12.2 C 6.8 g/m*3 12.2 C 0 km/h
2460 27-09-2010 12:11:02 12.4 C 6.77 g/m*3 12.4 C 0 km/h
2461 27-09-2010 12:23:01 12.8 C 6.94 g/m*3 12.8 C 0 km/h
2462 27-09-2010 12:35:02 12.8 C 6.83 g/m*3 12.8 C 0 km/h
2463 27-09-2010 12:47:01 13 C 6.8 g/m*3 13 C 0 km/h
2464 27-09-2010 12:59:01 12.9 C 6.76 g/m*3 12.9 C 0 km/h
2465 27-09-2010 13:11:02 13.1 C 6.73 g/m*3 13.1 C 0 km/h
2466 27-09-2010 13:23:02 13.4 C 6.97 g/m*3 13.4 C 0 km/h
2467 27-09-2010 13:35:01 13.6 C 6.71 g/m*3 13.6 C 0 km/h
2468 27-09-2010 13:47:02 13.6 C 6.71 g/m*3 13.6 C 0 km/h
2469 27-09-2010 13:59:02 13.7 C 6.51 g/m*3 13.7 C 0 km/h
2470 27-09-2010 14:11:01 13.4 C 6.51 g/m*3 13.4 C 0 km/h
2471 27-09-2010 14:23:02 13.3 C 6.7 g/m*3 13.3 C 0 km/h
2472 27-09-2010 14:35:01 13.4 C 6.74 g/m*3 13.4 C 0 km/h
2473 27-09-2010 14:47:03 13.2 C 6.77 g/m*3 13.2 C 0 km/h
2474 27-09-2010 14:59:03 13 C 6.58 g/m*3 13 C 0 km/h
2475 27-09-2010 15:11:02 13.4 C 6.74 g/m*3 13.4 C 0 km/h
Sensor: Nr:Datum:Temp:Abs-Feuchte:Windchill:Wind:
Aussen-T/F 2476 27-09-2010 15:23:02 13.6 C 6.59 g/m*3 13.6 C 0 km/h
2477 27-09-2010 15:35:02 13.6 C 6.47 g/m*3 13.6 C 0 km/h
2478 27-09-2010 15:47:02 13.2 C 6.66 g/m*3 13.2 C 0 km/h
2479 27-09-2010 15:59:02 13.2 C 6.77 g/m*3 13.2 C 0 km/h
2480 27-09-2010 16:11:01 13.4 C 6.97 g/m*3 13.4 C 0 km/h
2481 27-09-2010 16:23:02 13.4 C 7.44 g/m*3 13.4 C 0 km/h
2482 27-09-2010 16:35:02 13.4 C 7.44 g/m*3 13.4 C 0 km/h
2483 27-09-2010 16:47:01 13.3 C 7.05 g/m*3 13.3 C 0 km/h
2484 27-09-2010 16:59:01 13.4 C 7.09 g/m*3 13.4 C 0 km/h
2485 27-09-2010 17:11:01 13.2 C 7.58 g/m*3 13.2 C 0 km/h
2486 27-09-2010 17:23:01 13 C 7.6 g/m*3 13 C 0 km/h
2487 27-09-2010 17:35:02 12.8 C 7.73 g/m*3 12.8 C 0 km/h
2488 27-09-2010 17:47:02 12.8 C 7.84 g/m*3 12.8 C 0 km/h
2489 27-09-2010 17:59:02 12.7 C 7.68 g/m*3 12.7 C 0 km/h
2490 27-09-2010 18:11:02 12.5 C 7.59 g/m*3 12.5 C 0 km/h
2491 27-09-2010 18:23:01 12.3 C 7.71 g/m*3 12.3 C 0 km/h
2492 27-09-2010 18:35:02 11.9 C 7.73 g/m*3 11.9 C 0 km/h
2493 27-09-2010 18:47:02 11.7 C 7.74 g/m*3 11.7 C 0 km/h
2494 27-09-2010 18:59:02 11.3 C 7.85 g/m*3 11.3 C 0 km/h
2495 27-09-2010 19:11:02 10.8 C 8.01 g/m*3 10.8 C 0 km/h
2496 27-09-2010 19:23:02 10.7 C 8.15 g/m*3 10.7 C 0 km/h
2497 27-09-2010 19:35:02 10.5 C 8.15 g/m*3 10.5 C 0 km/h
2498 27-09-2010 19:47:02 10.5 C 8.15 g/m*3 10.5 C 0 km/h
2499 27-09-2010 19:59:02 10.4 C 8.19 g/m*3 10.4 C 0 km/h
2500 27-09-2010 20:11:02 10.3 C 8.24 g/m*3 10.3 C 0 km/h
Sensor: Nr:Datum:Temp:Abs-Feuchte:Windchill:Wind:
Aussen-T/F 2501 27-09-2010 20:23:02 10.3 C 8.33 g/m*3 10.3 C 0 km/h
2502 27-09-2010 20:35:02 10.3 C 8.43 g/m*3 10.3 C 0 km/h
2503 27-09-2010 20:47:01 10.3 C 8.43 g/m*3 10.3 C 0 km/h
2504 27-09-2010 20:59:01 10.3 C 8.52 g/m*3 10.3 C 0 km/h
2505 27-09-2010 21:11:02 10.4 C 8.58 g/m*3 10.4 C 0 km/h
2506 27-09-2010 21:23:01 10.2 C 8.47 g/m*3 10.2 C 0 km/h
2507 27-09-2010 21:35:02 10.3 C 8.52 g/m*3 10.3 C 0 km/h
2508 27-09-2010 21:47:02 10.4 C 8.58 g/m*3 10.4 C 0 km/h
2509 27-09-2010 21:59:03 10.4 C 8.58 g/m*3 10.4 C 0 km/h
2510 27-09-2010 22:11:02 10.4 C 8.58 g/m*3 10.4 C 0 km/h
2511 27-09-2010 22:24:10 10.4 C 8.67 g/m*3 10.4 C 0 km/h
2512 27-09-2010 22:36:10 10.2 C 8.56 g/m*3 10.2 C 0 km/h
2513 27-09-2010 22:48:10 10.2 C 8.56 g/m*3 10.2 C 0 km/h
2514 27-09-2010 23:00:10 10.2 C 8.56 g/m*3 10.2 C 0 km/h
2515 27-09-2010 23:12:10 10.2 C 8.66 g/m*3 10.2 C 0 km/h
2516 27-09-2010 23:24:10 10.2 C 8.66 g/m*3 10.2 C 0 km/h
2517 27-09-2010 23:36:10 10.1 C 8.61 g/m*3 10.1 C 0 km/h
2518 27-09-2010 23:48:10 10.1 C 8.7 g/m*3 10.1 C 0 km/h

Legende:
   Min
   Max


Maximal/Minimal-Werte vom 07.09.2010 - 27.09.2010

Sensor Min Max Avg
Temp
(Aussen-T/F)
5.5 °C
19-09-2010  06:04:05
28 °C
11-09-2010  17:09:02
14.46 °C
Abs-Feuchte
(Aussen-T/F)
4.25 g/m*3
17-09-2010  17:14:01
12.82 g/m*3
09-09-2010  16:55:02
8.55 g/m*3
Windchill
(Aussen-T/F)
5.5 C
19-09-2010  06:04:05
28 C
11-09-2010  17:09:02
14.46 C

Die Daten stammen von einer Davis Vantage Pro 2 Wetter-Station und werden unter Linux mit der Software wview2wettercgi und aufbereitet. Alle Angaben erfolgen ohne Gewähr für ihre Vollständigkeit oder Richtigkeit.
Kontakt: Rainer Krienke krienke@uni-koblenz.de . Meine Webseiten an der Uni Koblenz oder privat.
Version: $Revision: 0.78 $